<?xml version="1.0" encoding="UTF-8" standalone="no" ?>
<gpx xmlns="http://www.topografix.com/GPX/1/1" xmlns:xsi="http://www.w3.org/2001/XMLSchema-instance" xsi:schemaLocation="http://www.topografix.com/GPX/1/1 http://www.topografix.com/GPX/1/1/gpx.xsd" version="1.1" creator="VisuGPX - https://www.visugpx.com">
  <metadata>
    <name>Tour du Lac de Lacaune en VTT</name>
    <desc><![CDATA[Tour du lac de lacaune ne vtt.
1ere partie en petits chemins/single tracks, seconde partie de route.]]></desc>
  </metadata>
  <wpt lat="43.64785" lon="2.77757">
    <ele>809</ele>
    <name><![CDATA[Start]]></name>
  </wpt>
  <wpt lat="43.64797" lon="2.77744">
    <ele>797</ele>
    <name><![CDATA[Finish]]></name>
  </wpt>
  <trk>
    <name><![CDATA[lacaune gps]]></name>
    <trkseg>
      <trkpt lat="43.64785" lon="2.77757">
        <ele>809</ele>
        <time>2013-08-13T09:28:35Z</time>
      </trkpt>
      <trkpt lat="43.64785" lon="2.77741">
        <ele>800</ele>
        <time>2013-08-13T09:29:52Z</time>
      </trkpt>
      <trkpt lat="43.64787" lon="2.77725">
        <ele>798</ele>
        <time>2013-08-13T09:29:55Z</time>
      </trkpt>
      <trkpt lat="43.64787" lon="2.7771">
        <ele>797</ele>
        <time>2013-08-13T09:29:57Z</time>
      </trkpt>
      <trkpt lat="43.6478" lon="2.77696">
        <ele>800</ele>
        <time>2013-08-13T09:30:00Z</time>
      </trkpt>
      <trkpt lat="43.64769" lon="2.77691">
        <ele>799</ele>
        <time>2013-08-13T09:30:03Z</time>
      </trkpt>
      <trkpt lat="43.64757" lon="2.77694">
        <ele>800</ele>
        <time>2013-08-13T09:30:06Z</time>
      </trkpt>
      <trkpt lat="43.64746" lon="2.77703">
        <ele>799</ele>
        <time>2013-08-13T09:30:09Z</time>
      </trkpt>
      <trkpt lat="43.64738" lon="2.77713">
        <ele>798</ele>
        <time>2013-08-13T09:30:12Z</time>
      </trkpt>
      <trkpt lat="43.64729" lon="2.77722">
        <ele>794</ele>
        <time>2013-08-13T09:30:15Z</time>
      </trkpt>
      <trkpt lat="43.64721" lon="2.7773">
        <ele>794</ele>
        <time>2013-08-13T09:30:18Z</time>
      </trkpt>
      <trkpt lat="43.6471" lon="2.77739">
        <ele>794</ele>
        <time>2013-08-13T09:30:22Z</time>
      </trkpt>
      <trkpt lat="43.64693" lon="2.77765">
        <ele>793</ele>
        <time>2013-08-13T09:30:25Z</time>
      </trkpt>
      <trkpt lat="43.64684" lon="2.77779">
        <ele>792</ele>
        <time>2013-08-13T09:30:27Z</time>
      </trkpt>
      <trkpt lat="43.64677" lon="2.77798">
        <ele>793</ele>
        <time>2013-08-13T09:30:29Z</time>
      </trkpt>
      <trkpt lat="43.6467" lon="2.77815">
        <ele>790</ele>
        <time>2013-08-13T09:30:31Z</time>
      </trkpt>
      <trkpt lat="43.64669" lon="2.77834">
        <ele>790</ele>
        <time>2013-08-13T09:30:33Z</time>
      </trkpt>
      <trkpt lat="43.64664" lon="2.77852">
        <ele>790</ele>
        <time>2013-08-13T09:30:35Z</time>
      </trkpt>
      <trkpt lat="43.64661" lon="2.77872">
        <ele>789</ele>
        <time>2013-08-13T09:30:37Z</time>
      </trkpt>
      <trkpt lat="43.64658" lon="2.77892">
        <ele>789</ele>
        <time>2013-08-13T09:30:39Z</time>
      </trkpt>
      <trkpt lat="43.6466" lon="2.77911">
        <ele>788</ele>
        <time>2013-08-13T09:30:41Z</time>
      </trkpt>
      <trkpt lat="43.64662" lon="2.77933">
        <ele>788</ele>
        <time>2013-08-13T09:30:43Z</time>
      </trkpt>
      <trkpt lat="43.64667" lon="2.77955">
        <ele>787</ele>
        <time>2013-08-13T09:30:45Z</time>
      </trkpt>
      <trkpt lat="43.64668" lon="2.77968">
        <ele>787</ele>
        <time>2013-08-13T09:30:46Z</time>
      </trkpt>
      <trkpt lat="43.6467" lon="2.77988">
        <ele>787</ele>
        <time>2013-08-13T09:30:48Z</time>
      </trkpt>
      <trkpt lat="43.64676" lon="2.78009">
        <ele>787</ele>
        <time>2013-08-13T09:30:50Z</time>
      </trkpt>
      <trkpt lat="43.64681" lon="2.78024">
        <ele>786</ele>
        <time>2013-08-13T09:30:52Z</time>
      </trkpt>
      <trkpt lat="43.64683" lon="2.78046">
        <ele>785</ele>
        <time>2013-08-13T09:30:54Z</time>
      </trkpt>
      <trkpt lat="43.64688" lon="2.7806">
        <ele>783</ele>
        <time>2013-08-13T09:30:55Z</time>
      </trkpt>
      <trkpt lat="43.64696" lon="2.78079">
        <ele>783</ele>
        <time>2013-08-13T09:30:57Z</time>
      </trkpt>
      <trkpt lat="43.64701" lon="2.78098">
        <ele>783</ele>
        <time>2013-08-13T09:30:59Z</time>
      </trkpt>
      <trkpt lat="43.64707" lon="2.78118">
        <ele>784</ele>
        <time>2013-08-13T09:31:01Z</time>
      </trkpt>
      <trkpt lat="43.64708" lon="2.7814">
        <ele>785</ele>
        <time>2013-08-13T09:31:03Z</time>
      </trkpt>
      <trkpt lat="43.64708" lon="2.78162">
        <ele>787</ele>
        <time>2013-08-13T09:31:05Z</time>
      </trkpt>
      <trkpt lat="43.64709" lon="2.78183">
        <ele>787</ele>
        <time>2013-08-13T09:31:07Z</time>
      </trkpt>
      <trkpt lat="43.64711" lon="2.78204">
        <ele>786</ele>
        <time>2013-08-13T09:31:09Z</time>
      </trkpt>
      <trkpt lat="43.64713" lon="2.78225">
        <ele>785</ele>
        <time>2013-08-13T09:31:11Z</time>
      </trkpt>
      <trkpt lat="43.64718" lon="2.78244">
        <ele>784</ele>
        <time>2013-08-13T09:31:13Z</time>
      </trkpt>
      <trkpt lat="43.64724" lon="2.78262">
        <ele>784</ele>
        <time>2013-08-13T09:31:15Z</time>
      </trkpt>
      <trkpt lat="43.64731" lon="2.78277">
        <ele>783</ele>
        <time>2013-08-13T09:31:17Z</time>
      </trkpt>
      <trkpt lat="43.64736" lon="2.78291">
        <ele>782</ele>
        <time>2013-08-13T09:31:19Z</time>
      </trkpt>
      <trkpt lat="43.64744" lon="2.78301">
        <ele>781</ele>
        <time>2013-08-13T09:31:21Z</time>
      </trkpt>
      <trkpt lat="43.64747" lon="2.78313">
        <ele>779</ele>
        <time>2013-08-13T09:31:25Z</time>
      </trkpt>
      <trkpt lat="43.64751" lon="2.78327">
        <ele>781</ele>
        <time>2013-08-13T09:31:34Z</time>
      </trkpt>
      <trkpt lat="43.64755" lon="2.78339">
        <ele>782</ele>
        <time>2013-08-13T09:31:36Z</time>
      </trkpt>
      <trkpt lat="43.64762" lon="2.78357">
        <ele>781</ele>
        <time>2013-08-13T09:31:39Z</time>
      </trkpt>
      <trkpt lat="43.64767" lon="2.78371">
        <ele>780</ele>
        <time>2013-08-13T09:31:41Z</time>
      </trkpt>
      <trkpt lat="43.64773" lon="2.78385">
        <ele>781</ele>
        <time>2013-08-13T09:31:43Z</time>
      </trkpt>
      <trkpt lat="43.64779" lon="2.78397">
        <ele>782</ele>
        <time>2013-08-13T09:31:45Z</time>
      </trkpt>
      <trkpt lat="43.64784" lon="2.78408">
        <ele>784</ele>
        <time>2013-08-13T09:31:47Z</time>
      </trkpt>
      <trkpt lat="43.64789" lon="2.78421">
        <ele>786</ele>
        <time>2013-08-13T09:31:49Z</time>
      </trkpt>
      <trkpt lat="43.64795" lon="2.78433">
        <ele>784</ele>
        <time>2013-08-13T09:31:51Z</time>
      </trkpt>
      <trkpt lat="43.64802" lon="2.78447">
        <ele>783</ele>
        <time>2013-08-13T09:31:53Z</time>
      </trkpt>
      <trkpt lat="43.64809" lon="2.78461">
        <ele>784</ele>
        <time>2013-08-13T09:31:55Z</time>
      </trkpt>
      <trkpt lat="43.64817" lon="2.78475">
        <ele>783</ele>
        <time>2013-08-13T09:31:57Z</time>
      </trkpt>
      <trkpt lat="43.64823" lon="2.78488">
        <ele>784</ele>
        <time>2013-08-13T09:31:59Z</time>
      </trkpt>
      <trkpt lat="43.64827" lon="2.785">
        <ele>785</ele>
        <time>2013-08-13T09:32:01Z</time>
      </trkpt>
      <trkpt lat="43.64831" lon="2.78516">
        <ele>787</ele>
        <time>2013-08-13T09:32:04Z</time>
      </trkpt>
      <trkpt lat="43.64836" lon="2.7853">
        <ele>791</ele>
        <time>2013-08-13T09:32:07Z</time>
      </trkpt>
      <trkpt lat="43.64841" lon="2.78542">
        <ele>793</ele>
        <time>2013-08-13T09:32:09Z</time>
      </trkpt>
      <trkpt lat="43.64845" lon="2.78554">
        <ele>794</ele>
        <time>2013-08-13T09:32:11Z</time>
      </trkpt>
      <trkpt lat="43.64848" lon="2.78567">
        <ele>792</ele>
        <time>2013-08-13T09:32:13Z</time>
      </trkpt>
      <trkpt lat="43.6485" lon="2.7858">
        <ele>791</ele>
        <time>2013-08-13T09:32:15Z</time>
      </trkpt>
      <trkpt lat="43.64853" lon="2.78597">
        <ele>791</ele>
        <time>2013-08-13T09:32:16Z</time>
      </trkpt>
      <trkpt lat="43.64858" lon="2.7861">
        <ele>789</ele>
        <time>2013-08-13T09:32:18Z</time>
      </trkpt>
      <trkpt lat="43.64862" lon="2.78625">
        <ele>791</ele>
        <time>2013-08-13T09:32:21Z</time>
      </trkpt>
      <trkpt lat="43.64868" lon="2.78637">
        <ele>792</ele>
        <time>2013-08-13T09:32:24Z</time>
      </trkpt>
      <trkpt lat="43.64874" lon="2.78649">
        <ele>791</ele>
        <time>2013-08-13T09:32:28Z</time>
      </trkpt>
      <trkpt lat="43.64881" lon="2.78664">
        <ele>790</ele>
        <time>2013-08-13T09:32:32Z</time>
      </trkpt>
      <trkpt lat="43.64888" lon="2.78681">
        <ele>789</ele>
        <time>2013-08-13T09:32:35Z</time>
      </trkpt>
      <trkpt lat="43.64893" lon="2.78692">
        <ele>787</ele>
        <time>2013-08-13T09:32:37Z</time>
      </trkpt>
      <trkpt lat="43.64898" lon="2.78704">
        <ele>788</ele>
        <time>2013-08-13T09:32:39Z</time>
      </trkpt>
      <trkpt lat="43.64904" lon="2.7872">
        <ele>785</ele>
        <time>2013-08-13T09:32:42Z</time>
      </trkpt>
      <trkpt lat="43.64909" lon="2.78731">
        <ele>785</ele>
        <time>2013-08-13T09:32:45Z</time>
      </trkpt>
      <trkpt lat="43.64914" lon="2.78743">
        <ele>786</ele>
        <time>2013-08-13T09:32:49Z</time>
      </trkpt>
      <trkpt lat="43.64922" lon="2.78757">
        <ele>784</ele>
        <time>2013-08-13T09:32:52Z</time>
      </trkpt>
      <trkpt lat="43.64929" lon="2.78766">
        <ele>786</ele>
        <time>2013-08-13T09:32:55Z</time>
      </trkpt>
      <trkpt lat="43.64922" lon="2.78775">
        <ele>791</ele>
        <time>2013-08-13T09:33:09Z</time>
      </trkpt>
      <trkpt lat="43.64917" lon="2.78787">
        <ele>790</ele>
        <time>2013-08-13T09:33:15Z</time>
      </trkpt>
      <trkpt lat="43.6492" lon="2.78801">
        <ele>787</ele>
        <time>2013-08-13T09:33:28Z</time>
      </trkpt>
      <trkpt lat="43.64923" lon="2.78819">
        <ele>787</ele>
        <time>2013-08-13T09:33:35Z</time>
      </trkpt>
      <trkpt lat="43.64926" lon="2.78833">
        <ele>786</ele>
        <time>2013-08-13T09:33:39Z</time>
      </trkpt>
      <trkpt lat="43.64931" lon="2.78845">
        <ele>786</ele>
        <time>2013-08-13T09:33:43Z</time>
      </trkpt>
      <trkpt lat="43.64936" lon="2.78856">
        <ele>787</ele>
        <time>2013-08-13T09:33:47Z</time>
      </trkpt>
      <trkpt lat="43.6494" lon="2.78869">
        <ele>792</ele>
        <time>2013-08-13T09:33:51Z</time>
      </trkpt>
      <trkpt lat="43.64944" lon="2.78882">
        <ele>794</ele>
        <time>2013-08-13T09:33:55Z</time>
      </trkpt>
      <trkpt lat="43.64955" lon="2.78881">
        <ele>791</ele>
        <time>2013-08-13T09:34:05Z</time>
      </trkpt>
      <trkpt lat="43.64964" lon="2.78882">
        <ele>797</ele>
        <time>2013-08-13T09:34:35Z</time>
      </trkpt>
      <trkpt lat="43.64975" lon="2.7888">
        <ele>790</ele>
        <time>2013-08-13T09:34:53Z</time>
      </trkpt>
      <trkpt lat="43.64987" lon="2.78876">
        <ele>790</ele>
        <time>2013-08-13T09:34:57Z</time>
      </trkpt>
      <trkpt lat="43.64998" lon="2.78873">
        <ele>790</ele>
        <time>2013-08-13T09:35:00Z</time>
      </trkpt>
      <trkpt lat="43.65012" lon="2.78872">
        <ele>791</ele>
        <time>2013-08-13T09:35:03Z</time>
      </trkpt>
      <trkpt lat="43.65022" lon="2.78871">
        <ele>793</ele>
        <time>2013-08-13T09:35:05Z</time>
      </trkpt>
      <trkpt lat="43.65032" lon="2.78875">
        <ele>796</ele>
        <time>2013-08-13T09:35:10Z</time>
      </trkpt>
      <trkpt lat="43.65043" lon="2.7888">
        <ele>801</ele>
        <time>2013-08-13T09:35:31Z</time>
      </trkpt>
      <trkpt lat="43.6506" lon="2.78887">
        <ele>807</ele>
        <time>2013-08-13T09:35:33Z</time>
      </trkpt>
      <trkpt lat="43.65069" lon="2.78891">
        <ele>807</ele>
        <time>2013-08-13T09:35:35Z</time>
      </trkpt>
      <trkpt lat="43.65079" lon="2.78897">
        <ele>808</ele>
        <time>2013-08-13T09:35:38Z</time>
      </trkpt>
      <trkpt lat="43.65089" lon="2.78901">
        <ele>807</ele>
        <time>2013-08-13T09:35:41Z</time>
      </trkpt>
      <trkpt lat="43.65099" lon="2.78904">
        <ele>804</ele>
        <time>2013-08-13T09:35:45Z</time>
      </trkpt>
      <trkpt lat="43.65108" lon="2.78904">
        <ele>803</ele>
        <time>2013-08-13T09:35:49Z</time>
      </trkpt>
      <trkpt lat="43.6512" lon="2.78904">
        <ele>803</ele>
        <time>2013-08-13T09:35:53Z</time>
      </trkpt>
      <trkpt lat="43.65131" lon="2.78907">
        <ele>804</ele>
        <time>2013-08-13T09:35:56Z</time>
      </trkpt>
      <trkpt lat="43.65141" lon="2.78912">
        <ele>793</ele>
        <time>2013-08-13T09:35:59Z</time>
      </trkpt>
      <trkpt lat="43.65151" lon="2.78918">
        <ele>789</ele>
        <time>2013-08-13T09:36:02Z</time>
      </trkpt>
      <trkpt lat="43.65162" lon="2.78925">
        <ele>782</ele>
        <time>2013-08-13T09:36:06Z</time>
      </trkpt>
      <trkpt lat="43.65171" lon="2.78932">
        <ele>781</ele>
        <time>2013-08-13T09:36:09Z</time>
      </trkpt>
      <trkpt lat="43.65182" lon="2.78941">
        <ele>781</ele>
        <time>2013-08-13T09:36:12Z</time>
      </trkpt>
      <trkpt lat="43.6519" lon="2.7895">
        <ele>782</ele>
        <time>2013-08-13T09:36:15Z</time>
      </trkpt>
      <trkpt lat="43.65199" lon="2.78962">
        <ele>787</ele>
        <time>2013-08-13T09:36:27Z</time>
      </trkpt>
      <trkpt lat="43.65207" lon="2.78979">
        <ele>789</ele>
        <time>2013-08-13T09:36:30Z</time>
      </trkpt>
      <trkpt lat="43.65208" lon="2.78993">
        <ele>789</ele>
        <time>2013-08-13T09:36:32Z</time>
      </trkpt>
      <trkpt lat="43.65206" lon="2.79011">
        <ele>789</ele>
        <time>2013-08-13T09:36:33Z</time>
      </trkpt>
      <trkpt lat="43.65208" lon="2.79024">
        <ele>787</ele>
        <time>2013-08-13T09:36:35Z</time>
      </trkpt>
      <trkpt lat="43.65207" lon="2.7904">
        <ele>783</ele>
        <time>2013-08-13T09:36:37Z</time>
      </trkpt>
      <trkpt lat="43.65208" lon="2.79054">
        <ele>782</ele>
        <time>2013-08-13T09:36:39Z</time>
      </trkpt>
      <trkpt lat="43.65206" lon="2.79069">
        <ele>782</ele>
        <time>2013-08-13T09:36:41Z</time>
      </trkpt>
      <trkpt lat="43.65204" lon="2.79086">
        <ele>781</ele>
        <time>2013-08-13T09:36:43Z</time>
      </trkpt>
      <trkpt lat="43.65204" lon="2.79105">
        <ele>780</ele>
        <time>2013-08-13T09:36:45Z</time>
      </trkpt>
      <trkpt lat="43.65199" lon="2.79129">
        <ele>779</ele>
        <time>2013-08-13T09:36:47Z</time>
      </trkpt>
      <trkpt lat="43.65198" lon="2.79151">
        <ele>777</ele>
        <time>2013-08-13T09:36:49Z</time>
      </trkpt>
      <trkpt lat="43.65197" lon="2.79175">
        <ele>775</ele>
        <time>2013-08-13T09:36:51Z</time>
      </trkpt>
      <trkpt lat="43.65192" lon="2.79196">
        <ele>775</ele>
        <time>2013-08-13T09:36:53Z</time>
      </trkpt>
      <trkpt lat="43.65194" lon="2.79221">
        <ele>774</ele>
        <time>2013-08-13T09:36:55Z</time>
      </trkpt>
      <trkpt lat="43.65192" lon="2.79241">
        <ele>774</ele>
        <time>2013-08-13T09:36:57Z</time>
      </trkpt>
      <trkpt lat="43.65193" lon="2.79261">
        <ele>775</ele>
        <time>2013-08-13T09:36:59Z</time>
      </trkpt>
      <trkpt lat="43.65189" lon="2.7928">
        <ele>776</ele>
        <time>2013-08-13T09:37:01Z</time>
      </trkpt>
      <trkpt lat="43.65191" lon="2.79298">
        <ele>775</ele>
        <time>2013-08-13T09:37:03Z</time>
      </trkpt>
      <trkpt lat="43.65191" lon="2.79315">
        <ele>773</ele>
        <time>2013-08-13T09:37:05Z</time>
      </trkpt>
      <trkpt lat="43.6519" lon="2.79331">
        <ele>773</ele>
        <time>2013-08-13T09:37:07Z</time>
      </trkpt>
      <trkpt lat="43.65186" lon="2.7935">
        <ele>772</ele>
        <time>2013-08-13T09:37:09Z</time>
      </trkpt>
      <trkpt lat="43.65184" lon="2.79365">
        <ele>772</ele>
        <time>2013-08-13T09:37:11Z</time>
      </trkpt>
      <trkpt lat="43.65179" lon="2.79385">
        <ele>774</ele>
        <time>2013-08-13T09:37:14Z</time>
      </trkpt>
      <trkpt lat="43.65179" lon="2.794">
        <ele>775</ele>
        <time>2013-08-13T09:37:16Z</time>
      </trkpt>
      <trkpt lat="43.65179" lon="2.79414">
        <ele>775</ele>
        <time>2013-08-13T09:37:18Z</time>
      </trkpt>
      <trkpt lat="43.65178" lon="2.79428">
        <ele>775</ele>
        <time>2013-08-13T09:37:20Z</time>
      </trkpt>
      <trkpt lat="43.65176" lon="2.79444">
        <ele>775</ele>
        <time>2013-08-13T09:37:22Z</time>
      </trkpt>
      <trkpt lat="43.65176" lon="2.79458">
        <ele>775</ele>
        <time>2013-08-13T09:37:24Z</time>
      </trkpt>
      <trkpt lat="43.6518" lon="2.7947">
        <ele>775</ele>
        <time>2013-08-13T09:37:26Z</time>
      </trkpt>
      <trkpt lat="43.65182" lon="2.79489">
        <ele>778</ele>
        <time>2013-08-13T09:37:28Z</time>
      </trkpt>
      <trkpt lat="43.65182" lon="2.79503">
        <ele>779</ele>
        <time>2013-08-13T09:37:30Z</time>
      </trkpt>
      <trkpt lat="43.65186" lon="2.79518">
        <ele>781</ele>
        <time>2013-08-13T09:37:33Z</time>
      </trkpt>
      <trkpt lat="43.65188" lon="2.79538">
        <ele>781</ele>
        <time>2013-08-13T09:37:36Z</time>
      </trkpt>
      <trkpt lat="43.65187" lon="2.79555">
        <ele>781</ele>
        <time>2013-08-13T09:37:38Z</time>
      </trkpt>
      <trkpt lat="43.65188" lon="2.79572">
        <ele>781</ele>
        <time>2013-08-13T09:37:40Z</time>
      </trkpt>
      <trkpt lat="43.65186" lon="2.79588">
        <ele>783</ele>
        <time>2013-08-13T09:37:42Z</time>
      </trkpt>
      <trkpt lat="43.65182" lon="2.79601">
        <ele>783</ele>
        <time>2013-08-13T09:37:44Z</time>
      </trkpt>
      <trkpt lat="43.65182" lon="2.79616">
        <ele>784</ele>
        <time>2013-08-13T09:37:46Z</time>
      </trkpt>
      <trkpt lat="43.65177" lon="2.79631">
        <ele>784</ele>
        <time>2013-08-13T09:37:48Z</time>
      </trkpt>
      <trkpt lat="43.65175" lon="2.79648">
        <ele>784</ele>
        <time>2013-08-13T09:37:50Z</time>
      </trkpt>
      <trkpt lat="43.65173" lon="2.79665">
        <ele>786</ele>
        <time>2013-08-13T09:37:52Z</time>
      </trkpt>
      <trkpt lat="43.65177" lon="2.79681">
        <ele>788</ele>
        <time>2013-08-13T09:37:54Z</time>
      </trkpt>
      <trkpt lat="43.65182" lon="2.79696">
        <ele>789</ele>
        <time>2013-08-13T09:37:56Z</time>
      </trkpt>
      <trkpt lat="43.65186" lon="2.79715">
        <ele>789</ele>
        <time>2013-08-13T09:37:58Z</time>
      </trkpt>
      <trkpt lat="43.65183" lon="2.79728">
        <ele>788</ele>
        <time>2013-08-13T09:37:59Z</time>
      </trkpt>
      <trkpt lat="43.65193" lon="2.79746">
        <ele>787</ele>
        <time>2013-08-13T09:38:01Z</time>
      </trkpt>
      <trkpt lat="43.65201" lon="2.79765">
        <ele>787</ele>
        <time>2013-08-13T09:38:03Z</time>
      </trkpt>
      <trkpt lat="43.65208" lon="2.79783">
        <ele>787</ele>
        <time>2013-08-13T09:38:05Z</time>
      </trkpt>
      <trkpt lat="43.65213" lon="2.79801">
        <ele>787</ele>
        <time>2013-08-13T09:38:07Z</time>
      </trkpt>
      <trkpt lat="43.6522" lon="2.79815">
        <ele>786</ele>
        <time>2013-08-13T09:38:09Z</time>
      </trkpt>
      <trkpt lat="43.6523" lon="2.79823">
        <ele>784</ele>
        <time>2013-08-13T09:38:13Z</time>
      </trkpt>
      <trkpt lat="43.65223" lon="2.79834">
        <ele>785</ele>
        <time>2013-08-13T09:38:36Z</time>
      </trkpt>
      <trkpt lat="43.65225" lon="2.79849">
        <ele>785</ele>
        <time>2013-08-13T09:38:40Z</time>
      </trkpt>
      <trkpt lat="43.65229" lon="2.79864">
        <ele>782</ele>
        <time>2013-08-13T09:38:43Z</time>
      </trkpt>
      <trkpt lat="43.65239" lon="2.7988">
        <ele>770</ele>
        <time>2013-08-13T09:38:45Z</time>
      </trkpt>
      <trkpt lat="43.65245" lon="2.79891">
        <ele>768</ele>
        <time>2013-08-13T09:38:47Z</time>
      </trkpt>
      <trkpt lat="43.65248" lon="2.79907">
        <ele>766</ele>
        <time>2013-08-13T09:38:50Z</time>
      </trkpt>
      <trkpt lat="43.65253" lon="2.79922">
        <ele>759</ele>
        <time>2013-08-13T09:38:54Z</time>
      </trkpt>
      <trkpt lat="43.6526" lon="2.79933">
        <ele>760</ele>
        <time>2013-08-13T09:38:57Z</time>
      </trkpt>
      <trkpt lat="43.65267" lon="2.79943">
        <ele>762</ele>
        <time>2013-08-13T09:39:00Z</time>
      </trkpt>
      <trkpt lat="43.65273" lon="2.79957">
        <ele>764</ele>
        <time>2013-08-13T09:39:04Z</time>
      </trkpt>
      <trkpt lat="43.65278" lon="2.79969">
        <ele>764</ele>
        <time>2013-08-13T09:39:07Z</time>
      </trkpt>
      <trkpt lat="43.65286" lon="2.79983">
        <ele>766</ele>
        <time>2013-08-13T09:39:11Z</time>
      </trkpt>
      <trkpt lat="43.65294" lon="2.79993">
        <ele>766</ele>
        <time>2013-08-13T09:39:13Z</time>
      </trkpt>
      <trkpt lat="43.65304" lon="2.80005">
        <ele>766</ele>
        <time>2013-08-13T09:39:16Z</time>
      </trkpt>
      <trkpt lat="43.65311" lon="2.80016">
        <ele>767</ele>
        <time>2013-08-13T09:39:19Z</time>
      </trkpt>
      <trkpt lat="43.65319" lon="2.8003">
        <ele>766</ele>
        <time>2013-08-13T09:39:22Z</time>
      </trkpt>
      <trkpt lat="43.65328" lon="2.80045">
        <ele>766</ele>
        <time>2013-08-13T09:39:25Z</time>
      </trkpt>
      <trkpt lat="43.65336" lon="2.8006">
        <ele>767</ele>
        <time>2013-08-13T09:39:28Z</time>
      </trkpt>
      <trkpt lat="43.65346" lon="2.80074">
        <ele>764</ele>
        <time>2013-08-13T09:39:29Z</time>
      </trkpt>
      <trkpt lat="43.65352" lon="2.80087">
        <ele>772</ele>
        <time>2013-08-13T09:39:33Z</time>
      </trkpt>
      <trkpt lat="43.65359" lon="2.80097">
        <ele>773</ele>
        <time>2013-08-13T09:39:36Z</time>
      </trkpt>
      <trkpt lat="43.65366" lon="2.80105">
        <ele>774</ele>
        <time>2013-08-13T09:39:38Z</time>
      </trkpt>
      <trkpt lat="43.65376" lon="2.80115">
        <ele>778</ele>
        <time>2013-08-13T09:39:42Z</time>
      </trkpt>
      <trkpt lat="43.65386" lon="2.80124">
        <ele>779</ele>
        <time>2013-08-13T09:39:45Z</time>
      </trkpt>
      <trkpt lat="43.65397" lon="2.80134">
        <ele>781</ele>
        <time>2013-08-13T09:39:48Z</time>
      </trkpt>
      <trkpt lat="43.65403" lon="2.80143">
        <ele>781</ele>
        <time>2013-08-13T09:39:50Z</time>
      </trkpt>
      <trkpt lat="43.65411" lon="2.80153">
        <ele>782</ele>
        <time>2013-08-13T09:39:52Z</time>
      </trkpt>
      <trkpt lat="43.65419" lon="2.80163">
        <ele>783</ele>
        <time>2013-08-13T09:39:54Z</time>
      </trkpt>
      <trkpt lat="43.65428" lon="2.80172">
        <ele>786</ele>
        <time>2013-08-13T09:39:56Z</time>
      </trkpt>
      <trkpt lat="43.65438" lon="2.80185">
        <ele>785</ele>
        <time>2013-08-13T09:39:59Z</time>
      </trkpt>
      <trkpt lat="43.65446" lon="2.80195">
        <ele>786</ele>
        <time>2013-08-13T09:40:02Z</time>
      </trkpt>
      <trkpt lat="43.65455" lon="2.80202">
        <ele>784</ele>
        <time>2013-08-13T09:40:05Z</time>
      </trkpt>
      <trkpt lat="43.65466" lon="2.80206">
        <ele>783</ele>
        <time>2013-08-13T09:40:08Z</time>
      </trkpt>
      <trkpt lat="43.65477" lon="2.80209">
        <ele>781</ele>
        <time>2013-08-13T09:40:11Z</time>
      </trkpt>
      <trkpt lat="43.65488" lon="2.80211">
        <ele>777</ele>
        <time>2013-08-13T09:40:14Z</time>
      </trkpt>
      <trkpt lat="43.65498" lon="2.80213">
        <ele>774</ele>
        <time>2013-08-13T09:40:17Z</time>
      </trkpt>
      <trkpt lat="43.65508" lon="2.80211">
        <ele>775</ele>
        <time>2013-08-13T09:40:24Z</time>
      </trkpt>
      <trkpt lat="43.65519" lon="2.8021">
        <ele>776</ele>
        <time>2013-08-13T09:40:30Z</time>
      </trkpt>
      <trkpt lat="43.6553" lon="2.80213">
        <ele>777</ele>
        <time>2013-08-13T09:40:34Z</time>
      </trkpt>
      <trkpt lat="43.65539" lon="2.80221">
        <ele>776</ele>
        <time>2013-08-13T09:40:38Z</time>
      </trkpt>
      <trkpt lat="43.65551" lon="2.80225">
        <ele>775</ele>
        <time>2013-08-13T09:40:42Z</time>
      </trkpt>
      <trkpt lat="43.65561" lon="2.8023">
        <ele>774</ele>
        <time>2013-08-13T09:40:46Z</time>
      </trkpt>
      <trkpt lat="43.65572" lon="2.80234">
        <ele>773</ele>
        <time>2013-08-13T09:40:52Z</time>
      </trkpt>
      <trkpt lat="43.65583" lon="2.80235">
        <ele>772</ele>
        <time>2013-08-13T09:40:58Z</time>
      </trkpt>
      <trkpt lat="43.65593" lon="2.80231">
        <ele>769</ele>
        <time>2013-08-13T09:41:12Z</time>
      </trkpt>
      <trkpt lat="43.65603" lon="2.80234">
        <ele>771</ele>
        <time>2013-08-13T09:41:28Z</time>
      </trkpt>
      <trkpt lat="43.65614" lon="2.80233">
        <ele>772</ele>
        <time>2013-08-13T09:41:31Z</time>
      </trkpt>
      <trkpt lat="43.65624" lon="2.80234">
        <ele>771</ele>
        <time>2013-08-13T09:41:35Z</time>
      </trkpt>
      <trkpt lat="43.65634" lon="2.80238">
        <ele>788</ele>
        <time>2013-08-13T09:41:53Z</time>
      </trkpt>
      <trkpt lat="43.65644" lon="2.80234">
        <ele>789</ele>
        <time>2013-08-13T09:41:59Z</time>
      </trkpt>
      <trkpt lat="43.65655" lon="2.80228">
        <ele>787</ele>
        <time>2013-08-13T09:42:03Z</time>
      </trkpt>
      <trkpt lat="43.65665" lon="2.80224">
        <ele>788</ele>
        <time>2013-08-13T09:42:06Z</time>
      </trkpt>
      <trkpt lat="43.65677" lon="2.80219">
        <ele>788</ele>
        <time>2013-08-13T09:42:09Z</time>
      </trkpt>
      <trkpt lat="43.65688" lon="2.80215">
        <ele>786</ele>
        <time>2013-08-13T09:42:12Z</time>
      </trkpt>
      <trkpt lat="43.65701" lon="2.80209">
        <ele>784</ele>
        <time>2013-08-13T09:42:15Z</time>
      </trkpt>
      <trkpt lat="43.65711" lon="2.80205">
        <ele>783</ele>
        <time>2013-08-13T09:42:17Z</time>
      </trkpt>
      <trkpt lat="43.65721" lon="2.802">
        <ele>784</ele>
        <time>2013-08-13T09:42:19Z</time>
      </trkpt>
      <trkpt lat="43.65731" lon="2.80196">
        <ele>785</ele>
        <time>2013-08-13T09:42:21Z</time>
      </trkpt>
      <trkpt lat="43.65739" lon="2.80188">
        <ele>784</ele>
        <time>2013-08-13T09:42:24Z</time>
      </trkpt>
      <trkpt lat="43.6575" lon="2.80193">
        <ele>785</ele>
        <time>2013-08-13T09:42:28Z</time>
      </trkpt>
      <trkpt lat="43.65757" lon="2.80183">
        <ele>791</ele>
        <time>2013-08-13T09:43:29Z</time>
      </trkpt>
      <trkpt lat="43.65765" lon="2.80175">
        <ele>790</ele>
        <time>2013-08-13T09:43:32Z</time>
      </trkpt>
      <trkpt lat="43.65774" lon="2.80167">
        <ele>789</ele>
        <time>2013-08-13T09:43:34Z</time>
      </trkpt>
      <trkpt lat="43.65785" lon="2.80159">
        <ele>789</ele>
        <time>2013-08-13T09:43:36Z</time>
      </trkpt>
      <trkpt lat="43.65798" lon="2.80148">
        <ele>788</ele>
        <time>2013-08-13T09:43:37Z</time>
      </trkpt>
      <trkpt lat="43.65808" lon="2.80137">
        <ele>787</ele>
        <time>2013-08-13T09:43:39Z</time>
      </trkpt>
      <trkpt lat="43.6582" lon="2.80123">
        <ele>785</ele>
        <time>2013-08-13T09:43:41Z</time>
      </trkpt>
      <trkpt lat="43.65831" lon="2.80114">
        <ele>784</ele>
        <time>2013-08-13T09:43:43Z</time>
      </trkpt>
      <trkpt lat="43.65841" lon="2.801">
        <ele>782</ele>
        <time>2013-08-13T09:43:45Z</time>
      </trkpt>
      <trkpt lat="43.65849" lon="2.80086">
        <ele>783</ele>
        <time>2013-08-13T09:43:47Z</time>
      </trkpt>
      <trkpt lat="43.65857" lon="2.80073">
        <ele>785</ele>
        <time>2013-08-13T09:43:49Z</time>
      </trkpt>
      <trkpt lat="43.65866" lon="2.8006">
        <ele>790</ele>
        <time>2013-08-13T09:43:51Z</time>
      </trkpt>
      <trkpt lat="43.65876" lon="2.80044">
        <ele>787</ele>
        <time>2013-08-13T09:43:53Z</time>
      </trkpt>
      <trkpt lat="43.65884" lon="2.8003">
        <ele>785</ele>
        <time>2013-08-13T09:43:55Z</time>
      </trkpt>
      <trkpt lat="43.65893" lon="2.80017">
        <ele>785</ele>
        <time>2013-08-13T09:43:57Z</time>
      </trkpt>
      <trkpt lat="43.65902" lon="2.80008">
        <ele>785</ele>
        <time>2013-08-13T09:43:59Z</time>
      </trkpt>
      <trkpt lat="43.65914" lon="2.79998">
        <ele>784</ele>
        <time>2013-08-13T09:44:02Z</time>
      </trkpt>
      <trkpt lat="43.65926" lon="2.79988">
        <ele>785</ele>
        <time>2013-08-13T09:44:04Z</time>
      </trkpt>
      <trkpt lat="43.65936" lon="2.79986">
        <ele>784</ele>
        <time>2013-08-13T09:44:05Z</time>
      </trkpt>
      <trkpt lat="43.65948" lon="2.79977">
        <ele>780</ele>
        <time>2013-08-13T09:44:07Z</time>
      </trkpt>
      <trkpt lat="43.65958" lon="2.79969">
        <ele>778</ele>
        <time>2013-08-13T09:44:09Z</time>
      </trkpt>
      <trkpt lat="43.65973" lon="2.79973">
        <ele>779</ele>
        <time>2013-08-13T09:44:11Z</time>
      </trkpt>
      <trkpt lat="43.65984" lon="2.79968">
        <ele>781</ele>
        <time>2013-08-13T09:44:13Z</time>
      </trkpt>
      <trkpt lat="43.65995" lon="2.79963">
        <ele>781</ele>
        <time>2013-08-13T09:44:15Z</time>
      </trkpt>
      <trkpt lat="43.66004" lon="2.79955">
        <ele>780</ele>
        <time>2013-08-13T09:44:17Z</time>
      </trkpt>
      <trkpt lat="43.66016" lon="2.79958">
        <ele>784</ele>
        <time>2013-08-13T09:44:19Z</time>
      </trkpt>
      <trkpt lat="43.66024" lon="2.79966">
        <ele>785</ele>
        <time>2013-08-13T09:44:21Z</time>
      </trkpt>
      <trkpt lat="43.66029" lon="2.79987">
        <ele>784</ele>
        <time>2013-08-13T09:44:23Z</time>
      </trkpt>
      <trkpt lat="43.66033" lon="2.80007">
        <ele>782</ele>
        <time>2013-08-13T09:44:25Z</time>
      </trkpt>
      <trkpt lat="43.66043" lon="2.80027">
        <ele>782</ele>
        <time>2013-08-13T09:44:27Z</time>
      </trkpt>
      <trkpt lat="43.66046" lon="2.80047">
        <ele>780</ele>
        <time>2013-08-13T09:44:29Z</time>
      </trkpt>
      <trkpt lat="43.66053" lon="2.80065">
        <ele>781</ele>
        <time>2013-08-13T09:44:31Z</time>
      </trkpt>
      <trkpt lat="43.66055" lon="2.80083">
        <ele>779</ele>
        <time>2013-08-13T09:44:33Z</time>
      </trkpt>
      <trkpt lat="43.66058" lon="2.80103">
        <ele>781</ele>
        <time>2013-08-13T09:44:35Z</time>
      </trkpt>
      <trkpt lat="43.6606" lon="2.80121">
        <ele>781</ele>
        <time>2013-08-13T09:44:37Z</time>
      </trkpt>
      <trkpt lat="43.6606" lon="2.80139">
        <ele>781</ele>
        <time>2013-08-13T09:44:39Z</time>
      </trkpt>
      <trkpt lat="43.66076" lon="2.8015">
        <ele>781</ele>
        <time>2013-08-13T09:44:41Z</time>
      </trkpt>
      <trkpt lat="43.66084" lon="2.80165">
        <ele>781</ele>
        <time>2013-08-13T09:44:43Z</time>
      </trkpt>
      <trkpt lat="43.6608" lon="2.80185">
        <ele>779</ele>
        <time>2013-08-13T09:44:45Z</time>
      </trkpt>
      <trkpt lat="43.66078" lon="2.80201">
        <ele>780</ele>
        <time>2013-08-13T09:44:47Z</time>
      </trkpt>
      <trkpt lat="43.6608" lon="2.80221">
        <ele>781</ele>
        <time>2013-08-13T09:44:49Z</time>
      </trkpt>
      <trkpt lat="43.66079" lon="2.80241">
        <ele>780</ele>
        <time>2013-08-13T09:44:51Z</time>
      </trkpt>
      <trkpt lat="43.66079" lon="2.80262">
        <ele>779</ele>
        <time>2013-08-13T09:44:53Z</time>
      </trkpt>
      <trkpt lat="43.66072" lon="2.80274">
        <ele>778</ele>
        <time>2013-08-13T09:44:55Z</time>
      </trkpt>
      <trkpt lat="43.66061" lon="2.80283">
        <ele>780</ele>
        <time>2013-08-13T09:44:58Z</time>
      </trkpt>
      <trkpt lat="43.66053" lon="2.80291">
        <ele>782</ele>
        <time>2013-08-13T09:45:01Z</time>
      </trkpt>
      <trkpt lat="43.66038" lon="2.80287">
        <ele>782</ele>
        <time>2013-08-13T09:45:04Z</time>
      </trkpt>
      <trkpt lat="43.66028" lon="2.80286">
        <ele>781</ele>
        <time>2013-08-13T09:45:06Z</time>
      </trkpt>
      <trkpt lat="43.66016" lon="2.80287">
        <ele>781</ele>
        <time>2013-08-13T09:45:08Z</time>
      </trkpt>
      <trkpt lat="43.66004" lon="2.80286">
        <ele>782</ele>
        <time>2013-08-13T09:45:10Z</time>
      </trkpt>
      <trkpt lat="43.65991" lon="2.80284">
        <ele>782</ele>
        <time>2013-08-13T09:45:12Z</time>
      </trkpt>
      <trkpt lat="43.65979" lon="2.80281">
        <ele>780</ele>
        <time>2013-08-13T09:45:14Z</time>
      </trkpt>
      <trkpt lat="43.65965" lon="2.80282">
        <ele>778</ele>
        <time>2013-08-13T09:45:16Z</time>
      </trkpt>
      <trkpt lat="43.65952" lon="2.80284">
        <ele>778</ele>
        <time>2013-08-13T09:45:18Z</time>
      </trkpt>
      <trkpt lat="43.65941" lon="2.80291">
        <ele>778</ele>
        <time>2013-08-13T09:45:20Z</time>
      </trkpt>
      <trkpt lat="43.65931" lon="2.80294">
        <ele>777</ele>
        <time>2013-08-13T09:45:22Z</time>
      </trkpt>
      <trkpt lat="43.65922" lon="2.80298">
        <ele>779</ele>
        <time>2013-08-13T09:45:24Z</time>
      </trkpt>
      <trkpt lat="43.65912" lon="2.80304">
        <ele>778</ele>
        <time>2013-08-13T09:45:29Z</time>
      </trkpt>
      <trkpt lat="43.65903" lon="2.80299">
        <ele>776</ele>
        <time>2013-08-13T09:45:59Z</time>
      </trkpt>
      <trkpt lat="43.65881" lon="2.80308">
        <ele>781</ele>
        <time>2013-08-13T09:46:08Z</time>
      </trkpt>
      <trkpt lat="43.65871" lon="2.80313">
        <ele>780</ele>
        <time>2013-08-13T09:46:10Z</time>
      </trkpt>
      <trkpt lat="43.65861" lon="2.80317">
        <ele>778</ele>
        <time>2013-08-13T09:46:13Z</time>
      </trkpt>
      <trkpt lat="43.6585" lon="2.8032">
        <ele>777</ele>
        <time>2013-08-13T09:46:15Z</time>
      </trkpt>
      <trkpt lat="43.65838" lon="2.80321">
        <ele>777</ele>
        <time>2013-08-13T09:46:17Z</time>
      </trkpt>
      <trkpt lat="43.65822" lon="2.80318">
        <ele>778</ele>
        <time>2013-08-13T09:46:19Z</time>
      </trkpt>
      <trkpt lat="43.65813" lon="2.80324">
        <ele>777</ele>
        <time>2013-08-13T09:46:21Z</time>
      </trkpt>
      <trkpt lat="43.658" lon="2.80328">
        <ele>779</ele>
        <time>2013-08-13T09:46:23Z</time>
      </trkpt>
      <trkpt lat="43.65782" lon="2.80329">
        <ele>778</ele>
        <time>2013-08-13T09:46:25Z</time>
      </trkpt>
      <trkpt lat="43.65774" lon="2.80337">
        <ele>778</ele>
        <time>2013-08-13T09:46:27Z</time>
      </trkpt>
      <trkpt lat="43.6576" lon="2.80341">
        <ele>778</ele>
        <time>2013-08-13T09:46:29Z</time>
      </trkpt>
      <trkpt lat="43.65746" lon="2.80339">
        <ele>778</ele>
        <time>2013-08-13T09:46:31Z</time>
      </trkpt>
      <trkpt lat="43.65731" lon="2.80339">
        <ele>778</ele>
        <time>2013-08-13T09:46:33Z</time>
      </trkpt>
      <trkpt lat="43.6571" lon="2.80341">
        <ele>777</ele>
        <time>2013-08-13T09:46:35Z</time>
      </trkpt>
      <trkpt lat="43.65697" lon="2.80341">
        <ele>776</ele>
        <time>2013-08-13T09:46:36Z</time>
      </trkpt>
      <trkpt lat="43.6568" lon="2.80341">
        <ele>776</ele>
        <time>2013-08-13T09:46:38Z</time>
      </trkpt>
      <trkpt lat="43.6567" lon="2.80347">
        <ele>775</ele>
        <time>2013-08-13T09:46:39Z</time>
      </trkpt>
      <trkpt lat="43.65653" lon="2.80353">
        <ele>774</ele>
        <time>2013-08-13T09:46:41Z</time>
      </trkpt>
      <trkpt lat="43.65642" lon="2.80348">
        <ele>775</ele>
        <time>2013-08-13T09:46:42Z</time>
      </trkpt>
      <trkpt lat="43.65632" lon="2.80345">
        <ele>774</ele>
        <time>2013-08-13T09:46:43Z</time>
      </trkpt>
      <trkpt lat="43.65619" lon="2.80347">
        <ele>774</ele>
        <time>2013-08-13T09:46:44Z</time>
      </trkpt>
      <trkpt lat="43.65607" lon="2.80351">
        <ele>773</ele>
        <time>2013-08-13T09:46:45Z</time>
      </trkpt>
      <trkpt lat="43.65598" lon="2.80349">
        <ele>773</ele>
        <time>2013-08-13T09:46:46Z</time>
      </trkpt>
      <trkpt lat="43.65581" lon="2.80349">
        <ele>773</ele>
        <time>2013-08-13T09:46:48Z</time>
      </trkpt>
      <trkpt lat="43.65563" lon="2.80349">
        <ele>773</ele>
        <time>2013-08-13T09:46:50Z</time>
      </trkpt>
      <trkpt lat="43.65547" lon="2.80348">
        <ele>775</ele>
        <time>2013-08-13T09:46:52Z</time>
      </trkpt>
      <trkpt lat="43.65534" lon="2.80352">
        <ele>774</ele>
        <time>2013-08-13T09:46:54Z</time>
      </trkpt>
      <trkpt lat="43.65525" lon="2.80351">
        <ele>774</ele>
        <time>2013-08-13T09:46:55Z</time>
      </trkpt>
      <trkpt lat="43.6551" lon="2.80349">
        <ele>773</ele>
        <time>2013-08-13T09:46:57Z</time>
      </trkpt>
      <trkpt lat="43.65493" lon="2.80346">
        <ele>775</ele>
        <time>2013-08-13T09:46:59Z</time>
      </trkpt>
      <trkpt lat="43.6548" lon="2.80343">
        <ele>775</ele>
        <time>2013-08-13T09:47:01Z</time>
      </trkpt>
      <trkpt lat="43.6547" lon="2.80339">
        <ele>775</ele>
        <time>2013-08-13T09:47:03Z</time>
      </trkpt>
      <trkpt lat="43.6546" lon="2.8033">
        <ele>773</ele>
        <time>2013-08-13T09:47:09Z</time>
      </trkpt>
      <trkpt lat="43.65455" lon="2.80319">
        <ele>767</ele>
        <time>2013-08-13T09:47:39Z</time>
      </trkpt>
      <trkpt lat="43.65464" lon="2.80313">
        <ele>771</ele>
        <time>2013-08-13T09:47:48Z</time>
      </trkpt>
      <trkpt lat="43.65471" lon="2.80325">
        <ele>772</ele>
        <time>2013-08-13T09:48:26Z</time>
      </trkpt>
      <trkpt lat="43.65481" lon="2.8033">
        <ele>774</ele>
        <time>2013-08-13T09:48:31Z</time>
      </trkpt>
      <trkpt lat="43.65481" lon="2.80343">
        <ele>774</ele>
        <time>2013-08-13T09:48:35Z</time>
      </trkpt>
      <trkpt lat="43.65474" lon="2.80351">
        <ele>774</ele>
        <time>2013-08-13T09:48:38Z</time>
      </trkpt>
      <trkpt lat="43.6546" lon="2.80354">
        <ele>773</ele>
        <time>2013-08-13T09:48:41Z</time>
      </trkpt>
      <trkpt lat="43.65448" lon="2.80355">
        <ele>775</ele>
        <time>2013-08-13T09:48:44Z</time>
      </trkpt>
      <trkpt lat="43.65438" lon="2.80354">
        <ele>775</ele>
        <time>2013-08-13T09:48:47Z</time>
      </trkpt>
      <trkpt lat="43.65427" lon="2.80356">
        <ele>778</ele>
        <time>2013-08-13T09:48:51Z</time>
      </trkpt>
      <trkpt lat="43.65416" lon="2.8036">
        <ele>778</ele>
        <time>2013-08-13T09:48:55Z</time>
      </trkpt>
      <trkpt lat="43.65406" lon="2.80365">
        <ele>780</ele>
        <time>2013-08-13T09:48:59Z</time>
      </trkpt>
      <trkpt lat="43.65395" lon="2.80365">
        <ele>782</ele>
        <time>2013-08-13T09:49:02Z</time>
      </trkpt>
      <trkpt lat="43.65382" lon="2.80364">
        <ele>784</ele>
        <time>2013-08-13T09:49:06Z</time>
      </trkpt>
      <trkpt lat="43.65372" lon="2.80368">
        <ele>789</ele>
        <time>2013-08-13T09:49:10Z</time>
      </trkpt>
      <trkpt lat="43.6536" lon="2.80367">
        <ele>788</ele>
        <time>2013-08-13T09:49:14Z</time>
      </trkpt>
      <trkpt lat="43.65348" lon="2.80358">
        <ele>787</ele>
        <time>2013-08-13T09:49:17Z</time>
      </trkpt>
      <trkpt lat="43.6534" lon="2.80352">
        <ele>787</ele>
        <time>2013-08-13T09:49:19Z</time>
      </trkpt>
      <trkpt lat="43.65331" lon="2.80346">
        <ele>787</ele>
        <time>2013-08-13T09:49:21Z</time>
      </trkpt>
      <trkpt lat="43.65322" lon="2.8034">
        <ele>786</ele>
        <time>2013-08-13T09:49:23Z</time>
      </trkpt>
      <trkpt lat="43.6531" lon="2.8033">
        <ele>785</ele>
        <time>2013-08-13T09:49:25Z</time>
      </trkpt>
      <trkpt lat="43.653" lon="2.80322">
        <ele>786</ele>
        <time>2013-08-13T09:49:27Z</time>
      </trkpt>
      <trkpt lat="43.6529" lon="2.80313">
        <ele>786</ele>
        <time>2013-08-13T09:49:29Z</time>
      </trkpt>
      <trkpt lat="43.65279" lon="2.80314">
        <ele>786</ele>
        <time>2013-08-13T09:49:33Z</time>
      </trkpt>
      <trkpt lat="43.65269" lon="2.80307">
        <ele>784</ele>
        <time>2013-08-13T09:49:36Z</time>
      </trkpt>
      <trkpt lat="43.65258" lon="2.80297">
        <ele>783</ele>
        <time>2013-08-13T09:49:39Z</time>
      </trkpt>
      <trkpt lat="43.65247" lon="2.80286">
        <ele>783</ele>
        <time>2013-08-13T09:49:41Z</time>
      </trkpt>
      <trkpt lat="43.65236" lon="2.80278">
        <ele>783</ele>
        <time>2013-08-13T09:49:43Z</time>
      </trkpt>
      <trkpt lat="43.65224" lon="2.8027">
        <ele>783</ele>
        <time>2013-08-13T09:49:45Z</time>
      </trkpt>
      <trkpt lat="43.65215" lon="2.80261">
        <ele>784</ele>
        <time>2013-08-13T09:49:47Z</time>
      </trkpt>
      <trkpt lat="43.65206" lon="2.80256">
        <ele>783</ele>
        <time>2013-08-13T09:49:49Z</time>
      </trkpt>
      <trkpt lat="43.65215" lon="2.80248">
        <ele>795</ele>
        <time>2013-08-13T09:50:50Z</time>
      </trkpt>
      <trkpt lat="43.65221" lon="2.80239">
        <ele>803</ele>
        <time>2013-08-13T09:50:57Z</time>
      </trkpt>
      <trkpt lat="43.65231" lon="2.80233">
        <ele>801</ele>
        <time>2013-08-13T09:51:01Z</time>
      </trkpt>
      <trkpt lat="43.65241" lon="2.80235">
        <ele>787</ele>
        <time>2013-08-13T09:51:07Z</time>
      </trkpt>
      <trkpt lat="43.65237" lon="2.80221">
        <ele>782</ele>
        <time>2013-08-13T09:51:24Z</time>
      </trkpt>
      <trkpt lat="43.65238" lon="2.80208">
        <ele>781</ele>
        <time>2013-08-13T09:51:29Z</time>
      </trkpt>
      <trkpt lat="43.65242" lon="2.80193">
        <ele>778</ele>
        <time>2013-08-13T09:51:35Z</time>
      </trkpt>
      <trkpt lat="43.65241" lon="2.80179">
        <ele>776</ele>
        <time>2013-08-13T09:51:38Z</time>
      </trkpt>
      <trkpt lat="43.65233" lon="2.80162">
        <ele>776</ele>
        <time>2013-08-13T09:51:41Z</time>
      </trkpt>
      <trkpt lat="43.65227" lon="2.8015">
        <ele>776</ele>
        <time>2013-08-13T09:51:43Z</time>
      </trkpt>
      <trkpt lat="43.65219" lon="2.80132">
        <ele>776</ele>
        <time>2013-08-13T09:51:44Z</time>
      </trkpt>
      <trkpt lat="43.65216" lon="2.80117">
        <ele>774</ele>
        <time>2013-08-13T09:51:47Z</time>
      </trkpt>
      <trkpt lat="43.65212" lon="2.80105">
        <ele>769</ele>
        <time>2013-08-13T09:51:56Z</time>
      </trkpt>
      <trkpt lat="43.65206" lon="2.80093">
        <ele>765</ele>
        <time>2013-08-13T09:51:59Z</time>
      </trkpt>
      <trkpt lat="43.65197" lon="2.80079">
        <ele>761</ele>
        <time>2013-08-13T09:52:02Z</time>
      </trkpt>
      <trkpt lat="43.65187" lon="2.80068">
        <ele>763</ele>
        <time>2013-08-13T09:52:05Z</time>
      </trkpt>
      <trkpt lat="43.65179" lon="2.80058">
        <ele>761</ele>
        <time>2013-08-13T09:52:08Z</time>
      </trkpt>
      <trkpt lat="43.65171" lon="2.80045">
        <ele>764</ele>
        <time>2013-08-13T09:52:12Z</time>
      </trkpt>
      <trkpt lat="43.65165" lon="2.8003">
        <ele>766</ele>
        <time>2013-08-13T09:52:28Z</time>
      </trkpt>
      <trkpt lat="43.65155" lon="2.80019">
        <ele>767</ele>
        <time>2013-08-13T09:52:32Z</time>
      </trkpt>
      <trkpt lat="43.65145" lon="2.80009">
        <ele>759</ele>
        <time>2013-08-13T09:52:34Z</time>
      </trkpt>
      <trkpt lat="43.65138" lon="2.8">
        <ele>755</ele>
        <time>2013-08-13T09:52:37Z</time>
      </trkpt>
      <trkpt lat="43.6513" lon="2.79983">
        <ele>748</ele>
        <time>2013-08-13T09:52:39Z</time>
      </trkpt>
      <trkpt lat="43.65117" lon="2.79977">
        <ele>750</ele>
        <time>2013-08-13T09:52:42Z</time>
      </trkpt>
      <trkpt lat="43.65102" lon="2.79973">
        <ele>751</ele>
        <time>2013-08-13T09:52:45Z</time>
      </trkpt>
      <trkpt lat="43.6509" lon="2.79968">
        <ele>756</ele>
        <time>2013-08-13T09:52:48Z</time>
      </trkpt>
      <trkpt lat="43.6508" lon="2.79962">
        <ele>751</ele>
        <time>2013-08-13T09:52:51Z</time>
      </trkpt>
      <trkpt lat="43.65071" lon="2.79942">
        <ele>747</ele>
        <time>2013-08-13T09:52:54Z</time>
      </trkpt>
      <trkpt lat="43.65066" lon="2.79929">
        <ele>747</ele>
        <time>2013-08-13T09:52:56Z</time>
      </trkpt>
      <trkpt lat="43.65061" lon="2.79917">
        <ele>747</ele>
        <time>2013-08-13T09:52:58Z</time>
      </trkpt>
      <trkpt lat="43.65051" lon="2.79909">
        <ele>747</ele>
        <time>2013-08-13T09:53:00Z</time>
      </trkpt>
      <trkpt lat="43.65045" lon="2.79897">
        <ele>746</ele>
        <time>2013-08-13T09:53:02Z</time>
      </trkpt>
      <trkpt lat="43.6504" lon="2.79885">
        <ele>746</ele>
        <time>2013-08-13T09:53:04Z</time>
      </trkpt>
      <trkpt lat="43.65041" lon="2.79871">
        <ele>750</ele>
        <time>2013-08-13T09:53:06Z</time>
      </trkpt>
      <trkpt lat="43.65033" lon="2.79856">
        <ele>752</ele>
        <time>2013-08-13T09:53:09Z</time>
      </trkpt>
      <trkpt lat="43.65023" lon="2.79854">
        <ele>753</ele>
        <time>2013-08-13T09:53:11Z</time>
      </trkpt>
      <trkpt lat="43.65012" lon="2.79846">
        <ele>756</ele>
        <time>2013-08-13T09:53:14Z</time>
      </trkpt>
      <trkpt lat="43.65007" lon="2.79832">
        <ele>770</ele>
        <time>2013-08-13T09:53:19Z</time>
      </trkpt>
      <trkpt lat="43.65003" lon="2.79818">
        <ele>770</ele>
        <time>2013-08-13T09:53:25Z</time>
      </trkpt>
      <trkpt lat="43.65001" lon="2.79802">
        <ele>773</ele>
        <time>2013-08-13T09:53:32Z</time>
      </trkpt>
      <trkpt lat="43.65" lon="2.79785">
        <ele>774</ele>
        <time>2013-08-13T09:53:36Z</time>
      </trkpt>
      <trkpt lat="43.65001" lon="2.79765">
        <ele>777</ele>
        <time>2013-08-13T09:53:39Z</time>
      </trkpt>
      <trkpt lat="43.65" lon="2.79752">
        <ele>785</ele>
        <time>2013-08-13T09:53:42Z</time>
      </trkpt>
      <trkpt lat="43.64999" lon="2.79737">
        <ele>786</ele>
        <time>2013-08-13T09:53:45Z</time>
      </trkpt>
      <trkpt lat="43.64998" lon="2.79722">
        <ele>789</ele>
        <time>2013-08-13T09:53:48Z</time>
      </trkpt>
      <trkpt lat="43.64995" lon="2.79707">
        <ele>792</ele>
        <time>2013-08-13T09:53:52Z</time>
      </trkpt>
      <trkpt lat="43.64994" lon="2.7969">
        <ele>791</ele>
        <time>2013-08-13T09:53:57Z</time>
      </trkpt>
      <trkpt lat="43.64995" lon="2.79676">
        <ele>789</ele>
        <time>2013-08-13T09:54:01Z</time>
      </trkpt>
      <trkpt lat="43.64994" lon="2.79663">
        <ele>785</ele>
        <time>2013-08-13T09:54:07Z</time>
      </trkpt>
      <trkpt lat="43.64995" lon="2.7965">
        <ele>783</ele>
        <time>2013-08-13T09:54:34Z</time>
      </trkpt>
      <trkpt lat="43.64991" lon="2.79637">
        <ele>784</ele>
        <time>2013-08-13T09:54:40Z</time>
      </trkpt>
      <trkpt lat="43.64991" lon="2.79622">
        <ele>780</ele>
        <time>2013-08-13T09:54:58Z</time>
      </trkpt>
      <trkpt lat="43.64996" lon="2.79608">
        <ele>780</ele>
        <time>2013-08-13T09:55:03Z</time>
      </trkpt>
      <trkpt lat="43.64997" lon="2.79595">
        <ele>779</ele>
        <time>2013-08-13T09:55:07Z</time>
      </trkpt>
      <trkpt lat="43.64995" lon="2.79579">
        <ele>788</ele>
        <time>2013-08-13T09:55:12Z</time>
      </trkpt>
      <trkpt lat="43.64993" lon="2.79565">
        <ele>792</ele>
        <time>2013-08-13T09:55:16Z</time>
      </trkpt>
      <trkpt lat="43.64991" lon="2.79551">
        <ele>792</ele>
        <time>2013-08-13T09:55:20Z</time>
      </trkpt>
      <trkpt lat="43.64989" lon="2.79538">
        <ele>799</ele>
        <time>2013-08-13T09:55:25Z</time>
      </trkpt>
      <trkpt lat="43.64989" lon="2.79523">
        <ele>798</ele>
        <time>2013-08-13T09:55:33Z</time>
      </trkpt>
      <trkpt lat="43.64991" lon="2.79508">
        <ele>790</ele>
        <time>2013-08-13T09:55:37Z</time>
      </trkpt>
      <trkpt lat="43.6499" lon="2.79493">
        <ele>796</ele>
        <time>2013-08-13T09:55:42Z</time>
      </trkpt>
      <trkpt lat="43.64987" lon="2.79479">
        <ele>798</ele>
        <time>2013-08-13T09:55:47Z</time>
      </trkpt>
      <trkpt lat="43.64988" lon="2.79465">
        <ele>797</ele>
        <time>2013-08-13T09:55:53Z</time>
      </trkpt>
      <trkpt lat="43.64989" lon="2.79452">
        <ele>794</ele>
        <time>2013-08-13T09:55:59Z</time>
      </trkpt>
      <trkpt lat="43.64994" lon="2.79441">
        <ele>781</ele>
        <time>2013-08-13T09:56:03Z</time>
      </trkpt>
      <trkpt lat="43.65003" lon="2.79431">
        <ele>773</ele>
        <time>2013-08-13T09:56:09Z</time>
      </trkpt>
      <trkpt lat="43.64992" lon="2.79432">
        <ele>770</ele>
        <time>2013-08-13T09:56:36Z</time>
      </trkpt>
      <trkpt lat="43.64979" lon="2.79434">
        <ele>772</ele>
        <time>2013-08-13T09:56:39Z</time>
      </trkpt>
      <trkpt lat="43.64968" lon="2.79438">
        <ele>768</ele>
        <time>2013-08-13T09:56:43Z</time>
      </trkpt>
      <trkpt lat="43.64957" lon="2.79445">
        <ele>768</ele>
        <time>2013-08-13T09:56:46Z</time>
      </trkpt>
      <trkpt lat="43.64947" lon="2.79451">
        <ele>767</ele>
        <time>2013-08-13T09:56:48Z</time>
      </trkpt>
      <trkpt lat="43.64939" lon="2.79463">
        <ele>766</ele>
        <time>2013-08-13T09:56:51Z</time>
      </trkpt>
      <trkpt lat="43.64938" lon="2.79477">
        <ele>773</ele>
        <time>2013-08-13T09:56:56Z</time>
      </trkpt>
      <trkpt lat="43.64927" lon="2.79484">
        <ele>774</ele>
        <time>2013-08-13T09:57:04Z</time>
      </trkpt>
      <trkpt lat="43.64916" lon="2.79483">
        <ele>775</ele>
        <time>2013-08-13T09:57:07Z</time>
      </trkpt>
      <trkpt lat="43.64904" lon="2.79478">
        <ele>773</ele>
        <time>2013-08-13T09:57:10Z</time>
      </trkpt>
      <trkpt lat="43.64895" lon="2.79473">
        <ele>775</ele>
        <time>2013-08-13T09:57:13Z</time>
      </trkpt>
      <trkpt lat="43.64886" lon="2.79466">
        <ele>772</ele>
        <time>2013-08-13T09:57:20Z</time>
      </trkpt>
      <trkpt lat="43.64876" lon="2.79465">
        <ele>770</ele>
        <time>2013-08-13T09:57:45Z</time>
      </trkpt>
      <trkpt lat="43.64866" lon="2.79461">
        <ele>771</ele>
        <time>2013-08-13T09:57:50Z</time>
      </trkpt>
      <trkpt lat="43.64857" lon="2.79457">
        <ele>774</ele>
        <time>2013-08-13T09:57:55Z</time>
      </trkpt>
      <trkpt lat="43.6485" lon="2.79446">
        <ele>777</ele>
        <time>2013-08-13T09:58:07Z</time>
      </trkpt>
      <trkpt lat="43.64846" lon="2.79432">
        <ele>776</ele>
        <time>2013-08-13T09:58:14Z</time>
      </trkpt>
      <trkpt lat="43.64851" lon="2.79421">
        <ele>780</ele>
        <time>2013-08-13T09:58:23Z</time>
      </trkpt>
      <trkpt lat="43.64845" lon="2.79409">
        <ele>781</ele>
        <time>2013-08-13T09:58:29Z</time>
      </trkpt>
      <trkpt lat="43.64836" lon="2.79401">
        <ele>783</ele>
        <time>2013-08-13T09:58:34Z</time>
      </trkpt>
      <trkpt lat="43.6483" lon="2.79392">
        <ele>782</ele>
        <time>2013-08-13T09:58:42Z</time>
      </trkpt>
      <trkpt lat="43.64828" lon="2.79378">
        <ele>784</ele>
        <time>2013-08-13T09:58:46Z</time>
      </trkpt>
      <trkpt lat="43.64824" lon="2.79365">
        <ele>783</ele>
        <time>2013-08-13T09:58:49Z</time>
      </trkpt>
      <trkpt lat="43.64816" lon="2.79356">
        <ele>785</ele>
        <time>2013-08-13T09:58:52Z</time>
      </trkpt>
      <trkpt lat="43.64809" lon="2.79345">
        <ele>788</ele>
        <time>2013-08-13T09:58:55Z</time>
      </trkpt>
      <trkpt lat="43.64808" lon="2.7933">
        <ele>788</ele>
        <time>2013-08-13T09:58:58Z</time>
      </trkpt>
      <trkpt lat="43.64811" lon="2.79313">
        <ele>782</ele>
        <time>2013-08-13T09:59:00Z</time>
      </trkpt>
      <trkpt lat="43.64817" lon="2.79292">
        <ele>776</ele>
        <time>2013-08-13T09:59:03Z</time>
      </trkpt>
      <trkpt lat="43.64823" lon="2.79275">
        <ele>774</ele>
        <time>2013-08-13T09:59:06Z</time>
      </trkpt>
      <trkpt lat="43.64826" lon="2.7926">
        <ele>772</ele>
        <time>2013-08-13T09:59:09Z</time>
      </trkpt>
      <trkpt lat="43.64823" lon="2.79247">
        <ele>772</ele>
        <time>2013-08-13T09:59:13Z</time>
      </trkpt>
      <trkpt lat="43.64822" lon="2.79234">
        <ele>772</ele>
        <time>2013-08-13T09:59:16Z</time>
      </trkpt>
      <trkpt lat="43.64822" lon="2.79218">
        <ele>773</ele>
        <time>2013-08-13T09:59:19Z</time>
      </trkpt>
      <trkpt lat="43.64819" lon="2.79206">
        <ele>775</ele>
        <time>2013-08-13T09:59:22Z</time>
      </trkpt>
      <trkpt lat="43.64813" lon="2.79194">
        <ele>780</ele>
        <time>2013-08-13T09:59:25Z</time>
      </trkpt>
      <trkpt lat="43.64809" lon="2.79179">
        <ele>778</ele>
        <time>2013-08-13T09:59:29Z</time>
      </trkpt>
      <trkpt lat="43.64805" lon="2.79168">
        <ele>782</ele>
        <time>2013-08-13T09:59:37Z</time>
      </trkpt>
      <trkpt lat="43.64802" lon="2.79154">
        <ele>784</ele>
        <time>2013-08-13T09:59:48Z</time>
      </trkpt>
      <trkpt lat="43.64802" lon="2.79138">
        <ele>782</ele>
        <time>2013-08-13T10:00:14Z</time>
      </trkpt>
      <trkpt lat="43.648" lon="2.79123">
        <ele>785</ele>
        <time>2013-08-13T10:00:20Z</time>
      </trkpt>
      <trkpt lat="43.64799" lon="2.79109">
        <ele>786</ele>
        <time>2013-08-13T10:00:25Z</time>
      </trkpt>
      <trkpt lat="43.64798" lon="2.79094">
        <ele>786</ele>
        <time>2013-08-13T10:00:30Z</time>
      </trkpt>
      <trkpt lat="43.64803" lon="2.79083">
        <ele>787</ele>
        <time>2013-08-13T10:00:36Z</time>
      </trkpt>
      <trkpt lat="43.64809" lon="2.79071">
        <ele>785</ele>
        <time>2013-08-13T10:00:43Z</time>
      </trkpt>
      <trkpt lat="43.64809" lon="2.79058">
        <ele>790</ele>
        <time>2013-08-13T10:01:19Z</time>
      </trkpt>
      <trkpt lat="43.64811" lon="2.79043">
        <ele>792</ele>
        <time>2013-08-13T10:01:27Z</time>
      </trkpt>
      <trkpt lat="43.64815" lon="2.79029">
        <ele>792</ele>
        <time>2013-08-13T10:01:32Z</time>
      </trkpt>
      <trkpt lat="43.64818" lon="2.79015">
        <ele>787</ele>
        <time>2013-08-13T10:01:37Z</time>
      </trkpt>
      <trkpt lat="43.64815" lon="2.78998">
        <ele>784</ele>
        <time>2013-08-13T10:01:42Z</time>
      </trkpt>
      <trkpt lat="43.6481" lon="2.78983">
        <ele>784</ele>
        <time>2013-08-13T10:01:45Z</time>
      </trkpt>
      <trkpt lat="43.64807" lon="2.7897">
        <ele>784</ele>
        <time>2013-08-13T10:01:48Z</time>
      </trkpt>
      <trkpt lat="43.64806" lon="2.78954">
        <ele>787</ele>
        <time>2013-08-13T10:01:52Z</time>
      </trkpt>
      <trkpt lat="43.64806" lon="2.78941">
        <ele>787</ele>
        <time>2013-08-13T10:01:55Z</time>
      </trkpt>
      <trkpt lat="43.64805" lon="2.78924">
        <ele>785</ele>
        <time>2013-08-13T10:01:58Z</time>
      </trkpt>
      <trkpt lat="43.64804" lon="2.78908">
        <ele>783</ele>
        <time>2013-08-13T10:02:01Z</time>
      </trkpt>
      <trkpt lat="43.64802" lon="2.78894">
        <ele>782</ele>
        <time>2013-08-13T10:02:04Z</time>
      </trkpt>
      <trkpt lat="43.64799" lon="2.78879">
        <ele>779</ele>
        <time>2013-08-13T10:02:07Z</time>
      </trkpt>
      <trkpt lat="43.64793" lon="2.78862">
        <ele>779</ele>
        <time>2013-08-13T10:02:10Z</time>
      </trkpt>
      <trkpt lat="43.6479" lon="2.7885">
        <ele>779</ele>
        <time>2013-08-13T10:02:12Z</time>
      </trkpt>
      <trkpt lat="43.64787" lon="2.78837">
        <ele>779</ele>
        <time>2013-08-13T10:02:14Z</time>
      </trkpt>
      <trkpt lat="43.64785" lon="2.78822">
        <ele>778</ele>
        <time>2013-08-13T10:02:16Z</time>
      </trkpt>
      <trkpt lat="43.64785" lon="2.78804">
        <ele>779</ele>
        <time>2013-08-13T10:02:17Z</time>
      </trkpt>
      <trkpt lat="43.64784" lon="2.7879">
        <ele>779</ele>
        <time>2013-08-13T10:02:19Z</time>
      </trkpt>
      <trkpt lat="43.64777" lon="2.78773">
        <ele>780</ele>
        <time>2013-08-13T10:02:21Z</time>
      </trkpt>
      <trkpt lat="43.64769" lon="2.78761">
        <ele>781</ele>
        <time>2013-08-13T10:02:23Z</time>
      </trkpt>
      <trkpt lat="43.64763" lon="2.78751">
        <ele>781</ele>
        <time>2013-08-13T10:02:25Z</time>
      </trkpt>
      <trkpt lat="43.64753" lon="2.78741">
        <ele>781</ele>
        <time>2013-08-13T10:02:27Z</time>
      </trkpt>
      <trkpt lat="43.64741" lon="2.7873">
        <ele>780</ele>
        <time>2013-08-13T10:02:30Z</time>
      </trkpt>
      <trkpt lat="43.64732" lon="2.78721">
        <ele>780</ele>
        <time>2013-08-13T10:02:32Z</time>
      </trkpt>
      <trkpt lat="43.64724" lon="2.78706">
        <ele>781</ele>
        <time>2013-08-13T10:02:34Z</time>
      </trkpt>
      <trkpt lat="43.64718" lon="2.78691">
        <ele>780</ele>
        <time>2013-08-13T10:02:36Z</time>
      </trkpt>
      <trkpt lat="43.64707" lon="2.78683">
        <ele>780</ele>
        <time>2013-08-13T10:02:38Z</time>
      </trkpt>
      <trkpt lat="43.64698" lon="2.78671">
        <ele>779</ele>
        <time>2013-08-13T10:02:40Z</time>
      </trkpt>
      <trkpt lat="43.64686" lon="2.78656">
        <ele>777</ele>
        <time>2013-08-13T10:02:43Z</time>
      </trkpt>
      <trkpt lat="43.6468" lon="2.78646">
        <ele>776</ele>
        <time>2013-08-13T10:02:46Z</time>
      </trkpt>
      <trkpt lat="43.64671" lon="2.78633">
        <ele>776</ele>
        <time>2013-08-13T10:02:49Z</time>
      </trkpt>
      <trkpt lat="43.64663" lon="2.78626">
        <ele>775</ele>
        <time>2013-08-13T10:02:52Z</time>
      </trkpt>
      <trkpt lat="43.64653" lon="2.78622">
        <ele>776</ele>
        <time>2013-08-13T10:02:56Z</time>
      </trkpt>
      <trkpt lat="43.64643" lon="2.78624">
        <ele>775</ele>
        <time>2013-08-13T10:03:01Z</time>
      </trkpt>
      <trkpt lat="43.64634" lon="2.78625">
        <ele>775</ele>
        <time>2013-08-13T10:03:05Z</time>
      </trkpt>
      <trkpt lat="43.64623" lon="2.78627">
        <ele>776</ele>
        <time>2013-08-13T10:03:10Z</time>
      </trkpt>
      <trkpt lat="43.64614" lon="2.78616">
        <ele>778</ele>
        <time>2013-08-13T10:03:15Z</time>
      </trkpt>
      <trkpt lat="43.64605" lon="2.78606">
        <ele>780</ele>
        <time>2013-08-13T10:03:18Z</time>
      </trkpt>
      <trkpt lat="43.64597" lon="2.78598">
        <ele>780</ele>
        <time>2013-08-13T10:03:21Z</time>
      </trkpt>
      <trkpt lat="43.64589" lon="2.78586">
        <ele>782</ele>
        <time>2013-08-13T10:03:25Z</time>
      </trkpt>
      <trkpt lat="43.64583" lon="2.78572">
        <ele>785</ele>
        <time>2013-08-13T10:03:29Z</time>
      </trkpt>
      <trkpt lat="43.64578" lon="2.78558">
        <ele>786</ele>
        <time>2013-08-13T10:03:34Z</time>
      </trkpt>
      <trkpt lat="43.64573" lon="2.78544">
        <ele>786</ele>
        <time>2013-08-13T10:03:38Z</time>
      </trkpt>
      <trkpt lat="43.64572" lon="2.78531">
        <ele>787</ele>
        <time>2013-08-13T10:03:42Z</time>
      </trkpt>
      <trkpt lat="43.64567" lon="2.78515">
        <ele>787</ele>
        <time>2013-08-13T10:03:47Z</time>
      </trkpt>
      <trkpt lat="43.64563" lon="2.785">
        <ele>786</ele>
        <time>2013-08-13T10:03:50Z</time>
      </trkpt>
      <trkpt lat="43.64559" lon="2.78487">
        <ele>788</ele>
        <time>2013-08-13T10:03:53Z</time>
      </trkpt>
      <trkpt lat="43.64555" lon="2.78471">
        <ele>787</ele>
        <time>2013-08-13T10:03:57Z</time>
      </trkpt>
      <trkpt lat="43.64551" lon="2.78455">
        <ele>789</ele>
        <time>2013-08-13T10:04:02Z</time>
      </trkpt>
      <trkpt lat="43.64548" lon="2.78441">
        <ele>791</ele>
        <time>2013-08-13T10:04:05Z</time>
      </trkpt>
      <trkpt lat="43.64545" lon="2.78425">
        <ele>791</ele>
        <time>2013-08-13T10:04:08Z</time>
      </trkpt>
      <trkpt lat="43.64542" lon="2.7841">
        <ele>790</ele>
        <time>2013-08-13T10:04:11Z</time>
      </trkpt>
      <trkpt lat="43.64539" lon="2.78395">
        <ele>790</ele>
        <time>2013-08-13T10:04:14Z</time>
      </trkpt>
      <trkpt lat="43.64533" lon="2.78384">
        <ele>790</ele>
        <time>2013-08-13T10:04:17Z</time>
      </trkpt>
      <trkpt lat="43.64526" lon="2.78372">
        <ele>790</ele>
        <time>2013-08-13T10:04:21Z</time>
      </trkpt>
      <trkpt lat="43.64518" lon="2.7836">
        <ele>790</ele>
        <time>2013-08-13T10:04:25Z</time>
      </trkpt>
      <trkpt lat="43.64512" lon="2.78348">
        <ele>788</ele>
        <time>2013-08-13T10:04:28Z</time>
      </trkpt>
      <trkpt lat="43.64506" lon="2.78334">
        <ele>788</ele>
        <time>2013-08-13T10:04:31Z</time>
      </trkpt>
      <trkpt lat="43.64501" lon="2.78317">
        <ele>786</ele>
        <time>2013-08-13T10:04:34Z</time>
      </trkpt>
      <trkpt lat="43.64496" lon="2.78299">
        <ele>784</ele>
        <time>2013-08-13T10:04:37Z</time>
      </trkpt>
      <trkpt lat="43.64492" lon="2.78288">
        <ele>783</ele>
        <time>2013-08-13T10:04:39Z</time>
      </trkpt>
      <trkpt lat="43.64485" lon="2.7827">
        <ele>782</ele>
        <time>2013-08-13T10:04:42Z</time>
      </trkpt>
      <trkpt lat="43.64478" lon="2.78257">
        <ele>786</ele>
        <time>2013-08-13T10:04:44Z</time>
      </trkpt>
      <trkpt lat="43.64468" lon="2.78245">
        <ele>788</ele>
        <time>2013-08-13T10:04:47Z</time>
      </trkpt>
      <trkpt lat="43.6446" lon="2.78234">
        <ele>788</ele>
        <time>2013-08-13T10:04:50Z</time>
      </trkpt>
      <trkpt lat="43.64452" lon="2.78226">
        <ele>785</ele>
        <time>2013-08-13T10:04:53Z</time>
      </trkpt>
      <trkpt lat="43.6444" lon="2.78223">
        <ele>788</ele>
        <time>2013-08-13T10:04:58Z</time>
      </trkpt>
      <trkpt lat="43.64431" lon="2.7823">
        <ele>790</ele>
        <time>2013-08-13T10:05:04Z</time>
      </trkpt>
      <trkpt lat="43.64425" lon="2.7824">
        <ele>789</ele>
        <time>2013-08-13T10:05:11Z</time>
      </trkpt>
      <trkpt lat="43.64415" lon="2.78252">
        <ele>788</ele>
        <time>2013-08-13T10:05:16Z</time>
      </trkpt>
      <trkpt lat="43.64406" lon="2.78254">
        <ele>789</ele>
        <time>2013-08-13T10:05:19Z</time>
      </trkpt>
      <trkpt lat="43.64394" lon="2.78251">
        <ele>790</ele>
        <time>2013-08-13T10:05:22Z</time>
      </trkpt>
      <trkpt lat="43.64385" lon="2.78245">
        <ele>791</ele>
        <time>2013-08-13T10:05:26Z</time>
      </trkpt>
      <trkpt lat="43.6438" lon="2.78232">
        <ele>792</ele>
        <time>2013-08-13T10:05:30Z</time>
      </trkpt>
      <trkpt lat="43.64375" lon="2.78216">
        <ele>794</ele>
        <time>2013-08-13T10:05:33Z</time>
      </trkpt>
      <trkpt lat="43.64373" lon="2.78201">
        <ele>797</ele>
        <time>2013-08-13T10:05:35Z</time>
      </trkpt>
      <trkpt lat="43.64368" lon="2.78183">
        <ele>797</ele>
        <time>2013-08-13T10:05:38Z</time>
      </trkpt>
      <trkpt lat="43.64362" lon="2.78168">
        <ele>799</ele>
        <time>2013-08-13T10:05:41Z</time>
      </trkpt>
      <trkpt lat="43.64358" lon="2.78155">
        <ele>800</ele>
        <time>2013-08-13T10:05:44Z</time>
      </trkpt>
      <trkpt lat="43.64354" lon="2.78138">
        <ele>799</ele>
        <time>2013-08-13T10:05:47Z</time>
      </trkpt>
      <trkpt lat="43.64352" lon="2.78125">
        <ele>799</ele>
        <time>2013-08-13T10:05:49Z</time>
      </trkpt>
      <trkpt lat="43.64348" lon="2.7811">
        <ele>799</ele>
        <time>2013-08-13T10:05:51Z</time>
      </trkpt>
      <trkpt lat="43.64343" lon="2.78077">
        <ele>797</ele>
        <time>2013-08-13T10:05:53Z</time>
      </trkpt>
      <trkpt lat="43.6434" lon="2.78063">
        <ele>800</ele>
        <time>2013-08-13T10:05:56Z</time>
      </trkpt>
      <trkpt lat="43.64336" lon="2.78047">
        <ele>802</ele>
        <time>2013-08-13T10:05:59Z</time>
      </trkpt>
      <trkpt lat="43.64332" lon="2.78033">
        <ele>801</ele>
        <time>2013-08-13T10:06:02Z</time>
      </trkpt>
      <trkpt lat="43.64324" lon="2.78019">
        <ele>799</ele>
        <time>2013-08-13T10:06:05Z</time>
      </trkpt>
      <trkpt lat="43.64316" lon="2.78006">
        <ele>797</ele>
        <time>2013-08-13T10:06:08Z</time>
      </trkpt>
      <trkpt lat="43.64313" lon="2.77994">
        <ele>792</ele>
        <time>2013-08-13T10:06:13Z</time>
      </trkpt>
      <trkpt lat="43.64312" lon="2.77979">
        <ele>792</ele>
        <time>2013-08-13T10:06:28Z</time>
      </trkpt>
      <trkpt lat="43.64319" lon="2.77966">
        <ele>790</ele>
        <time>2013-08-13T10:06:31Z</time>
      </trkpt>
      <trkpt lat="43.64324" lon="2.77954">
        <ele>790</ele>
        <time>2013-08-13T10:06:33Z</time>
      </trkpt>
      <trkpt lat="43.64329" lon="2.77939">
        <ele>786</ele>
        <time>2013-08-13T10:06:35Z</time>
      </trkpt>
      <trkpt lat="43.6433" lon="2.77913">
        <ele>783</ele>
        <time>2013-08-13T10:06:36Z</time>
      </trkpt>
      <trkpt lat="43.64331" lon="2.77895">
        <ele>781</ele>
        <time>2013-08-13T10:06:38Z</time>
      </trkpt>
      <trkpt lat="43.64332" lon="2.77877">
        <ele>777</ele>
        <time>2013-08-13T10:06:41Z</time>
      </trkpt>
      <trkpt lat="43.64336" lon="2.77864">
        <ele>772</ele>
        <time>2013-08-13T10:06:43Z</time>
      </trkpt>
      <trkpt lat="43.64336" lon="2.77849">
        <ele>772</ele>
        <time>2013-08-13T10:06:45Z</time>
      </trkpt>
      <trkpt lat="43.64329" lon="2.77834">
        <ele>772</ele>
        <time>2013-08-13T10:06:48Z</time>
      </trkpt>
      <trkpt lat="43.64323" lon="2.77821">
        <ele>772</ele>
        <time>2013-08-13T10:06:53Z</time>
      </trkpt>
      <trkpt lat="43.64311" lon="2.77818">
        <ele>774</ele>
        <time>2013-08-13T10:06:58Z</time>
      </trkpt>
      <trkpt lat="43.64301" lon="2.77823">
        <ele>772</ele>
        <time>2013-08-13T10:07:02Z</time>
      </trkpt>
      <trkpt lat="43.64294" lon="2.77833">
        <ele>770</ele>
        <time>2013-08-13T10:07:05Z</time>
      </trkpt>
      <trkpt lat="43.64283" lon="2.77847">
        <ele>770</ele>
        <time>2013-08-13T10:07:08Z</time>
      </trkpt>
      <trkpt lat="43.64274" lon="2.77854">
        <ele>770</ele>
        <time>2013-08-13T10:07:10Z</time>
      </trkpt>
      <trkpt lat="43.64264" lon="2.77865">
        <ele>770</ele>
        <time>2013-08-13T10:07:12Z</time>
      </trkpt>
      <trkpt lat="43.64254" lon="2.77877">
        <ele>770</ele>
        <time>2013-08-13T10:07:14Z</time>
      </trkpt>
      <trkpt lat="43.64243" lon="2.77883">
        <ele>768</ele>
        <time>2013-08-13T10:07:17Z</time>
      </trkpt>
      <trkpt lat="43.64233" lon="2.77879">
        <ele>770</ele>
        <time>2013-08-13T10:07:20Z</time>
      </trkpt>
      <trkpt lat="43.64223" lon="2.77872">
        <ele>769</ele>
        <time>2013-08-13T10:07:23Z</time>
      </trkpt>
      <trkpt lat="43.64212" lon="2.77861">
        <ele>767</ele>
        <time>2013-08-13T10:07:25Z</time>
      </trkpt>
      <trkpt lat="43.64205" lon="2.77853">
        <ele>767</ele>
        <time>2013-08-13T10:07:27Z</time>
      </trkpt>
      <trkpt lat="43.64191" lon="2.77851">
        <ele>765</ele>
        <time>2013-08-13T10:07:30Z</time>
      </trkpt>
      <trkpt lat="43.64181" lon="2.7785">
        <ele>765</ele>
        <time>2013-08-13T10:07:32Z</time>
      </trkpt>
      <trkpt lat="43.64171" lon="2.77855">
        <ele>765</ele>
        <time>2013-08-13T10:07:35Z</time>
      </trkpt>
      <trkpt lat="43.64159" lon="2.77854">
        <ele>767</ele>
        <time>2013-08-13T10:07:37Z</time>
      </trkpt>
      <trkpt lat="43.64148" lon="2.77854">
        <ele>766</ele>
        <time>2013-08-13T10:07:39Z</time>
      </trkpt>
      <trkpt lat="43.64132" lon="2.7786">
        <ele>769</ele>
        <time>2013-08-13T10:07:42Z</time>
      </trkpt>
      <trkpt lat="43.64122" lon="2.77859">
        <ele>768</ele>
        <time>2013-08-13T10:07:44Z</time>
      </trkpt>
      <trkpt lat="43.64109" lon="2.77864">
        <ele>768</ele>
        <time>2013-08-13T10:07:48Z</time>
      </trkpt>
      <trkpt lat="43.64095" lon="2.77864">
        <ele>768</ele>
        <time>2013-08-13T10:07:50Z</time>
      </trkpt>
      <trkpt lat="43.64083" lon="2.77868">
        <ele>769</ele>
        <time>2013-08-13T10:07:52Z</time>
      </trkpt>
      <trkpt lat="43.64073" lon="2.77871">
        <ele>770</ele>
        <time>2013-08-13T10:07:54Z</time>
      </trkpt>
      <trkpt lat="43.64061" lon="2.77873">
        <ele>770</ele>
        <time>2013-08-13T10:07:57Z</time>
      </trkpt>
      <trkpt lat="43.64049" lon="2.77871">
        <ele>770</ele>
        <time>2013-08-13T10:08:00Z</time>
      </trkpt>
      <trkpt lat="43.64039" lon="2.77864">
        <ele>770</ele>
        <time>2013-08-13T10:08:02Z</time>
      </trkpt>
      <trkpt lat="43.64032" lon="2.77855">
        <ele>768</ele>
        <time>2013-08-13T10:08:05Z</time>
      </trkpt>
      <trkpt lat="43.64022" lon="2.77844">
        <ele>768</ele>
        <time>2013-08-13T10:08:08Z</time>
      </trkpt>
      <trkpt lat="43.64008" lon="2.77829">
        <ele>768</ele>
        <time>2013-08-13T10:08:11Z</time>
      </trkpt>
      <trkpt lat="43.63998" lon="2.77825">
        <ele>766</ele>
        <time>2013-08-13T10:08:13Z</time>
      </trkpt>
      <trkpt lat="43.63988" lon="2.77825">
        <ele>765</ele>
        <time>2013-08-13T10:08:15Z</time>
      </trkpt>
      <trkpt lat="43.63978" lon="2.77827">
        <ele>765</ele>
        <time>2013-08-13T10:08:18Z</time>
      </trkpt>
      <trkpt lat="43.6397" lon="2.77834">
        <ele>765</ele>
        <time>2013-08-13T10:08:20Z</time>
      </trkpt>
      <trkpt lat="43.63959" lon="2.77841">
        <ele>766</ele>
        <time>2013-08-13T10:08:23Z</time>
      </trkpt>
      <trkpt lat="43.63948" lon="2.77848">
        <ele>766</ele>
        <time>2013-08-13T10:08:26Z</time>
      </trkpt>
      <trkpt lat="43.63939" lon="2.77854">
        <ele>764</ele>
        <time>2013-08-13T10:08:30Z</time>
      </trkpt>
      <trkpt lat="43.63929" lon="2.77849">
        <ele>766</ele>
        <time>2013-08-13T10:08:35Z</time>
      </trkpt>
      <trkpt lat="43.63919" lon="2.7784">
        <ele>763</ele>
        <time>2013-08-13T10:08:38Z</time>
      </trkpt>
      <trkpt lat="43.6391" lon="2.77832">
        <ele>763</ele>
        <time>2013-08-13T10:08:41Z</time>
      </trkpt>
      <trkpt lat="43.639" lon="2.77823">
        <ele>765</ele>
        <time>2013-08-13T10:08:44Z</time>
      </trkpt>
      <trkpt lat="43.63892" lon="2.77814">
        <ele>769</ele>
        <time>2013-08-13T10:08:47Z</time>
      </trkpt>
      <trkpt lat="43.63884" lon="2.77806">
        <ele>769</ele>
        <time>2013-08-13T10:08:50Z</time>
      </trkpt>
      <trkpt lat="43.63875" lon="2.77795">
        <ele>771</ele>
        <time>2013-08-13T10:08:53Z</time>
      </trkpt>
      <trkpt lat="43.63864" lon="2.77786">
        <ele>769</ele>
        <time>2013-08-13T10:08:56Z</time>
      </trkpt>
      <trkpt lat="43.63854" lon="2.77782">
        <ele>769</ele>
        <time>2013-08-13T10:08:59Z</time>
      </trkpt>
      <trkpt lat="43.63843" lon="2.7778">
        <ele>770</ele>
        <time>2013-08-13T10:09:03Z</time>
      </trkpt>
      <trkpt lat="43.63834" lon="2.77775">
        <ele>764</ele>
        <time>2013-08-13T10:09:07Z</time>
      </trkpt>
      <trkpt lat="43.63825" lon="2.77768">
        <ele>763</ele>
        <time>2013-08-13T10:09:11Z</time>
      </trkpt>
      <trkpt lat="43.63812" lon="2.77761">
        <ele>767</ele>
        <time>2013-08-13T10:09:15Z</time>
      </trkpt>
      <trkpt lat="43.63799" lon="2.77761">
        <ele>767</ele>
        <time>2013-08-13T10:09:17Z</time>
      </trkpt>
      <trkpt lat="43.63788" lon="2.77764">
        <ele>767</ele>
        <time>2013-08-13T10:09:19Z</time>
      </trkpt>
      <trkpt lat="43.63775" lon="2.77764">
        <ele>766</ele>
        <time>2013-08-13T10:09:22Z</time>
      </trkpt>
      <trkpt lat="43.63765" lon="2.77759">
        <ele>767</ele>
        <time>2013-08-13T10:09:24Z</time>
      </trkpt>
      <trkpt lat="43.63755" lon="2.77755">
        <ele>771</ele>
        <time>2013-08-13T10:09:26Z</time>
      </trkpt>
      <trkpt lat="43.63746" lon="2.77749">
        <ele>771</ele>
        <time>2013-08-13T10:09:28Z</time>
      </trkpt>
      <trkpt lat="43.63735" lon="2.77742">
        <ele>775</ele>
        <time>2013-08-13T10:09:31Z</time>
      </trkpt>
      <trkpt lat="43.63725" lon="2.77738">
        <ele>776</ele>
        <time>2013-08-13T10:09:33Z</time>
      </trkpt>
      <trkpt lat="43.63715" lon="2.77733">
        <ele>776</ele>
        <time>2013-08-13T10:09:35Z</time>
      </trkpt>
      <trkpt lat="43.63702" lon="2.77722">
        <ele>775</ele>
        <time>2013-08-13T10:09:38Z</time>
      </trkpt>
      <trkpt lat="43.6369" lon="2.77714">
        <ele>774</ele>
        <time>2013-08-13T10:09:40Z</time>
      </trkpt>
      <trkpt lat="43.63683" lon="2.77703">
        <ele>775</ele>
        <time>2013-08-13T10:09:42Z</time>
      </trkpt>
      <trkpt lat="43.63672" lon="2.77695">
        <ele>775</ele>
        <time>2013-08-13T10:09:45Z</time>
      </trkpt>
      <trkpt lat="43.63663" lon="2.77685">
        <ele>778</ele>
        <time>2013-08-13T10:09:48Z</time>
      </trkpt>
      <trkpt lat="43.63656" lon="2.77676">
        <ele>777</ele>
        <time>2013-08-13T10:09:50Z</time>
      </trkpt>
      <trkpt lat="43.63647" lon="2.77668">
        <ele>775</ele>
        <time>2013-08-13T10:09:53Z</time>
      </trkpt>
      <trkpt lat="43.63635" lon="2.7765">
        <ele>778</ele>
        <time>2013-08-13T10:09:56Z</time>
      </trkpt>
      <trkpt lat="43.63628" lon="2.77641">
        <ele>779</ele>
        <time>2013-08-13T10:09:58Z</time>
      </trkpt>
      <trkpt lat="43.63623" lon="2.77628">
        <ele>776</ele>
        <time>2013-08-13T10:10:01Z</time>
      </trkpt>
      <trkpt lat="43.63613" lon="2.77614">
        <ele>775</ele>
        <time>2013-08-13T10:10:04Z</time>
      </trkpt>
      <trkpt lat="43.63605" lon="2.77603">
        <ele>781</ele>
        <time>2013-08-13T10:10:07Z</time>
      </trkpt>
      <trkpt lat="43.63597" lon="2.77596">
        <ele>784</ele>
        <time>2013-08-13T10:10:10Z</time>
      </trkpt>
      <trkpt lat="43.63587" lon="2.7759">
        <ele>779</ele>
        <time>2013-08-13T10:10:13Z</time>
      </trkpt>
      <trkpt lat="43.63575" lon="2.77583">
        <ele>777</ele>
        <time>2013-08-13T10:10:16Z</time>
      </trkpt>
      <trkpt lat="43.63564" lon="2.77581">
        <ele>776</ele>
        <time>2013-08-13T10:10:20Z</time>
      </trkpt>
      <trkpt lat="43.63553" lon="2.77579">
        <ele>777</ele>
        <time>2013-08-13T10:10:25Z</time>
      </trkpt>
      <trkpt lat="43.63544" lon="2.77575">
        <ele>775</ele>
        <time>2013-08-13T10:10:40Z</time>
      </trkpt>
      <trkpt lat="43.63533" lon="2.77568">
        <ele>773</ele>
        <time>2013-08-13T10:10:44Z</time>
      </trkpt>
      <trkpt lat="43.63522" lon="2.77567">
        <ele>777</ele>
        <time>2013-08-13T10:10:46Z</time>
      </trkpt>
      <trkpt lat="43.63511" lon="2.77564">
        <ele>776</ele>
        <time>2013-08-13T10:10:49Z</time>
      </trkpt>
      <trkpt lat="43.63504" lon="2.77555">
        <ele>774</ele>
        <time>2013-08-13T10:10:52Z</time>
      </trkpt>
      <trkpt lat="43.63495" lon="2.77549">
        <ele>773</ele>
        <time>2013-08-13T10:10:55Z</time>
      </trkpt>
      <trkpt lat="43.63485" lon="2.77539">
        <ele>768</ele>
        <time>2013-08-13T10:10:58Z</time>
      </trkpt>
      <trkpt lat="43.63478" lon="2.77529">
        <ele>770</ele>
        <time>2013-08-13T10:11:01Z</time>
      </trkpt>
      <trkpt lat="43.63471" lon="2.77518">
        <ele>771</ele>
        <time>2013-08-13T10:11:04Z</time>
      </trkpt>
      <trkpt lat="43.63462" lon="2.77507">
        <ele>771</ele>
        <time>2013-08-13T10:11:08Z</time>
      </trkpt>
      <trkpt lat="43.63452" lon="2.77499">
        <ele>773</ele>
        <time>2013-08-13T10:11:11Z</time>
      </trkpt>
      <trkpt lat="43.63442" lon="2.77491">
        <ele>775</ele>
        <time>2013-08-13T10:11:14Z</time>
      </trkpt>
      <trkpt lat="43.63434" lon="2.77483">
        <ele>775</ele>
        <time>2013-08-13T10:11:16Z</time>
      </trkpt>
      <trkpt lat="43.6343" lon="2.77466">
        <ele>775</ele>
        <time>2013-08-13T10:11:19Z</time>
      </trkpt>
      <trkpt lat="43.63428" lon="2.77449">
        <ele>776</ele>
        <time>2013-08-13T10:11:22Z</time>
      </trkpt>
      <trkpt lat="43.63428" lon="2.77433">
        <ele>779</ele>
        <time>2013-08-13T10:11:24Z</time>
      </trkpt>
      <trkpt lat="43.6343" lon="2.7742">
        <ele>778</ele>
        <time>2013-08-13T10:11:27Z</time>
      </trkpt>
      <trkpt lat="43.63421" lon="2.77414">
        <ele>777</ele>
        <time>2013-08-13T10:11:55Z</time>
      </trkpt>
      <trkpt lat="43.63414" lon="2.77425">
        <ele>779</ele>
        <time>2013-08-13T10:12:15Z</time>
      </trkpt>
      <trkpt lat="43.63408" lon="2.77435">
        <ele>782</ele>
        <time>2013-08-13T10:12:20Z</time>
      </trkpt>
      <trkpt lat="43.63399" lon="2.77442">
        <ele>782</ele>
        <time>2013-08-13T10:12:25Z</time>
      </trkpt>
      <trkpt lat="43.63393" lon="2.77454">
        <ele>786</ele>
        <time>2013-08-13T10:12:30Z</time>
      </trkpt>
      <trkpt lat="43.63381" lon="2.77452">
        <ele>785</ele>
        <time>2013-08-13T10:12:39Z</time>
      </trkpt>
      <trkpt lat="43.63371" lon="2.77446">
        <ele>780</ele>
        <time>2013-08-13T10:12:44Z</time>
      </trkpt>
      <trkpt lat="43.63362" lon="2.7744">
        <ele>778</ele>
        <time>2013-08-13T10:12:53Z</time>
      </trkpt>
      <trkpt lat="43.63363" lon="2.77426">
        <ele>776</ele>
        <time>2013-08-13T10:13:28Z</time>
      </trkpt>
      <trkpt lat="43.63361" lon="2.77408">
        <ele>778</ele>
        <time>2013-08-13T10:13:31Z</time>
      </trkpt>
      <trkpt lat="43.63357" lon="2.77391">
        <ele>778</ele>
        <time>2013-08-13T10:13:34Z</time>
      </trkpt>
      <trkpt lat="43.63354" lon="2.77371">
        <ele>779</ele>
        <time>2013-08-13T10:13:35Z</time>
      </trkpt>
      <trkpt lat="43.63352" lon="2.77358">
        <ele>779</ele>
        <time>2013-08-13T10:13:36Z</time>
      </trkpt>
      <trkpt lat="43.6335" lon="2.77345">
        <ele>779</ele>
        <time>2013-08-13T10:13:37Z</time>
      </trkpt>
      <trkpt lat="43.63347" lon="2.77319">
        <ele>779</ele>
        <time>2013-08-13T10:13:39Z</time>
      </trkpt>
      <trkpt lat="43.63342" lon="2.77297">
        <ele>779</ele>
        <time>2013-08-13T10:13:41Z</time>
      </trkpt>
      <trkpt lat="43.63338" lon="2.77274">
        <ele>777</ele>
        <time>2013-08-13T10:13:43Z</time>
      </trkpt>
      <trkpt lat="43.63338" lon="2.77259">
        <ele>778</ele>
        <time>2013-08-13T10:13:44Z</time>
      </trkpt>
      <trkpt lat="43.63337" lon="2.77243">
        <ele>776</ele>
        <time>2013-08-13T10:13:45Z</time>
      </trkpt>
      <trkpt lat="43.63335" lon="2.77221">
        <ele>775</ele>
        <time>2013-08-13T10:13:47Z</time>
      </trkpt>
      <trkpt lat="43.63336" lon="2.77207">
        <ele>775</ele>
        <time>2013-08-13T10:13:49Z</time>
      </trkpt>
      <trkpt lat="43.63335" lon="2.77193">
        <ele>776</ele>
        <time>2013-08-13T10:13:51Z</time>
      </trkpt>
      <trkpt lat="43.63333" lon="2.77177">
        <ele>774</ele>
        <time>2013-08-13T10:13:53Z</time>
      </trkpt>
      <trkpt lat="43.63336" lon="2.77164">
        <ele>775</ele>
        <time>2013-08-13T10:13:55Z</time>
      </trkpt>
      <trkpt lat="43.63333" lon="2.77151">
        <ele>776</ele>
        <time>2013-08-13T10:13:58Z</time>
      </trkpt>
      <trkpt lat="43.63332" lon="2.77138">
        <ele>776</ele>
        <time>2013-08-13T10:14:01Z</time>
      </trkpt>
      <trkpt lat="43.63331" lon="2.77124">
        <ele>775</ele>
        <time>2013-08-13T10:14:04Z</time>
      </trkpt>
      <trkpt lat="43.63329" lon="2.77111">
        <ele>772</ele>
        <time>2013-08-13T10:14:07Z</time>
      </trkpt>
      <trkpt lat="43.63322" lon="2.77096">
        <ele>770</ele>
        <time>2013-08-13T10:14:10Z</time>
      </trkpt>
      <trkpt lat="43.63316" lon="2.77085">
        <ele>772</ele>
        <time>2013-08-13T10:14:12Z</time>
      </trkpt>
      <trkpt lat="43.6331" lon="2.77072">
        <ele>772</ele>
        <time>2013-08-13T10:14:14Z</time>
      </trkpt>
      <trkpt lat="43.63306" lon="2.7706">
        <ele>771</ele>
        <time>2013-08-13T10:14:16Z</time>
      </trkpt>
      <trkpt lat="43.63302" lon="2.77046">
        <ele>772</ele>
        <time>2013-08-13T10:14:18Z</time>
      </trkpt>
      <trkpt lat="43.63303" lon="2.7703">
        <ele>773</ele>
        <time>2013-08-13T10:14:20Z</time>
      </trkpt>
      <trkpt lat="43.63307" lon="2.77016">
        <ele>772</ele>
        <time>2013-08-13T10:14:22Z</time>
      </trkpt>
      <trkpt lat="43.63321" lon="2.77003">
        <ele>772</ele>
        <time>2013-08-13T10:14:24Z</time>
      </trkpt>
      <trkpt lat="43.6333" lon="2.76989">
        <ele>774</ele>
        <time>2013-08-13T10:14:27Z</time>
      </trkpt>
      <trkpt lat="43.63338" lon="2.76979">
        <ele>774</ele>
        <time>2013-08-13T10:14:29Z</time>
      </trkpt>
      <trkpt lat="43.63346" lon="2.76969">
        <ele>772</ele>
        <time>2013-08-13T10:14:32Z</time>
      </trkpt>
      <trkpt lat="43.63359" lon="2.76963">
        <ele>773</ele>
        <time>2013-08-13T10:14:35Z</time>
      </trkpt>
      <trkpt lat="43.63369" lon="2.76958">
        <ele>772</ele>
        <time>2013-08-13T10:14:37Z</time>
      </trkpt>
      <trkpt lat="43.63379" lon="2.7695">
        <ele>773</ele>
        <time>2013-08-13T10:14:39Z</time>
      </trkpt>
      <trkpt lat="43.63387" lon="2.7694">
        <ele>774</ele>
        <time>2013-08-13T10:14:41Z</time>
      </trkpt>
      <trkpt lat="43.63396" lon="2.76929">
        <ele>774</ele>
        <time>2013-08-13T10:14:43Z</time>
      </trkpt>
      <trkpt lat="43.63405" lon="2.76923">
        <ele>774</ele>
        <time>2013-08-13T10:14:45Z</time>
      </trkpt>
      <trkpt lat="43.63412" lon="2.76912">
        <ele>774</ele>
        <time>2013-08-13T10:14:47Z</time>
      </trkpt>
      <trkpt lat="43.63423" lon="2.76903">
        <ele>773</ele>
        <time>2013-08-13T10:14:49Z</time>
      </trkpt>
      <trkpt lat="43.63432" lon="2.76896">
        <ele>774</ele>
        <time>2013-08-13T10:14:51Z</time>
      </trkpt>
      <trkpt lat="43.63441" lon="2.76887">
        <ele>774</ele>
        <time>2013-08-13T10:14:53Z</time>
      </trkpt>
      <trkpt lat="43.63452" lon="2.7688">
        <ele>773</ele>
        <time>2013-08-13T10:14:55Z</time>
      </trkpt>
      <trkpt lat="43.63457" lon="2.76864">
        <ele>772</ele>
        <time>2013-08-13T10:14:58Z</time>
      </trkpt>
      <trkpt lat="43.63458" lon="2.76848">
        <ele>772</ele>
        <time>2013-08-13T10:15:01Z</time>
      </trkpt>
      <trkpt lat="43.63458" lon="2.76832">
        <ele>775</ele>
        <time>2013-08-13T10:15:04Z</time>
      </trkpt>
      <trkpt lat="43.63462" lon="2.76817">
        <ele>763</ele>
        <time>2013-08-13T10:15:08Z</time>
      </trkpt>
      <trkpt lat="43.63467" lon="2.76805">
        <ele>769</ele>
        <time>2013-08-13T10:15:11Z</time>
      </trkpt>
      <trkpt lat="43.63473" lon="2.76792">
        <ele>771</ele>
        <time>2013-08-13T10:15:14Z</time>
      </trkpt>
      <trkpt lat="43.63483" lon="2.76779">
        <ele>770</ele>
        <time>2013-08-13T10:15:17Z</time>
      </trkpt>
      <trkpt lat="43.63493" lon="2.76767">
        <ele>767</ele>
        <time>2013-08-13T10:15:20Z</time>
      </trkpt>
      <trkpt lat="43.63502" lon="2.76758">
        <ele>769</ele>
        <time>2013-08-13T10:15:22Z</time>
      </trkpt>
      <trkpt lat="43.63514" lon="2.76751">
        <ele>772</ele>
        <time>2013-08-13T10:15:25Z</time>
      </trkpt>
      <trkpt lat="43.63525" lon="2.76741">
        <ele>772</ele>
        <time>2013-08-13T10:15:28Z</time>
      </trkpt>
      <trkpt lat="43.63532" lon="2.7673">
        <ele>772</ele>
        <time>2013-08-13T10:15:30Z</time>
      </trkpt>
      <trkpt lat="43.6354" lon="2.76721">
        <ele>773</ele>
        <time>2013-08-13T10:15:32Z</time>
      </trkpt>
      <trkpt lat="43.63551" lon="2.76714">
        <ele>771</ele>
        <time>2013-08-13T10:15:35Z</time>
      </trkpt>
      <trkpt lat="43.63559" lon="2.76703">
        <ele>772</ele>
        <time>2013-08-13T10:15:37Z</time>
      </trkpt>
      <trkpt lat="43.63568" lon="2.76692">
        <ele>774</ele>
        <time>2013-08-13T10:15:39Z</time>
      </trkpt>
      <trkpt lat="43.63575" lon="2.76681">
        <ele>776</ele>
        <time>2013-08-13T10:15:41Z</time>
      </trkpt>
      <trkpt lat="43.63585" lon="2.76672">
        <ele>776</ele>
        <time>2013-08-13T10:15:43Z</time>
      </trkpt>
      <trkpt lat="43.63594" lon="2.76661">
        <ele>775</ele>
        <time>2013-08-13T10:15:45Z</time>
      </trkpt>
      <trkpt lat="43.63605" lon="2.76649">
        <ele>770</ele>
        <time>2013-08-13T10:15:47Z</time>
      </trkpt>
      <trkpt lat="43.63612" lon="2.76639">
        <ele>771</ele>
        <time>2013-08-13T10:15:49Z</time>
      </trkpt>
      <trkpt lat="43.6362" lon="2.76626">
        <ele>772</ele>
        <time>2013-08-13T10:15:51Z</time>
      </trkpt>
      <trkpt lat="43.63628" lon="2.76615">
        <ele>772</ele>
        <time>2013-08-13T10:15:53Z</time>
      </trkpt>
      <trkpt lat="43.63635" lon="2.76604">
        <ele>772</ele>
        <time>2013-08-13T10:15:55Z</time>
      </trkpt>
      <trkpt lat="43.63644" lon="2.76595">
        <ele>773</ele>
        <time>2013-08-13T10:15:57Z</time>
      </trkpt>
      <trkpt lat="43.63655" lon="2.7659">
        <ele>773</ele>
        <time>2013-08-13T10:16:00Z</time>
      </trkpt>
      <trkpt lat="43.63668" lon="2.76593">
        <ele>773</ele>
        <time>2013-08-13T10:16:04Z</time>
      </trkpt>
      <trkpt lat="43.63677" lon="2.76594">
        <ele>773</ele>
        <time>2013-08-13T10:16:08Z</time>
      </trkpt>
      <trkpt lat="43.63688" lon="2.76595">
        <ele>776</ele>
        <time>2013-08-13T10:16:13Z</time>
      </trkpt>
      <trkpt lat="43.63701" lon="2.76598">
        <ele>778</ele>
        <time>2013-08-13T10:16:16Z</time>
      </trkpt>
      <trkpt lat="43.6371" lon="2.76601">
        <ele>779</ele>
        <time>2013-08-13T10:16:18Z</time>
      </trkpt>
      <trkpt lat="43.6372" lon="2.76606">
        <ele>779</ele>
        <time>2013-08-13T10:16:20Z</time>
      </trkpt>
      <trkpt lat="43.63735" lon="2.7662">
        <ele>780</ele>
        <time>2013-08-13T10:16:21Z</time>
      </trkpt>
      <trkpt lat="43.63747" lon="2.76626">
        <ele>783</ele>
        <time>2013-08-13T10:16:23Z</time>
      </trkpt>
      <trkpt lat="43.63757" lon="2.76631">
        <ele>784</ele>
        <time>2013-08-13T10:16:25Z</time>
      </trkpt>
      <trkpt lat="43.63767" lon="2.76637">
        <ele>785</ele>
        <time>2013-08-13T10:16:27Z</time>
      </trkpt>
      <trkpt lat="43.63778" lon="2.76642">
        <ele>787</ele>
        <time>2013-08-13T10:16:29Z</time>
      </trkpt>
      <trkpt lat="43.6379" lon="2.76651">
        <ele>788</ele>
        <time>2013-08-13T10:16:32Z</time>
      </trkpt>
      <trkpt lat="43.63798" lon="2.76657">
        <ele>781</ele>
        <time>2013-08-13T10:16:42Z</time>
      </trkpt>
      <trkpt lat="43.63797" lon="2.76671">
        <ele>781</ele>
        <time>2013-08-13T10:16:59Z</time>
      </trkpt>
      <trkpt lat="43.63788" lon="2.76664">
        <ele>784</ele>
        <time>2013-08-13T10:18:27Z</time>
      </trkpt>
      <trkpt lat="43.63775" lon="2.76658">
        <ele>785</ele>
        <time>2013-08-13T10:18:32Z</time>
      </trkpt>
      <trkpt lat="43.63765" lon="2.76656">
        <ele>786</ele>
        <time>2013-08-13T10:18:37Z</time>
      </trkpt>
      <trkpt lat="43.6376" lon="2.76645">
        <ele>787</ele>
        <time>2013-08-13T10:18:51Z</time>
      </trkpt>
      <trkpt lat="43.63751" lon="2.76639">
        <ele>790</ele>
        <time>2013-08-13T10:18:54Z</time>
      </trkpt>
      <trkpt lat="43.63761" lon="2.76639">
        <ele>789</ele>
        <time>2013-08-13T10:19:16Z</time>
      </trkpt>
      <trkpt lat="43.6377" lon="2.76643">
        <ele>793</ele>
        <time>2013-08-13T10:19:19Z</time>
      </trkpt>
      <trkpt lat="43.63775" lon="2.76631">
        <ele>791</ele>
        <time>2013-08-13T10:19:45Z</time>
      </trkpt>
      <trkpt lat="43.63766" lon="2.76634">
        <ele>785</ele>
        <time>2013-08-13T10:20:00Z</time>
      </trkpt>
      <trkpt lat="43.63775" lon="2.76641">
        <ele>790</ele>
        <time>2013-08-13T10:20:16Z</time>
      </trkpt>
      <trkpt lat="43.63789" lon="2.76645">
        <ele>794</ele>
        <time>2013-08-13T10:20:19Z</time>
      </trkpt>
      <trkpt lat="43.6381" lon="2.76657">
        <ele>794</ele>
        <time>2013-08-13T10:20:21Z</time>
      </trkpt>
      <trkpt lat="43.63823" lon="2.76666">
        <ele>794</ele>
        <time>2013-08-13T10:20:23Z</time>
      </trkpt>
      <trkpt lat="43.63835" lon="2.76678">
        <ele>793</ele>
        <time>2013-08-13T10:20:25Z</time>
      </trkpt>
      <trkpt lat="43.63846" lon="2.76685">
        <ele>793</ele>
        <time>2013-08-13T10:20:27Z</time>
      </trkpt>
      <trkpt lat="43.63857" lon="2.76691">
        <ele>794</ele>
        <time>2013-08-13T10:20:29Z</time>
      </trkpt>
      <trkpt lat="43.63873" lon="2.76696">
        <ele>794</ele>
        <time>2013-08-13T10:20:31Z</time>
      </trkpt>
      <trkpt lat="43.63884" lon="2.767">
        <ele>794</ele>
        <time>2013-08-13T10:20:32Z</time>
      </trkpt>
      <trkpt lat="43.63896" lon="2.76707">
        <ele>795</ele>
        <time>2013-08-13T10:20:34Z</time>
      </trkpt>
      <trkpt lat="43.63906" lon="2.76719">
        <ele>795</ele>
        <time>2013-08-13T10:20:37Z</time>
      </trkpt>
      <trkpt lat="43.63917" lon="2.76727">
        <ele>796</ele>
        <time>2013-08-13T10:20:40Z</time>
      </trkpt>
      <trkpt lat="43.63927" lon="2.76735">
        <ele>794</ele>
        <time>2013-08-13T10:20:43Z</time>
      </trkpt>
      <trkpt lat="43.63937" lon="2.76741">
        <ele>793</ele>
        <time>2013-08-13T10:20:47Z</time>
      </trkpt>
      <trkpt lat="43.63949" lon="2.76744">
        <ele>794</ele>
        <time>2013-08-13T10:20:52Z</time>
      </trkpt>
      <trkpt lat="43.63959" lon="2.76745">
        <ele>794</ele>
        <time>2013-08-13T10:20:55Z</time>
      </trkpt>
      <trkpt lat="43.63971" lon="2.76751">
        <ele>795</ele>
        <time>2013-08-13T10:20:58Z</time>
      </trkpt>
      <trkpt lat="43.63989" lon="2.76764">
        <ele>794</ele>
        <time>2013-08-13T10:21:00Z</time>
      </trkpt>
      <trkpt lat="43.63999" lon="2.76774">
        <ele>794</ele>
        <time>2013-08-13T10:21:02Z</time>
      </trkpt>
      <trkpt lat="43.64011" lon="2.76777">
        <ele>795</ele>
        <time>2013-08-13T10:21:05Z</time>
      </trkpt>
      <trkpt lat="43.64022" lon="2.7678">
        <ele>795</ele>
        <time>2013-08-13T10:21:07Z</time>
      </trkpt>
      <trkpt lat="43.64034" lon="2.76784">
        <ele>795</ele>
        <time>2013-08-13T10:21:09Z</time>
      </trkpt>
      <trkpt lat="43.64043" lon="2.76791">
        <ele>795</ele>
        <time>2013-08-13T10:21:11Z</time>
      </trkpt>
      <trkpt lat="43.64053" lon="2.76795">
        <ele>795</ele>
        <time>2013-08-13T10:21:14Z</time>
      </trkpt>
      <trkpt lat="43.64065" lon="2.76798">
        <ele>793</ele>
        <time>2013-08-13T10:21:16Z</time>
      </trkpt>
      <trkpt lat="43.64076" lon="2.76801">
        <ele>793</ele>
        <time>2013-08-13T10:21:19Z</time>
      </trkpt>
      <trkpt lat="43.64085" lon="2.76806">
        <ele>793</ele>
        <time>2013-08-13T10:21:22Z</time>
      </trkpt>
      <trkpt lat="43.64095" lon="2.76811">
        <ele>791</ele>
        <time>2013-08-13T10:21:25Z</time>
      </trkpt>
      <trkpt lat="43.64106" lon="2.76816">
        <ele>789</ele>
        <time>2013-08-13T10:21:28Z</time>
      </trkpt>
      <trkpt lat="43.64117" lon="2.76819">
        <ele>793</ele>
        <time>2013-08-13T10:21:29Z</time>
      </trkpt>
      <trkpt lat="43.64127" lon="2.76825">
        <ele>790</ele>
        <time>2013-08-13T10:21:31Z</time>
      </trkpt>
      <trkpt lat="43.64141" lon="2.76832">
        <ele>788</ele>
        <time>2013-08-13T10:21:33Z</time>
      </trkpt>
      <trkpt lat="43.64153" lon="2.7684">
        <ele>788</ele>
        <time>2013-08-13T10:21:35Z</time>
      </trkpt>
      <trkpt lat="43.64162" lon="2.76848">
        <ele>787</ele>
        <time>2013-08-13T10:21:37Z</time>
      </trkpt>
      <trkpt lat="43.64172" lon="2.76856">
        <ele>788</ele>
        <time>2013-08-13T10:21:40Z</time>
      </trkpt>
      <trkpt lat="43.64183" lon="2.76861">
        <ele>788</ele>
        <time>2013-08-13T10:21:43Z</time>
      </trkpt>
      <trkpt lat="43.64194" lon="2.76863">
        <ele>792</ele>
        <time>2013-08-13T10:21:47Z</time>
      </trkpt>
      <trkpt lat="43.64206" lon="2.76866">
        <ele>792</ele>
        <time>2013-08-13T10:21:51Z</time>
      </trkpt>
      <trkpt lat="43.64219" lon="2.76868">
        <ele>791</ele>
        <time>2013-08-13T10:21:54Z</time>
      </trkpt>
      <trkpt lat="43.64232" lon="2.76869">
        <ele>792</ele>
        <time>2013-08-13T10:21:57Z</time>
      </trkpt>
      <trkpt lat="43.64243" lon="2.76869">
        <ele>795</ele>
        <time>2013-08-13T10:22:00Z</time>
      </trkpt>
      <trkpt lat="43.64255" lon="2.76871">
        <ele>794</ele>
        <time>2013-08-13T10:22:04Z</time>
      </trkpt>
      <trkpt lat="43.64265" lon="2.7687">
        <ele>794</ele>
        <time>2013-08-13T10:22:07Z</time>
      </trkpt>
      <trkpt lat="43.64275" lon="2.76869">
        <ele>793</ele>
        <time>2013-08-13T10:22:12Z</time>
      </trkpt>
      <trkpt lat="43.64285" lon="2.76863">
        <ele>789</ele>
        <time>2013-08-13T10:22:19Z</time>
      </trkpt>
      <trkpt lat="43.64294" lon="2.76854">
        <ele>783</ele>
        <time>2013-08-13T10:22:24Z</time>
      </trkpt>
      <trkpt lat="43.64304" lon="2.76855">
        <ele>784</ele>
        <time>2013-08-13T10:22:27Z</time>
      </trkpt>
      <trkpt lat="43.64314" lon="2.76854">
        <ele>786</ele>
        <time>2013-08-13T10:22:30Z</time>
      </trkpt>
      <trkpt lat="43.64326" lon="2.76852">
        <ele>789</ele>
        <time>2013-08-13T10:22:33Z</time>
      </trkpt>
      <trkpt lat="43.64336" lon="2.7685">
        <ele>790</ele>
        <time>2013-08-13T10:22:35Z</time>
      </trkpt>
      <trkpt lat="43.6435" lon="2.76851">
        <ele>790</ele>
        <time>2013-08-13T10:22:38Z</time>
      </trkpt>
      <trkpt lat="43.64359" lon="2.76857">
        <ele>790</ele>
        <time>2013-08-13T10:22:40Z</time>
      </trkpt>
      <trkpt lat="43.64367" lon="2.76865">
        <ele>787</ele>
        <time>2013-08-13T10:22:42Z</time>
      </trkpt>
      <trkpt lat="43.64376" lon="2.76867">
        <ele>793</ele>
        <time>2013-08-13T10:22:50Z</time>
      </trkpt>
      <trkpt lat="43.64386" lon="2.7687">
        <ele>792</ele>
        <time>2013-08-13T10:22:53Z</time>
      </trkpt>
      <trkpt lat="43.64395" lon="2.76875">
        <ele>796</ele>
        <time>2013-08-13T10:22:57Z</time>
      </trkpt>
      <trkpt lat="43.64405" lon="2.76878">
        <ele>801</ele>
        <time>2013-08-13T10:23:02Z</time>
      </trkpt>
      <trkpt lat="43.64413" lon="2.76871">
        <ele>800</ele>
        <time>2013-08-13T10:23:15Z</time>
      </trkpt>
      <trkpt lat="43.64422" lon="2.76866">
        <ele>800</ele>
        <time>2013-08-13T10:23:21Z</time>
      </trkpt>
      <trkpt lat="43.64431" lon="2.76859">
        <ele>801</ele>
        <time>2013-08-13T10:23:28Z</time>
      </trkpt>
      <trkpt lat="43.64438" lon="2.76847">
        <ele>804</ele>
        <time>2013-08-13T10:23:35Z</time>
      </trkpt>
      <trkpt lat="43.6444" lon="2.76833">
        <ele>798</ele>
        <time>2013-08-13T10:23:41Z</time>
      </trkpt>
      <trkpt lat="43.64434" lon="2.76821">
        <ele>788</ele>
        <time>2013-08-13T10:24:12Z</time>
      </trkpt>
      <trkpt lat="43.64428" lon="2.76811">
        <ele>790</ele>
        <time>2013-08-13T10:24:19Z</time>
      </trkpt>
      <trkpt lat="43.6442" lon="2.76803">
        <ele>793</ele>
        <time>2013-08-13T10:24:23Z</time>
      </trkpt>
      <trkpt lat="43.64413" lon="2.76795">
        <ele>795</ele>
        <time>2013-08-13T10:24:26Z</time>
      </trkpt>
      <trkpt lat="43.64407" lon="2.76781">
        <ele>800</ele>
        <time>2013-08-13T10:24:30Z</time>
      </trkpt>
      <trkpt lat="43.64405" lon="2.76768">
        <ele>801</ele>
        <time>2013-08-13T10:24:34Z</time>
      </trkpt>
      <trkpt lat="43.64401" lon="2.76753">
        <ele>793</ele>
        <time>2013-08-13T10:24:38Z</time>
      </trkpt>
      <trkpt lat="43.64401" lon="2.76737">
        <ele>793</ele>
        <time>2013-08-13T10:24:42Z</time>
      </trkpt>
      <trkpt lat="43.64407" lon="2.76726">
        <ele>791</ele>
        <time>2013-08-13T10:24:46Z</time>
      </trkpt>
      <trkpt lat="43.64415" lon="2.76716">
        <ele>792</ele>
        <time>2013-08-13T10:24:50Z</time>
      </trkpt>
      <trkpt lat="43.6442" lon="2.76703">
        <ele>792</ele>
        <time>2013-08-13T10:24:55Z</time>
      </trkpt>
      <trkpt lat="43.64413" lon="2.76688">
        <ele>793</ele>
        <time>2013-08-13T10:24:59Z</time>
      </trkpt>
      <trkpt lat="43.64404" lon="2.76681">
        <ele>793</ele>
        <time>2013-08-13T10:25:01Z</time>
      </trkpt>
      <trkpt lat="43.64392" lon="2.76676">
        <ele>793</ele>
        <time>2013-08-13T10:25:02Z</time>
      </trkpt>
      <trkpt lat="43.64383" lon="2.76667">
        <ele>791</ele>
        <time>2013-08-13T10:25:05Z</time>
      </trkpt>
      <trkpt lat="43.64374" lon="2.7666">
        <ele>792</ele>
        <time>2013-08-13T10:25:08Z</time>
      </trkpt>
      <trkpt lat="43.64364" lon="2.76653">
        <ele>793</ele>
        <time>2013-08-13T10:25:11Z</time>
      </trkpt>
      <trkpt lat="43.64354" lon="2.76646">
        <ele>796</ele>
        <time>2013-08-13T10:25:15Z</time>
      </trkpt>
      <trkpt lat="43.64344" lon="2.7664">
        <ele>800</ele>
        <time>2013-08-13T10:25:20Z</time>
      </trkpt>
      <trkpt lat="43.64334" lon="2.76633">
        <ele>800</ele>
        <time>2013-08-13T10:25:25Z</time>
      </trkpt>
      <trkpt lat="43.64324" lon="2.76625">
        <ele>800</ele>
        <time>2013-08-13T10:25:30Z</time>
      </trkpt>
      <trkpt lat="43.64314" lon="2.76618">
        <ele>803</ele>
        <time>2013-08-13T10:25:35Z</time>
      </trkpt>
      <trkpt lat="43.64306" lon="2.7661">
        <ele>805</ele>
        <time>2013-08-13T10:25:40Z</time>
      </trkpt>
      <trkpt lat="43.64297" lon="2.76601">
        <ele>804</ele>
        <time>2013-08-13T10:25:45Z</time>
      </trkpt>
      <trkpt lat="43.64287" lon="2.76595">
        <ele>806</ele>
        <time>2013-08-13T10:25:49Z</time>
      </trkpt>
      <trkpt lat="43.64277" lon="2.76589">
        <ele>806</ele>
        <time>2013-08-13T10:25:53Z</time>
      </trkpt>
      <trkpt lat="43.64269" lon="2.76583">
        <ele>806</ele>
        <time>2013-08-13T10:25:57Z</time>
      </trkpt>
      <trkpt lat="43.64259" lon="2.76578">
        <ele>806</ele>
        <time>2013-08-13T10:26:02Z</time>
      </trkpt>
      <trkpt lat="43.6425" lon="2.76573">
        <ele>804</ele>
        <time>2013-08-13T10:26:11Z</time>
      </trkpt>
      <trkpt lat="43.64239" lon="2.76565">
        <ele>804</ele>
        <time>2013-08-13T10:26:15Z</time>
      </trkpt>
      <trkpt lat="43.64231" lon="2.76555">
        <ele>802</ele>
        <time>2013-08-13T10:26:20Z</time>
      </trkpt>
      <trkpt lat="43.64223" lon="2.76545">
        <ele>801</ele>
        <time>2013-08-13T10:26:25Z</time>
      </trkpt>
      <trkpt lat="43.64213" lon="2.76538">
        <ele>802</ele>
        <time>2013-08-13T10:26:30Z</time>
      </trkpt>
      <trkpt lat="43.64204" lon="2.76533">
        <ele>802</ele>
        <time>2013-08-13T10:26:35Z</time>
      </trkpt>
      <trkpt lat="43.64195" lon="2.76527">
        <ele>803</ele>
        <time>2013-08-13T10:26:40Z</time>
      </trkpt>
      <trkpt lat="43.64184" lon="2.76525">
        <ele>804</ele>
        <time>2013-08-13T10:26:45Z</time>
      </trkpt>
      <trkpt lat="43.64173" lon="2.76525">
        <ele>804</ele>
        <time>2013-08-13T10:26:50Z</time>
      </trkpt>
      <trkpt lat="43.64163" lon="2.76526">
        <ele>804</ele>
        <time>2013-08-13T10:26:55Z</time>
      </trkpt>
      <trkpt lat="43.64152" lon="2.76531">
        <ele>805</ele>
        <time>2013-08-13T10:27:03Z</time>
      </trkpt>
      <trkpt lat="43.64141" lon="2.76534">
        <ele>803</ele>
        <time>2013-08-13T10:27:09Z</time>
      </trkpt>
      <trkpt lat="43.64132" lon="2.76541">
        <ele>803</ele>
        <time>2013-08-13T10:27:15Z</time>
      </trkpt>
      <trkpt lat="43.64126" lon="2.76551">
        <ele>804</ele>
        <time>2013-08-13T10:27:20Z</time>
      </trkpt>
      <trkpt lat="43.6412" lon="2.76561">
        <ele>806</ele>
        <time>2013-08-13T10:27:26Z</time>
      </trkpt>
      <trkpt lat="43.6411" lon="2.76569">
        <ele>805</ele>
        <time>2013-08-13T10:27:33Z</time>
      </trkpt>
      <trkpt lat="43.64101" lon="2.76576">
        <ele>809</ele>
        <time>2013-08-13T10:27:38Z</time>
      </trkpt>
      <trkpt lat="43.64091" lon="2.7658">
        <ele>807</ele>
        <time>2013-08-13T10:27:43Z</time>
      </trkpt>
      <trkpt lat="43.64082" lon="2.76583">
        <ele>807</ele>
        <time>2013-08-13T10:27:48Z</time>
      </trkpt>
      <trkpt lat="43.64071" lon="2.76583">
        <ele>810</ele>
        <time>2013-08-13T10:27:53Z</time>
      </trkpt>
      <trkpt lat="43.6406" lon="2.7658">
        <ele>811</ele>
        <time>2013-08-13T10:27:57Z</time>
      </trkpt>
      <trkpt lat="43.64051" lon="2.76576">
        <ele>811</ele>
        <time>2013-08-13T10:28:01Z</time>
      </trkpt>
      <trkpt lat="43.6404" lon="2.76571">
        <ele>812</ele>
        <time>2013-08-13T10:28:06Z</time>
      </trkpt>
      <trkpt lat="43.64029" lon="2.76568">
        <ele>813</ele>
        <time>2013-08-13T10:28:10Z</time>
      </trkpt>
      <trkpt lat="43.6402" lon="2.76561">
        <ele>814</ele>
        <time>2013-08-13T10:28:14Z</time>
      </trkpt>
      <trkpt lat="43.64012" lon="2.76553">
        <ele>815</ele>
        <time>2013-08-13T10:28:18Z</time>
      </trkpt>
      <trkpt lat="43.64004" lon="2.76545">
        <ele>815</ele>
        <time>2013-08-13T10:28:23Z</time>
      </trkpt>
      <trkpt lat="43.64" lon="2.76532">
        <ele>812</ele>
        <time>2013-08-13T10:28:28Z</time>
      </trkpt>
      <trkpt lat="43.63994" lon="2.7652">
        <ele>812</ele>
        <time>2013-08-13T10:28:32Z</time>
      </trkpt>
      <trkpt lat="43.63988" lon="2.76508">
        <ele>810</ele>
        <time>2013-08-13T10:28:36Z</time>
      </trkpt>
      <trkpt lat="43.6398" lon="2.76498">
        <ele>814</ele>
        <time>2013-08-13T10:28:41Z</time>
      </trkpt>
      <trkpt lat="43.6397" lon="2.76493">
        <ele>817</ele>
        <time>2013-08-13T10:28:47Z</time>
      </trkpt>
      <trkpt lat="43.63959" lon="2.76484">
        <ele>818</ele>
        <time>2013-08-13T10:28:55Z</time>
      </trkpt>
      <trkpt lat="43.63951" lon="2.76479">
        <ele>820</ele>
        <time>2013-08-13T10:29:00Z</time>
      </trkpt>
      <trkpt lat="43.63942" lon="2.7647">
        <ele>822</ele>
        <time>2013-08-13T10:29:06Z</time>
      </trkpt>
      <trkpt lat="43.63934" lon="2.7646">
        <ele>821</ele>
        <time>2013-08-13T10:29:12Z</time>
      </trkpt>
      <trkpt lat="43.6393" lon="2.76448">
        <ele>823</ele>
        <time>2013-08-13T10:29:18Z</time>
      </trkpt>
      <trkpt lat="43.63928" lon="2.76435">
        <ele>825</ele>
        <time>2013-08-13T10:29:24Z</time>
      </trkpt>
      <trkpt lat="43.63925" lon="2.7642">
        <ele>825</ele>
        <time>2013-08-13T10:29:29Z</time>
      </trkpt>
      <trkpt lat="43.63926" lon="2.76407">
        <ele>825</ele>
        <time>2013-08-13T10:29:34Z</time>
      </trkpt>
      <trkpt lat="43.63926" lon="2.76392">
        <ele>826</ele>
        <time>2013-08-13T10:29:39Z</time>
      </trkpt>
      <trkpt lat="43.63923" lon="2.76377">
        <ele>826</ele>
        <time>2013-08-13T10:29:44Z</time>
      </trkpt>
      <trkpt lat="43.6392" lon="2.76364">
        <ele>827</ele>
        <time>2013-08-13T10:29:49Z</time>
      </trkpt>
      <trkpt lat="43.63916" lon="2.7635">
        <ele>828</ele>
        <time>2013-08-13T10:29:53Z</time>
      </trkpt>
      <trkpt lat="43.63911" lon="2.76338">
        <ele>827</ele>
        <time>2013-08-13T10:29:57Z</time>
      </trkpt>
      <trkpt lat="43.63904" lon="2.76328">
        <ele>828</ele>
        <time>2013-08-13T10:30:02Z</time>
      </trkpt>
      <trkpt lat="43.63895" lon="2.76319">
        <ele>835</ele>
        <time>2013-08-13T10:30:08Z</time>
      </trkpt>
      <trkpt lat="43.63888" lon="2.76309">
        <ele>839</ele>
        <time>2013-08-13T10:30:12Z</time>
      </trkpt>
      <trkpt lat="43.63883" lon="2.76296">
        <ele>839</ele>
        <time>2013-08-13T10:30:16Z</time>
      </trkpt>
      <trkpt lat="43.63877" lon="2.76284">
        <ele>838</ele>
        <time>2013-08-13T10:30:21Z</time>
      </trkpt>
      <trkpt lat="43.6387" lon="2.76273">
        <ele>839</ele>
        <time>2013-08-13T10:30:26Z</time>
      </trkpt>
      <trkpt lat="43.63861" lon="2.76264">
        <ele>842</ele>
        <time>2013-08-13T10:30:31Z</time>
      </trkpt>
      <trkpt lat="43.63849" lon="2.76253">
        <ele>834</ele>
        <time>2013-08-13T10:30:36Z</time>
      </trkpt>
      <trkpt lat="43.6384" lon="2.76247">
        <ele>833</ele>
        <time>2013-08-13T10:30:40Z</time>
      </trkpt>
      <trkpt lat="43.63831" lon="2.76239">
        <ele>831</ele>
        <time>2013-08-13T10:30:46Z</time>
      </trkpt>
      <trkpt lat="43.63824" lon="2.76227">
        <ele>825</ele>
        <time>2013-08-13T10:30:50Z</time>
      </trkpt>
      <trkpt lat="43.63815" lon="2.7622">
        <ele>827</ele>
        <time>2013-08-13T10:30:54Z</time>
      </trkpt>
      <trkpt lat="43.63805" lon="2.76214">
        <ele>828</ele>
        <time>2013-08-13T10:30:58Z</time>
      </trkpt>
      <trkpt lat="43.63795" lon="2.7621">
        <ele>825</ele>
        <time>2013-08-13T10:31:02Z</time>
      </trkpt>
      <trkpt lat="43.63785" lon="2.76204">
        <ele>827</ele>
        <time>2013-08-13T10:31:06Z</time>
      </trkpt>
      <trkpt lat="43.63776" lon="2.76194">
        <ele>830</ele>
        <time>2013-08-13T10:31:12Z</time>
      </trkpt>
      <trkpt lat="43.6377" lon="2.76182">
        <ele>836</ele>
        <time>2013-08-13T10:31:18Z</time>
      </trkpt>
      <trkpt lat="43.63767" lon="2.76169">
        <ele>839</ele>
        <time>2013-08-13T10:31:22Z</time>
      </trkpt>
      <trkpt lat="43.63764" lon="2.76154">
        <ele>834</ele>
        <time>2013-08-13T10:31:27Z</time>
      </trkpt>
      <trkpt lat="43.63761" lon="2.7614">
        <ele>832</ele>
        <time>2013-08-13T10:31:32Z</time>
      </trkpt>
      <trkpt lat="43.63752" lon="2.76129">
        <ele>826</ele>
        <time>2013-08-13T10:31:37Z</time>
      </trkpt>
      <trkpt lat="43.63745" lon="2.76119">
        <ele>827</ele>
        <time>2013-08-13T10:31:41Z</time>
      </trkpt>
      <trkpt lat="43.63736" lon="2.76111">
        <ele>839</ele>
        <time>2013-08-13T10:31:47Z</time>
      </trkpt>
      <trkpt lat="43.63726" lon="2.7611">
        <ele>842</ele>
        <time>2013-08-13T10:31:53Z</time>
      </trkpt>
      <trkpt lat="43.63716" lon="2.76109">
        <ele>842</ele>
        <time>2013-08-13T10:31:58Z</time>
      </trkpt>
      <trkpt lat="43.63706" lon="2.76106">
        <ele>834</ele>
        <time>2013-08-13T10:32:04Z</time>
      </trkpt>
      <trkpt lat="43.63697" lon="2.76111">
        <ele>837</ele>
        <time>2013-08-13T10:32:09Z</time>
      </trkpt>
      <trkpt lat="43.63687" lon="2.76116">
        <ele>840</ele>
        <time>2013-08-13T10:32:15Z</time>
      </trkpt>
      <trkpt lat="43.63677" lon="2.76124">
        <ele>841</ele>
        <time>2013-08-13T10:32:20Z</time>
      </trkpt>
      <trkpt lat="43.63668" lon="2.7613">
        <ele>840</ele>
        <time>2013-08-13T10:32:25Z</time>
      </trkpt>
      <trkpt lat="43.63661" lon="2.76138">
        <ele>840</ele>
        <time>2013-08-13T10:32:44Z</time>
      </trkpt>
      <trkpt lat="43.63653" lon="2.76146">
        <ele>837</ele>
        <time>2013-08-13T10:32:48Z</time>
      </trkpt>
      <trkpt lat="43.63635" lon="2.76163">
        <ele>838</ele>
        <time>2013-08-13T10:32:51Z</time>
      </trkpt>
      <trkpt lat="43.63626" lon="2.76172">
        <ele>836</ele>
        <time>2013-08-13T10:32:53Z</time>
      </trkpt>
      <trkpt lat="43.63617" lon="2.76182">
        <ele>834</ele>
        <time>2013-08-13T10:32:55Z</time>
      </trkpt>
      <trkpt lat="43.63611" lon="2.76192">
        <ele>834</ele>
        <time>2013-08-13T10:32:57Z</time>
      </trkpt>
      <trkpt lat="43.63603" lon="2.76202">
        <ele>833</ele>
        <time>2013-08-13T10:32:59Z</time>
      </trkpt>
      <trkpt lat="43.63601" lon="2.76215">
        <ele>834</ele>
        <time>2013-08-13T10:33:01Z</time>
      </trkpt>
      <trkpt lat="43.63596" lon="2.76227">
        <ele>831</ele>
        <time>2013-08-13T10:33:03Z</time>
      </trkpt>
      <trkpt lat="43.6359" lon="2.7624">
        <ele>831</ele>
        <time>2013-08-13T10:33:06Z</time>
      </trkpt>
      <trkpt lat="43.6358" lon="2.76254">
        <ele>831</ele>
        <time>2013-08-13T10:33:09Z</time>
      </trkpt>
      <trkpt lat="43.63573" lon="2.76266">
        <ele>828</ele>
        <time>2013-08-13T10:33:11Z</time>
      </trkpt>
      <trkpt lat="43.63566" lon="2.76282">
        <ele>827</ele>
        <time>2013-08-13T10:33:13Z</time>
      </trkpt>
      <trkpt lat="43.63559" lon="2.76295">
        <ele>826</ele>
        <time>2013-08-13T10:33:15Z</time>
      </trkpt>
      <trkpt lat="43.63554" lon="2.76309">
        <ele>826</ele>
        <time>2013-08-13T10:33:17Z</time>
      </trkpt>
      <trkpt lat="43.6355" lon="2.76323">
        <ele>825</ele>
        <time>2013-08-13T10:33:19Z</time>
      </trkpt>
      <trkpt lat="43.63547" lon="2.76335">
        <ele>825</ele>
        <time>2013-08-13T10:33:21Z</time>
      </trkpt>
      <trkpt lat="43.6354" lon="2.76355">
        <ele>820</ele>
        <time>2013-08-13T10:33:24Z</time>
      </trkpt>
      <trkpt lat="43.63536" lon="2.76371">
        <ele>814</ele>
        <time>2013-08-13T10:33:26Z</time>
      </trkpt>
      <trkpt lat="43.63527" lon="2.76383">
        <ele>813</ele>
        <time>2013-08-13T10:33:28Z</time>
      </trkpt>
      <trkpt lat="43.6352" lon="2.76392">
        <ele>810</ele>
        <time>2013-08-13T10:33:30Z</time>
      </trkpt>
      <trkpt lat="43.63512" lon="2.764">
        <ele>811</ele>
        <time>2013-08-13T10:33:34Z</time>
      </trkpt>
      <trkpt lat="43.63502" lon="2.76404">
        <ele>811</ele>
        <time>2013-08-13T10:33:37Z</time>
      </trkpt>
      <trkpt lat="43.63493" lon="2.76409">
        <ele>813</ele>
        <time>2013-08-13T10:33:40Z</time>
      </trkpt>
      <trkpt lat="43.63483" lon="2.76418">
        <ele>815</ele>
        <time>2013-08-13T10:33:43Z</time>
      </trkpt>
      <trkpt lat="43.63474" lon="2.76428">
        <ele>816</ele>
        <time>2013-08-13T10:33:46Z</time>
      </trkpt>
      <trkpt lat="43.63466" lon="2.76441">
        <ele>815</ele>
        <time>2013-08-13T10:33:49Z</time>
      </trkpt>
      <trkpt lat="43.63457" lon="2.76452">
        <ele>814</ele>
        <time>2013-08-13T10:33:52Z</time>
      </trkpt>
      <trkpt lat="43.63449" lon="2.7646">
        <ele>813</ele>
        <time>2013-08-13T10:33:54Z</time>
      </trkpt>
      <trkpt lat="43.63441" lon="2.76467">
        <ele>809</ele>
        <time>2013-08-13T10:33:56Z</time>
      </trkpt>
      <trkpt lat="43.63433" lon="2.76474">
        <ele>811</ele>
        <time>2013-08-13T10:33:58Z</time>
      </trkpt>
      <trkpt lat="43.63423" lon="2.76483">
        <ele>811</ele>
        <time>2013-08-13T10:34:00Z</time>
      </trkpt>
      <trkpt lat="43.63411" lon="2.76487">
        <ele>812</ele>
        <time>2013-08-13T10:34:03Z</time>
      </trkpt>
      <trkpt lat="43.634" lon="2.76489">
        <ele>816</ele>
        <time>2013-08-13T10:34:14Z</time>
      </trkpt>
      <trkpt lat="43.63386" lon="2.76482">
        <ele>816</ele>
        <time>2013-08-13T10:34:18Z</time>
      </trkpt>
      <trkpt lat="43.63377" lon="2.76477">
        <ele>815</ele>
        <time>2013-08-13T10:34:19Z</time>
      </trkpt>
      <trkpt lat="43.63367" lon="2.76472">
        <ele>814</ele>
        <time>2013-08-13T10:34:21Z</time>
      </trkpt>
      <trkpt lat="43.63354" lon="2.76466">
        <ele>813</ele>
        <time>2013-08-13T10:34:23Z</time>
      </trkpt>
      <trkpt lat="43.6334" lon="2.76458">
        <ele>811</ele>
        <time>2013-08-13T10:34:25Z</time>
      </trkpt>
      <trkpt lat="43.63326" lon="2.76449">
        <ele>812</ele>
        <time>2013-08-13T10:34:27Z</time>
      </trkpt>
      <trkpt lat="43.63311" lon="2.76441">
        <ele>812</ele>
        <time>2013-08-13T10:34:29Z</time>
      </trkpt>
      <trkpt lat="43.63294" lon="2.76429">
        <ele>812</ele>
        <time>2013-08-13T10:34:31Z</time>
      </trkpt>
      <trkpt lat="43.63279" lon="2.76419">
        <ele>812</ele>
        <time>2013-08-13T10:34:33Z</time>
      </trkpt>
      <trkpt lat="43.63267" lon="2.764">
        <ele>811</ele>
        <time>2013-08-13T10:34:35Z</time>
      </trkpt>
      <trkpt lat="43.63257" lon="2.76374">
        <ele>810</ele>
        <time>2013-08-13T10:34:37Z</time>
      </trkpt>
      <trkpt lat="43.63254" lon="2.76362">
        <ele>810</ele>
        <time>2013-08-13T10:34:38Z</time>
      </trkpt>
      <trkpt lat="43.63246" lon="2.7634">
        <ele>806</ele>
        <time>2013-08-13T10:34:40Z</time>
      </trkpt>
      <trkpt lat="43.63246" lon="2.76324">
        <ele>804</ele>
        <time>2013-08-13T10:34:41Z</time>
      </trkpt>
      <trkpt lat="43.63243" lon="2.7631">
        <ele>804</ele>
        <time>2013-08-13T10:34:42Z</time>
      </trkpt>
      <trkpt lat="43.63241" lon="2.76295">
        <ele>804</ele>
        <time>2013-08-13T10:34:43Z</time>
      </trkpt>
      <trkpt lat="43.63238" lon="2.7628">
        <ele>804</ele>
        <time>2013-08-13T10:34:44Z</time>
      </trkpt>
      <trkpt lat="43.63235" lon="2.76265">
        <ele>804</ele>
        <time>2013-08-13T10:34:45Z</time>
      </trkpt>
      <trkpt lat="43.63233" lon="2.7625">
        <ele>804</ele>
        <time>2013-08-13T10:34:46Z</time>
      </trkpt>
      <trkpt lat="43.63229" lon="2.76238">
        <ele>803</ele>
        <time>2013-08-13T10:34:47Z</time>
      </trkpt>
      <trkpt lat="43.63224" lon="2.76225">
        <ele>800</ele>
        <time>2013-08-13T10:34:48Z</time>
      </trkpt>
      <trkpt lat="43.63217" lon="2.76215">
        <ele>800</ele>
        <time>2013-08-13T10:34:49Z</time>
      </trkpt>
      <trkpt lat="43.63211" lon="2.76204">
        <ele>800</ele>
        <time>2013-08-13T10:34:50Z</time>
      </trkpt>
      <trkpt lat="43.63201" lon="2.76197">
        <ele>799</ele>
        <time>2013-08-13T10:34:51Z</time>
      </trkpt>
      <trkpt lat="43.63189" lon="2.76194">
        <ele>795</ele>
        <time>2013-08-13T10:34:52Z</time>
      </trkpt>
      <trkpt lat="43.63178" lon="2.76192">
        <ele>795</ele>
        <time>2013-08-13T10:34:53Z</time>
      </trkpt>
      <trkpt lat="43.63167" lon="2.76189">
        <ele>795</ele>
        <time>2013-08-13T10:34:54Z</time>
      </trkpt>
      <trkpt lat="43.63156" lon="2.76186">
        <ele>795</ele>
        <time>2013-08-13T10:34:55Z</time>
      </trkpt>
      <trkpt lat="43.63142" lon="2.76186">
        <ele>794</ele>
        <time>2013-08-13T10:34:56Z</time>
      </trkpt>
      <trkpt lat="43.6313" lon="2.76185">
        <ele>792</ele>
        <time>2013-08-13T10:34:57Z</time>
      </trkpt>
      <trkpt lat="43.63118" lon="2.76182">
        <ele>790</ele>
        <time>2013-08-13T10:34:58Z</time>
      </trkpt>
      <trkpt lat="43.63105" lon="2.7618">
        <ele>789</ele>
        <time>2013-08-13T10:34:59Z</time>
      </trkpt>
      <trkpt lat="43.63093" lon="2.76178">
        <ele>788</ele>
        <time>2013-08-13T10:35:00Z</time>
      </trkpt>
      <trkpt lat="43.6308" lon="2.76176">
        <ele>788</ele>
        <time>2013-08-13T10:35:01Z</time>
      </trkpt>
      <trkpt lat="43.63067" lon="2.76174">
        <ele>787</ele>
        <time>2013-08-13T10:35:02Z</time>
      </trkpt>
      <trkpt lat="43.63055" lon="2.76173">
        <ele>787</ele>
        <time>2013-08-13T10:35:03Z</time>
      </trkpt>
      <trkpt lat="43.6304" lon="2.76172">
        <ele>787</ele>
        <time>2013-08-13T10:35:04Z</time>
      </trkpt>
      <trkpt lat="43.63028" lon="2.76171">
        <ele>787</ele>
        <time>2013-08-13T10:35:05Z</time>
      </trkpt>
      <trkpt lat="43.63011" lon="2.76162">
        <ele>787</ele>
        <time>2013-08-13T10:35:07Z</time>
      </trkpt>
      <trkpt lat="43.63003" lon="2.76153">
        <ele>787</ele>
        <time>2013-08-13T10:35:08Z</time>
      </trkpt>
      <trkpt lat="43.63006" lon="2.76125">
        <ele>785</ele>
        <time>2013-08-13T10:35:10Z</time>
      </trkpt>
      <trkpt lat="43.63013" lon="2.76109">
        <ele>785</ele>
        <time>2013-08-13T10:35:11Z</time>
      </trkpt>
      <trkpt lat="43.63016" lon="2.76088">
        <ele>786</ele>
        <time>2013-08-13T10:35:13Z</time>
      </trkpt>
      <trkpt lat="43.63027" lon="2.76071">
        <ele>789</ele>
        <time>2013-08-13T10:35:15Z</time>
      </trkpt>
      <trkpt lat="43.63042" lon="2.76064">
        <ele>789</ele>
        <time>2013-08-13T10:35:17Z</time>
      </trkpt>
      <trkpt lat="43.63058" lon="2.7606">
        <ele>791</ele>
        <time>2013-08-13T10:35:19Z</time>
      </trkpt>
      <trkpt lat="43.63073" lon="2.76057">
        <ele>793</ele>
        <time>2013-08-13T10:35:21Z</time>
      </trkpt>
      <trkpt lat="43.63085" lon="2.76053">
        <ele>792</ele>
        <time>2013-08-13T10:35:23Z</time>
      </trkpt>
      <trkpt lat="43.63098" lon="2.76051">
        <ele>792</ele>
        <time>2013-08-13T10:35:25Z</time>
      </trkpt>
      <trkpt lat="43.63112" lon="2.76046">
        <ele>792</ele>
        <time>2013-08-13T10:35:28Z</time>
      </trkpt>
      <trkpt lat="43.63123" lon="2.76043">
        <ele>792</ele>
        <time>2013-08-13T10:35:30Z</time>
      </trkpt>
      <trkpt lat="43.63132" lon="2.7604">
        <ele>792</ele>
        <time>2013-08-13T10:35:32Z</time>
      </trkpt>
      <trkpt lat="43.63147" lon="2.76035">
        <ele>791</ele>
        <time>2013-08-13T10:35:34Z</time>
      </trkpt>
      <trkpt lat="43.63161" lon="2.76032">
        <ele>791</ele>
        <time>2013-08-13T10:35:36Z</time>
      </trkpt>
      <trkpt lat="43.63176" lon="2.76029">
        <ele>791</ele>
        <time>2013-08-13T10:35:38Z</time>
      </trkpt>
      <trkpt lat="43.6319" lon="2.76021">
        <ele>790</ele>
        <time>2013-08-13T10:35:40Z</time>
      </trkpt>
      <trkpt lat="43.63203" lon="2.7602">
        <ele>790</ele>
        <time>2013-08-13T10:35:42Z</time>
      </trkpt>
      <trkpt lat="43.63213" lon="2.76018">
        <ele>791</ele>
        <time>2013-08-13T10:35:44Z</time>
      </trkpt>
      <trkpt lat="43.63224" lon="2.76017">
        <ele>791</ele>
        <time>2013-08-13T10:35:46Z</time>
      </trkpt>
      <trkpt lat="43.6324" lon="2.76012">
        <ele>791</ele>
        <time>2013-08-13T10:35:48Z</time>
      </trkpt>
      <trkpt lat="43.63252" lon="2.76005">
        <ele>791</ele>
        <time>2013-08-13T10:35:50Z</time>
      </trkpt>
      <trkpt lat="43.63263" lon="2.75993">
        <ele>792</ele>
        <time>2013-08-13T10:35:52Z</time>
      </trkpt>
      <trkpt lat="43.63273" lon="2.7599">
        <ele>793</ele>
        <time>2013-08-13T10:35:53Z</time>
      </trkpt>
      <trkpt lat="43.63286" lon="2.75984">
        <ele>793</ele>
        <time>2013-08-13T10:35:55Z</time>
      </trkpt>
      <trkpt lat="43.63295" lon="2.7598">
        <ele>793</ele>
        <time>2013-08-13T10:35:57Z</time>
      </trkpt>
      <trkpt lat="43.63306" lon="2.75985">
        <ele>794</ele>
        <time>2013-08-13T10:36:00Z</time>
      </trkpt>
      <trkpt lat="43.63314" lon="2.75979">
        <ele>794</ele>
        <time>2013-08-13T10:36:02Z</time>
      </trkpt>
      <trkpt lat="43.63325" lon="2.7598">
        <ele>796</ele>
        <time>2013-08-13T10:36:05Z</time>
      </trkpt>
      <trkpt lat="43.63335" lon="2.75976">
        <ele>795</ele>
        <time>2013-08-13T10:36:07Z</time>
      </trkpt>
      <trkpt lat="43.63352" lon="2.75972">
        <ele>795</ele>
        <time>2013-08-13T10:36:10Z</time>
      </trkpt>
      <trkpt lat="43.63364" lon="2.75968">
        <ele>795</ele>
        <time>2013-08-13T10:36:12Z</time>
      </trkpt>
      <trkpt lat="43.63379" lon="2.75955">
        <ele>792</ele>
        <time>2013-08-13T10:36:14Z</time>
      </trkpt>
      <trkpt lat="43.63389" lon="2.75943">
        <ele>786</ele>
        <time>2013-08-13T10:36:16Z</time>
      </trkpt>
      <trkpt lat="43.63401" lon="2.75928">
        <ele>784</ele>
        <time>2013-08-13T10:36:18Z</time>
      </trkpt>
      <trkpt lat="43.63408" lon="2.75914">
        <ele>783</ele>
        <time>2013-08-13T10:36:20Z</time>
      </trkpt>
      <trkpt lat="43.63418" lon="2.75901">
        <ele>783</ele>
        <time>2013-08-13T10:36:22Z</time>
      </trkpt>
      <trkpt lat="43.63424" lon="2.75887">
        <ele>782</ele>
        <time>2013-08-13T10:36:24Z</time>
      </trkpt>
      <trkpt lat="43.63432" lon="2.75872">
        <ele>782</ele>
        <time>2013-08-13T10:36:26Z</time>
      </trkpt>
      <trkpt lat="43.63437" lon="2.75857">
        <ele>778</ele>
        <time>2013-08-13T10:36:28Z</time>
      </trkpt>
      <trkpt lat="43.63432" lon="2.75838">
        <ele>778</ele>
        <time>2013-08-13T10:36:30Z</time>
      </trkpt>
      <trkpt lat="43.63428" lon="2.75821">
        <ele>777</ele>
        <time>2013-08-13T10:36:32Z</time>
      </trkpt>
      <trkpt lat="43.63417" lon="2.75802">
        <ele>776</ele>
        <time>2013-08-13T10:36:34Z</time>
      </trkpt>
      <trkpt lat="43.63407" lon="2.75785">
        <ele>775</ele>
        <time>2013-08-13T10:36:36Z</time>
      </trkpt>
      <trkpt lat="43.63398" lon="2.75769">
        <ele>774</ele>
        <time>2013-08-13T10:36:38Z</time>
      </trkpt>
      <trkpt lat="43.63389" lon="2.75753">
        <ele>773</ele>
        <time>2013-08-13T10:36:40Z</time>
      </trkpt>
      <trkpt lat="43.6338" lon="2.75737">
        <ele>772</ele>
        <time>2013-08-13T10:36:42Z</time>
      </trkpt>
      <trkpt lat="43.63372" lon="2.75721">
        <ele>770</ele>
        <time>2013-08-13T10:36:44Z</time>
      </trkpt>
      <trkpt lat="43.63362" lon="2.75706">
        <ele>769</ele>
        <time>2013-08-13T10:36:46Z</time>
      </trkpt>
      <trkpt lat="43.6335" lon="2.75694">
        <ele>770</ele>
        <time>2013-08-13T10:36:48Z</time>
      </trkpt>
      <trkpt lat="43.63341" lon="2.75682">
        <ele>769</ele>
        <time>2013-08-13T10:36:50Z</time>
      </trkpt>
      <trkpt lat="43.63334" lon="2.75668">
        <ele>768</ele>
        <time>2013-08-13T10:36:52Z</time>
      </trkpt>
      <trkpt lat="43.63334" lon="2.75653">
        <ele>769</ele>
        <time>2013-08-13T10:36:54Z</time>
      </trkpt>
      <trkpt lat="43.63341" lon="2.75635">
        <ele>772</ele>
        <time>2013-08-13T10:36:56Z</time>
      </trkpt>
      <trkpt lat="43.63349" lon="2.75625">
        <ele>771</ele>
        <time>2013-08-13T10:36:58Z</time>
      </trkpt>
      <trkpt lat="43.63364" lon="2.75623">
        <ele>771</ele>
        <time>2013-08-13T10:37:01Z</time>
      </trkpt>
      <trkpt lat="43.63374" lon="2.75627">
        <ele>770</ele>
        <time>2013-08-13T10:37:03Z</time>
      </trkpt>
      <trkpt lat="43.63384" lon="2.75629">
        <ele>769</ele>
        <time>2013-08-13T10:37:05Z</time>
      </trkpt>
      <trkpt lat="43.63397" lon="2.75628">
        <ele>769</ele>
        <time>2013-08-13T10:37:07Z</time>
      </trkpt>
      <trkpt lat="43.63407" lon="2.75626">
        <ele>770</ele>
        <time>2013-08-13T10:37:09Z</time>
      </trkpt>
      <trkpt lat="43.63417" lon="2.75622">
        <ele>769</ele>
        <time>2013-08-13T10:37:11Z</time>
      </trkpt>
      <trkpt lat="43.63429" lon="2.75615">
        <ele>770</ele>
        <time>2013-08-13T10:37:13Z</time>
      </trkpt>
      <trkpt lat="43.63439" lon="2.75609">
        <ele>771</ele>
        <time>2013-08-13T10:37:15Z</time>
      </trkpt>
      <trkpt lat="43.63448" lon="2.75603">
        <ele>772</ele>
        <time>2013-08-13T10:37:17Z</time>
      </trkpt>
      <trkpt lat="43.63458" lon="2.75598">
        <ele>772</ele>
        <time>2013-08-13T10:37:19Z</time>
      </trkpt>
      <trkpt lat="43.63471" lon="2.75588">
        <ele>771</ele>
        <time>2013-08-13T10:37:22Z</time>
      </trkpt>
      <trkpt lat="43.6348" lon="2.75575">
        <ele>769</ele>
        <time>2013-08-13T10:37:25Z</time>
      </trkpt>
      <trkpt lat="43.63487" lon="2.75564">
        <ele>770</ele>
        <time>2013-08-13T10:37:27Z</time>
      </trkpt>
      <trkpt lat="43.63494" lon="2.75553">
        <ele>772</ele>
        <time>2013-08-13T10:37:29Z</time>
      </trkpt>
      <trkpt lat="43.63501" lon="2.75543">
        <ele>771</ele>
        <time>2013-08-13T10:37:31Z</time>
      </trkpt>
      <trkpt lat="43.63505" lon="2.7553">
        <ele>772</ele>
        <time>2013-08-13T10:37:33Z</time>
      </trkpt>
      <trkpt lat="43.63509" lon="2.75518">
        <ele>774</ele>
        <time>2013-08-13T10:37:35Z</time>
      </trkpt>
      <trkpt lat="43.63513" lon="2.75504">
        <ele>772</ele>
        <time>2013-08-13T10:37:37Z</time>
      </trkpt>
      <trkpt lat="43.63518" lon="2.75492">
        <ele>774</ele>
        <time>2013-08-13T10:37:39Z</time>
      </trkpt>
      <trkpt lat="43.63521" lon="2.75479">
        <ele>775</ele>
        <time>2013-08-13T10:37:41Z</time>
      </trkpt>
      <trkpt lat="43.63525" lon="2.75466">
        <ele>780</ele>
        <time>2013-08-13T10:37:43Z</time>
      </trkpt>
      <trkpt lat="43.63525" lon="2.75452">
        <ele>782</ele>
        <time>2013-08-13T10:37:45Z</time>
      </trkpt>
      <trkpt lat="43.63522" lon="2.75435">
        <ele>782</ele>
        <time>2013-08-13T10:37:47Z</time>
      </trkpt>
      <trkpt lat="43.63516" lon="2.75422">
        <ele>782</ele>
        <time>2013-08-13T10:37:49Z</time>
      </trkpt>
      <trkpt lat="43.63513" lon="2.75409">
        <ele>779</ele>
        <time>2013-08-13T10:37:51Z</time>
      </trkpt>
      <trkpt lat="43.63508" lon="2.75396">
        <ele>779</ele>
        <time>2013-08-13T10:37:53Z</time>
      </trkpt>
      <trkpt lat="43.635" lon="2.75382">
        <ele>782</ele>
        <time>2013-08-13T10:37:55Z</time>
      </trkpt>
      <trkpt lat="43.63498" lon="2.75368">
        <ele>783</ele>
        <time>2013-08-13T10:37:57Z</time>
      </trkpt>
      <trkpt lat="43.63497" lon="2.75353">
        <ele>783</ele>
        <time>2013-08-13T10:37:59Z</time>
      </trkpt>
      <trkpt lat="43.63499" lon="2.7534">
        <ele>782</ele>
        <time>2013-08-13T10:38:01Z</time>
      </trkpt>
      <trkpt lat="43.63503" lon="2.75326">
        <ele>784</ele>
        <time>2013-08-13T10:38:03Z</time>
      </trkpt>
      <trkpt lat="43.63511" lon="2.75314">
        <ele>782</ele>
        <time>2013-08-13T10:38:06Z</time>
      </trkpt>
      <trkpt lat="43.63522" lon="2.75306">
        <ele>780</ele>
        <time>2013-08-13T10:38:09Z</time>
      </trkpt>
      <trkpt lat="43.63532" lon="2.75298">
        <ele>781</ele>
        <time>2013-08-13T10:38:12Z</time>
      </trkpt>
      <trkpt lat="43.63536" lon="2.75284">
        <ele>781</ele>
        <time>2013-08-13T10:38:15Z</time>
      </trkpt>
      <trkpt lat="43.63541" lon="2.75272">
        <ele>781</ele>
        <time>2013-08-13T10:38:17Z</time>
      </trkpt>
      <trkpt lat="43.63546" lon="2.75255">
        <ele>781</ele>
        <time>2013-08-13T10:38:20Z</time>
      </trkpt>
      <trkpt lat="43.63549" lon="2.75239">
        <ele>783</ele>
        <time>2013-08-13T10:38:23Z</time>
      </trkpt>
      <trkpt lat="43.63555" lon="2.75223">
        <ele>782</ele>
        <time>2013-08-13T10:38:26Z</time>
      </trkpt>
      <trkpt lat="43.63564" lon="2.7521">
        <ele>782</ele>
        <time>2013-08-13T10:38:29Z</time>
      </trkpt>
      <trkpt lat="43.63573" lon="2.75197">
        <ele>783</ele>
        <time>2013-08-13T10:38:32Z</time>
      </trkpt>
      <trkpt lat="43.63582" lon="2.75185">
        <ele>782</ele>
        <time>2013-08-13T10:38:35Z</time>
      </trkpt>
      <trkpt lat="43.63591" lon="2.75175">
        <ele>783</ele>
        <time>2013-08-13T10:38:38Z</time>
      </trkpt>
      <trkpt lat="43.63602" lon="2.75166">
        <ele>782</ele>
        <time>2013-08-13T10:38:41Z</time>
      </trkpt>
      <trkpt lat="43.63612" lon="2.75155">
        <ele>782</ele>
        <time>2013-08-13T10:38:44Z</time>
      </trkpt>
      <trkpt lat="43.63621" lon="2.75143">
        <ele>782</ele>
        <time>2013-08-13T10:38:47Z</time>
      </trkpt>
      <trkpt lat="43.6363" lon="2.75131">
        <ele>783</ele>
        <time>2013-08-13T10:38:50Z</time>
      </trkpt>
      <trkpt lat="43.63638" lon="2.75116">
        <ele>785</ele>
        <time>2013-08-13T10:38:53Z</time>
      </trkpt>
      <trkpt lat="43.63646" lon="2.75102">
        <ele>785</ele>
        <time>2013-08-13T10:38:56Z</time>
      </trkpt>
      <trkpt lat="43.63653" lon="2.75088">
        <ele>785</ele>
        <time>2013-08-13T10:38:59Z</time>
      </trkpt>
      <trkpt lat="43.63659" lon="2.75075">
        <ele>787</ele>
        <time>2013-08-13T10:39:02Z</time>
      </trkpt>
      <trkpt lat="43.63667" lon="2.75063">
        <ele>785</ele>
        <time>2013-08-13T10:39:05Z</time>
      </trkpt>
      <trkpt lat="43.63676" lon="2.75049">
        <ele>784</ele>
        <time>2013-08-13T10:39:08Z</time>
      </trkpt>
      <trkpt lat="43.63682" lon="2.75035">
        <ele>784</ele>
        <time>2013-08-13T10:39:11Z</time>
      </trkpt>
      <trkpt lat="43.63689" lon="2.7502">
        <ele>787</ele>
        <time>2013-08-13T10:39:14Z</time>
      </trkpt>
      <trkpt lat="43.63697" lon="2.75009">
        <ele>790</ele>
        <time>2013-08-13T10:39:17Z</time>
      </trkpt>
      <trkpt lat="43.63707" lon="2.74998">
        <ele>789</ele>
        <time>2013-08-13T10:39:20Z</time>
      </trkpt>
      <trkpt lat="43.63717" lon="2.74988">
        <ele>791</ele>
        <time>2013-08-13T10:39:23Z</time>
      </trkpt>
      <trkpt lat="43.63729" lon="2.7498">
        <ele>791</ele>
        <time>2013-08-13T10:39:26Z</time>
      </trkpt>
      <trkpt lat="43.6374" lon="2.74974">
        <ele>792</ele>
        <time>2013-08-13T10:39:29Z</time>
      </trkpt>
      <trkpt lat="43.63751" lon="2.74969">
        <ele>792</ele>
        <time>2013-08-13T10:39:32Z</time>
      </trkpt>
      <trkpt lat="43.63762" lon="2.74967">
        <ele>792</ele>
        <time>2013-08-13T10:39:35Z</time>
      </trkpt>
      <trkpt lat="43.63774" lon="2.74968">
        <ele>794</ele>
        <time>2013-08-13T10:39:38Z</time>
      </trkpt>
      <trkpt lat="43.63787" lon="2.74971">
        <ele>795</ele>
        <time>2013-08-13T10:39:41Z</time>
      </trkpt>
      <trkpt lat="43.63801" lon="2.74975">
        <ele>797</ele>
        <time>2013-08-13T10:39:44Z</time>
      </trkpt>
      <trkpt lat="43.63812" lon="2.7498">
        <ele>797</ele>
        <time>2013-08-13T10:39:47Z</time>
      </trkpt>
      <trkpt lat="43.63823" lon="2.74988">
        <ele>796</ele>
        <time>2013-08-13T10:39:50Z</time>
      </trkpt>
      <trkpt lat="43.63833" lon="2.74996">
        <ele>797</ele>
        <time>2013-08-13T10:39:53Z</time>
      </trkpt>
      <trkpt lat="43.63842" lon="2.75003">
        <ele>799</ele>
        <time>2013-08-13T10:39:56Z</time>
      </trkpt>
      <trkpt lat="43.6385" lon="2.75009">
        <ele>800</ele>
        <time>2013-08-13T10:39:59Z</time>
      </trkpt>
      <trkpt lat="43.6386" lon="2.75016">
        <ele>801</ele>
        <time>2013-08-13T10:40:02Z</time>
      </trkpt>
      <trkpt lat="43.63871" lon="2.75026">
        <ele>799</ele>
        <time>2013-08-13T10:40:05Z</time>
      </trkpt>
      <trkpt lat="43.63884" lon="2.75034">
        <ele>800</ele>
        <time>2013-08-13T10:40:08Z</time>
      </trkpt>
      <trkpt lat="43.63895" lon="2.75043">
        <ele>806</ele>
        <time>2013-08-13T10:40:10Z</time>
      </trkpt>
      <trkpt lat="43.63905" lon="2.75055">
        <ele>806</ele>
        <time>2013-08-13T10:40:13Z</time>
      </trkpt>
      <trkpt lat="43.63915" lon="2.75066">
        <ele>806</ele>
        <time>2013-08-13T10:40:16Z</time>
      </trkpt>
      <trkpt lat="43.63925" lon="2.75074">
        <ele>807</ele>
        <time>2013-08-13T10:40:19Z</time>
      </trkpt>
      <trkpt lat="43.63934" lon="2.75083">
        <ele>806</ele>
        <time>2013-08-13T10:40:22Z</time>
      </trkpt>
      <trkpt lat="43.63945" lon="2.75093">
        <ele>805</ele>
        <time>2013-08-13T10:40:25Z</time>
      </trkpt>
      <trkpt lat="43.63954" lon="2.75103">
        <ele>803</ele>
        <time>2013-08-13T10:40:28Z</time>
      </trkpt>
      <trkpt lat="43.63964" lon="2.75112">
        <ele>803</ele>
        <time>2013-08-13T10:40:31Z</time>
      </trkpt>
      <trkpt lat="43.63973" lon="2.75121">
        <ele>805</ele>
        <time>2013-08-13T10:40:34Z</time>
      </trkpt>
      <trkpt lat="43.63983" lon="2.75132">
        <ele>803</ele>
        <time>2013-08-13T10:40:37Z</time>
      </trkpt>
      <trkpt lat="43.63995" lon="2.75143">
        <ele>802</ele>
        <time>2013-08-13T10:40:40Z</time>
      </trkpt>
      <trkpt lat="43.64006" lon="2.75153">
        <ele>804</ele>
        <time>2013-08-13T10:40:43Z</time>
      </trkpt>
      <trkpt lat="43.64017" lon="2.75163">
        <ele>804</ele>
        <time>2013-08-13T10:40:46Z</time>
      </trkpt>
      <trkpt lat="43.64029" lon="2.75175">
        <ele>803</ele>
        <time>2013-08-13T10:40:49Z</time>
      </trkpt>
      <trkpt lat="43.64038" lon="2.75183">
        <ele>805</ele>
        <time>2013-08-13T10:40:52Z</time>
      </trkpt>
      <trkpt lat="43.64045" lon="2.75193">
        <ele>802</ele>
        <time>2013-08-13T10:40:55Z</time>
      </trkpt>
      <trkpt lat="43.64056" lon="2.75202">
        <ele>802</ele>
        <time>2013-08-13T10:40:59Z</time>
      </trkpt>
      <trkpt lat="43.64067" lon="2.75214">
        <ele>805</ele>
        <time>2013-08-13T10:41:02Z</time>
      </trkpt>
      <trkpt lat="43.64077" lon="2.75221">
        <ele>804</ele>
        <time>2013-08-13T10:41:05Z</time>
      </trkpt>
      <trkpt lat="43.64087" lon="2.75231">
        <ele>808</ele>
        <time>2013-08-13T10:41:08Z</time>
      </trkpt>
      <trkpt lat="43.64095" lon="2.75239">
        <ele>814</ele>
        <time>2013-08-13T10:41:11Z</time>
      </trkpt>
      <trkpt lat="43.64103" lon="2.75249">
        <ele>815</ele>
        <time>2013-08-13T10:41:14Z</time>
      </trkpt>
      <trkpt lat="43.64111" lon="2.75259">
        <ele>817</ele>
        <time>2013-08-13T10:41:17Z</time>
      </trkpt>
      <trkpt lat="43.64118" lon="2.7527">
        <ele>817</ele>
        <time>2013-08-13T10:41:20Z</time>
      </trkpt>
      <trkpt lat="43.64124" lon="2.75281">
        <ele>817</ele>
        <time>2013-08-13T10:41:23Z</time>
      </trkpt>
      <trkpt lat="43.6413" lon="2.75292">
        <ele>817</ele>
        <time>2013-08-13T10:41:26Z</time>
      </trkpt>
      <trkpt lat="43.64137" lon="2.75305">
        <ele>817</ele>
        <time>2013-08-13T10:41:29Z</time>
      </trkpt>
      <trkpt lat="43.64144" lon="2.75319">
        <ele>817</ele>
        <time>2013-08-13T10:41:32Z</time>
      </trkpt>
      <trkpt lat="43.64146" lon="2.75333">
        <ele>813</ele>
        <time>2013-08-13T10:41:36Z</time>
      </trkpt>
      <trkpt lat="43.64152" lon="2.75343">
        <ele>808</ele>
        <time>2013-08-13T10:43:01Z</time>
      </trkpt>
      <trkpt lat="43.64163" lon="2.75354">
        <ele>807</ele>
        <time>2013-08-13T10:43:04Z</time>
      </trkpt>
      <trkpt lat="43.6417" lon="2.75364">
        <ele>808</ele>
        <time>2013-08-13T10:43:05Z</time>
      </trkpt>
      <trkpt lat="43.64181" lon="2.75374">
        <ele>808</ele>
        <time>2013-08-13T10:43:07Z</time>
      </trkpt>
      <trkpt lat="43.64189" lon="2.75386">
        <ele>809</ele>
        <time>2013-08-13T10:43:09Z</time>
      </trkpt>
      <trkpt lat="43.64199" lon="2.75396">
        <ele>810</ele>
        <time>2013-08-13T10:43:11Z</time>
      </trkpt>
      <trkpt lat="43.64209" lon="2.75413">
        <ele>811</ele>
        <time>2013-08-13T10:43:14Z</time>
      </trkpt>
      <trkpt lat="43.64218" lon="2.75424">
        <ele>811</ele>
        <time>2013-08-13T10:43:16Z</time>
      </trkpt>
      <trkpt lat="43.64231" lon="2.75432">
        <ele>811</ele>
        <time>2013-08-13T10:43:18Z</time>
      </trkpt>
      <trkpt lat="43.64239" lon="2.7544">
        <ele>813</ele>
        <time>2013-08-13T10:43:19Z</time>
      </trkpt>
      <trkpt lat="43.6425" lon="2.75451">
        <ele>813</ele>
        <time>2013-08-13T10:43:21Z</time>
      </trkpt>
      <trkpt lat="43.6426" lon="2.75458">
        <ele>812</ele>
        <time>2013-08-13T10:43:23Z</time>
      </trkpt>
      <trkpt lat="43.64269" lon="2.75468">
        <ele>812</ele>
        <time>2013-08-13T10:43:25Z</time>
      </trkpt>
      <trkpt lat="43.6428" lon="2.75478">
        <ele>811</ele>
        <time>2013-08-13T10:43:27Z</time>
      </trkpt>
      <trkpt lat="43.64293" lon="2.75488">
        <ele>810</ele>
        <time>2013-08-13T10:43:29Z</time>
      </trkpt>
      <trkpt lat="43.64306" lon="2.75497">
        <ele>810</ele>
        <time>2013-08-13T10:43:31Z</time>
      </trkpt>
      <trkpt lat="43.64317" lon="2.75506">
        <ele>810</ele>
        <time>2013-08-13T10:43:33Z</time>
      </trkpt>
      <trkpt lat="43.6433" lon="2.75517">
        <ele>809</ele>
        <time>2013-08-13T10:43:35Z</time>
      </trkpt>
      <trkpt lat="43.64342" lon="2.75529">
        <ele>810</ele>
        <time>2013-08-13T10:43:37Z</time>
      </trkpt>
      <trkpt lat="43.64354" lon="2.75541">
        <ele>810</ele>
        <time>2013-08-13T10:43:39Z</time>
      </trkpt>
      <trkpt lat="43.64366" lon="2.75549">
        <ele>810</ele>
        <time>2013-08-13T10:43:41Z</time>
      </trkpt>
      <trkpt lat="43.64376" lon="2.75559">
        <ele>811</ele>
        <time>2013-08-13T10:43:43Z</time>
      </trkpt>
      <trkpt lat="43.64387" lon="2.75566">
        <ele>812</ele>
        <time>2013-08-13T10:43:45Z</time>
      </trkpt>
      <trkpt lat="43.644" lon="2.75577">
        <ele>813</ele>
        <time>2013-08-13T10:43:47Z</time>
      </trkpt>
      <trkpt lat="43.6441" lon="2.75587">
        <ele>813</ele>
        <time>2013-08-13T10:43:49Z</time>
      </trkpt>
      <trkpt lat="43.64417" lon="2.75599">
        <ele>811</ele>
        <time>2013-08-13T10:43:51Z</time>
      </trkpt>
      <trkpt lat="43.64427" lon="2.75613">
        <ele>810</ele>
        <time>2013-08-13T10:43:53Z</time>
      </trkpt>
      <trkpt lat="43.64435" lon="2.75629">
        <ele>811</ele>
        <time>2013-08-13T10:43:55Z</time>
      </trkpt>
      <trkpt lat="43.64439" lon="2.75646">
        <ele>809</ele>
        <time>2013-08-13T10:43:57Z</time>
      </trkpt>
      <trkpt lat="43.64444" lon="2.75662">
        <ele>809</ele>
        <time>2013-08-13T10:43:59Z</time>
      </trkpt>
      <trkpt lat="43.64448" lon="2.75682">
        <ele>809</ele>
        <time>2013-08-13T10:44:01Z</time>
      </trkpt>
      <trkpt lat="43.6446" lon="2.75698">
        <ele>810</ele>
        <time>2013-08-13T10:44:03Z</time>
      </trkpt>
      <trkpt lat="43.64469" lon="2.75711">
        <ele>811</ele>
        <time>2013-08-13T10:44:05Z</time>
      </trkpt>
      <trkpt lat="43.6448" lon="2.75724">
        <ele>810</ele>
        <time>2013-08-13T10:44:07Z</time>
      </trkpt>
      <trkpt lat="43.64491" lon="2.75734">
        <ele>810</ele>
        <time>2013-08-13T10:44:09Z</time>
      </trkpt>
      <trkpt lat="43.64508" lon="2.75744">
        <ele>810</ele>
        <time>2013-08-13T10:44:11Z</time>
      </trkpt>
      <trkpt lat="43.64524" lon="2.75754">
        <ele>810</ele>
        <time>2013-08-13T10:44:13Z</time>
      </trkpt>
      <trkpt lat="43.64542" lon="2.75765">
        <ele>810</ele>
        <time>2013-08-13T10:44:15Z</time>
      </trkpt>
      <trkpt lat="43.64557" lon="2.75784">
        <ele>810</ele>
        <time>2013-08-13T10:44:17Z</time>
      </trkpt>
      <trkpt lat="43.64572" lon="2.758">
        <ele>810</ele>
        <time>2013-08-13T10:44:19Z</time>
      </trkpt>
      <trkpt lat="43.64585" lon="2.75817">
        <ele>808</ele>
        <time>2013-08-13T10:44:21Z</time>
      </trkpt>
      <trkpt lat="43.64594" lon="2.75825">
        <ele>808</ele>
        <time>2013-08-13T10:44:22Z</time>
      </trkpt>
      <trkpt lat="43.64602" lon="2.75833">
        <ele>807</ele>
        <time>2013-08-13T10:44:23Z</time>
      </trkpt>
      <trkpt lat="43.64617" lon="2.7585">
        <ele>806</ele>
        <time>2013-08-13T10:44:25Z</time>
      </trkpt>
      <trkpt lat="43.64633" lon="2.75865">
        <ele>805</ele>
        <time>2013-08-13T10:44:27Z</time>
      </trkpt>
      <trkpt lat="43.64648" lon="2.75879">
        <ele>804</ele>
        <time>2013-08-13T10:44:29Z</time>
      </trkpt>
      <trkpt lat="43.64656" lon="2.75892">
        <ele>804</ele>
        <time>2013-08-13T10:44:30Z</time>
      </trkpt>
      <trkpt lat="43.64664" lon="2.75903">
        <ele>804</ele>
        <time>2013-08-13T10:44:31Z</time>
      </trkpt>
      <trkpt lat="43.64674" lon="2.75911">
        <ele>804</ele>
        <time>2013-08-13T10:44:32Z</time>
      </trkpt>
      <trkpt lat="43.64682" lon="2.75921">
        <ele>804</ele>
        <time>2013-08-13T10:44:33Z</time>
      </trkpt>
      <trkpt lat="43.6469" lon="2.75933">
        <ele>802</ele>
        <time>2013-08-13T10:44:34Z</time>
      </trkpt>
      <trkpt lat="43.64698" lon="2.75942">
        <ele>802</ele>
        <time>2013-08-13T10:44:35Z</time>
      </trkpt>
      <trkpt lat="43.64707" lon="2.75952">
        <ele>803</ele>
        <time>2013-08-13T10:44:36Z</time>
      </trkpt>
      <trkpt lat="43.64715" lon="2.75961">
        <ele>802</ele>
        <time>2013-08-13T10:44:37Z</time>
      </trkpt>
      <trkpt lat="43.64727" lon="2.75974">
        <ele>800</ele>
        <time>2013-08-13T10:44:39Z</time>
      </trkpt>
      <trkpt lat="43.64742" lon="2.75985">
        <ele>801</ele>
        <time>2013-08-13T10:44:41Z</time>
      </trkpt>
      <trkpt lat="43.64758" lon="2.75993">
        <ele>801</ele>
        <time>2013-08-13T10:44:43Z</time>
      </trkpt>
      <trkpt lat="43.64774" lon="2.75996">
        <ele>801</ele>
        <time>2013-08-13T10:44:45Z</time>
      </trkpt>
      <trkpt lat="43.64787" lon="2.76">
        <ele>801</ele>
        <time>2013-08-13T10:44:47Z</time>
      </trkpt>
      <trkpt lat="43.648" lon="2.76003">
        <ele>802</ele>
        <time>2013-08-13T10:44:49Z</time>
      </trkpt>
      <trkpt lat="43.64811" lon="2.7601">
        <ele>803</ele>
        <time>2013-08-13T10:44:51Z</time>
      </trkpt>
      <trkpt lat="43.64821" lon="2.76014">
        <ele>803</ele>
        <time>2013-08-13T10:44:53Z</time>
      </trkpt>
      <trkpt lat="43.64832" lon="2.76025">
        <ele>805</ele>
        <time>2013-08-13T10:44:56Z</time>
      </trkpt>
      <trkpt lat="43.64843" lon="2.7603">
        <ele>807</ele>
        <time>2013-08-13T10:44:58Z</time>
      </trkpt>
      <trkpt lat="43.6485" lon="2.7604">
        <ele>806</ele>
        <time>2013-08-13T10:45:00Z</time>
      </trkpt>
      <trkpt lat="43.6486" lon="2.76046">
        <ele>809</ele>
        <time>2013-08-13T10:45:02Z</time>
      </trkpt>
      <trkpt lat="43.64877" lon="2.76068">
        <ele>809</ele>
        <time>2013-08-13T10:45:05Z</time>
      </trkpt>
      <trkpt lat="43.64883" lon="2.76083">
        <ele>810</ele>
        <time>2013-08-13T10:45:07Z</time>
      </trkpt>
      <trkpt lat="43.64892" lon="2.76092">
        <ele>810</ele>
        <time>2013-08-13T10:45:09Z</time>
      </trkpt>
      <trkpt lat="43.64898" lon="2.76102">
        <ele>808</ele>
        <time>2013-08-13T10:45:11Z</time>
      </trkpt>
      <trkpt lat="43.64911" lon="2.76108">
        <ele>811</ele>
        <time>2013-08-13T10:45:14Z</time>
      </trkpt>
      <trkpt lat="43.64922" lon="2.76112">
        <ele>815</ele>
        <time>2013-08-13T10:45:18Z</time>
      </trkpt>
      <trkpt lat="43.64934" lon="2.76111">
        <ele>817</ele>
        <time>2013-08-13T10:45:21Z</time>
      </trkpt>
      <trkpt lat="43.64943" lon="2.76105">
        <ele>816</ele>
        <time>2013-08-13T10:45:23Z</time>
      </trkpt>
      <trkpt lat="43.64954" lon="2.76096">
        <ele>814</ele>
        <time>2013-08-13T10:45:26Z</time>
      </trkpt>
      <trkpt lat="43.64962" lon="2.76084">
        <ele>813</ele>
        <time>2013-08-13T10:45:29Z</time>
      </trkpt>
      <trkpt lat="43.64973" lon="2.76077">
        <ele>811</ele>
        <time>2013-08-13T10:45:32Z</time>
      </trkpt>
      <trkpt lat="43.64981" lon="2.76069">
        <ele>811</ele>
        <time>2013-08-13T10:45:35Z</time>
      </trkpt>
      <trkpt lat="43.64991" lon="2.76064">
        <ele>814</ele>
        <time>2013-08-13T10:45:37Z</time>
      </trkpt>
      <trkpt lat="43.65002" lon="2.76059">
        <ele>817</ele>
        <time>2013-08-13T10:45:40Z</time>
      </trkpt>
      <trkpt lat="43.65013" lon="2.76062">
        <ele>817</ele>
        <time>2013-08-13T10:45:43Z</time>
      </trkpt>
      <trkpt lat="43.65022" lon="2.76069">
        <ele>820</ele>
        <time>2013-08-13T10:45:45Z</time>
      </trkpt>
      <trkpt lat="43.65031" lon="2.76077">
        <ele>819</ele>
        <time>2013-08-13T10:45:47Z</time>
      </trkpt>
      <trkpt lat="43.6504" lon="2.76088">
        <ele>819</ele>
        <time>2013-08-13T10:45:49Z</time>
      </trkpt>
      <trkpt lat="43.65048" lon="2.76097">
        <ele>819</ele>
        <time>2013-08-13T10:45:51Z</time>
      </trkpt>
      <trkpt lat="43.65057" lon="2.76115">
        <ele>819</ele>
        <time>2013-08-13T10:45:52Z</time>
      </trkpt>
      <trkpt lat="43.65066" lon="2.76127">
        <ele>820</ele>
        <time>2013-08-13T10:45:55Z</time>
      </trkpt>
      <trkpt lat="43.65075" lon="2.76138">
        <ele>821</ele>
        <time>2013-08-13T10:45:57Z</time>
      </trkpt>
      <trkpt lat="43.65085" lon="2.76154">
        <ele>821</ele>
        <time>2013-08-13T10:45:59Z</time>
      </trkpt>
      <trkpt lat="43.65092" lon="2.76171">
        <ele>819</ele>
        <time>2013-08-13T10:46:01Z</time>
      </trkpt>
      <trkpt lat="43.65101" lon="2.76186">
        <ele>814</ele>
        <time>2013-08-13T10:46:03Z</time>
      </trkpt>
      <trkpt lat="43.6511" lon="2.76199">
        <ele>813</ele>
        <time>2013-08-13T10:46:05Z</time>
      </trkpt>
      <trkpt lat="43.65119" lon="2.76212">
        <ele>814</ele>
        <time>2013-08-13T10:46:07Z</time>
      </trkpt>
      <trkpt lat="43.6513" lon="2.76225">
        <ele>812</ele>
        <time>2013-08-13T10:46:09Z</time>
      </trkpt>
      <trkpt lat="43.6514" lon="2.76228">
        <ele>812</ele>
        <time>2013-08-13T10:46:11Z</time>
      </trkpt>
      <trkpt lat="43.6515" lon="2.76234">
        <ele>812</ele>
        <time>2013-08-13T10:46:13Z</time>
      </trkpt>
      <trkpt lat="43.65161" lon="2.76235">
        <ele>812</ele>
        <time>2013-08-13T10:46:15Z</time>
      </trkpt>
      <trkpt lat="43.65177" lon="2.76234">
        <ele>812</ele>
        <time>2013-08-13T10:46:17Z</time>
      </trkpt>
      <trkpt lat="43.65187" lon="2.76237">
        <ele>812</ele>
        <time>2013-08-13T10:46:18Z</time>
      </trkpt>
      <trkpt lat="43.65198" lon="2.7624">
        <ele>812</ele>
        <time>2013-08-13T10:46:19Z</time>
      </trkpt>
      <trkpt lat="43.6521" lon="2.76244">
        <ele>813</ele>
        <time>2013-08-13T10:46:20Z</time>
      </trkpt>
      <trkpt lat="43.65222" lon="2.76251">
        <ele>813</ele>
        <time>2013-08-13T10:46:21Z</time>
      </trkpt>
      <trkpt lat="43.65235" lon="2.76259">
        <ele>813</ele>
        <time>2013-08-13T10:46:22Z</time>
      </trkpt>
      <trkpt lat="43.65249" lon="2.76266">
        <ele>812</ele>
        <time>2013-08-13T10:46:23Z</time>
      </trkpt>
      <trkpt lat="43.65259" lon="2.76271">
        <ele>811</ele>
        <time>2013-08-13T10:46:24Z</time>
      </trkpt>
      <trkpt lat="43.65273" lon="2.76277">
        <ele>810</ele>
        <time>2013-08-13T10:46:25Z</time>
      </trkpt>
      <trkpt lat="43.65285" lon="2.76286">
        <ele>809</ele>
        <time>2013-08-13T10:46:26Z</time>
      </trkpt>
      <trkpt lat="43.65298" lon="2.76295">
        <ele>807</ele>
        <time>2013-08-13T10:46:27Z</time>
      </trkpt>
      <trkpt lat="43.65309" lon="2.76303">
        <ele>807</ele>
        <time>2013-08-13T10:46:28Z</time>
      </trkpt>
      <trkpt lat="43.65319" lon="2.76308">
        <ele>806</ele>
        <time>2013-08-13T10:46:29Z</time>
      </trkpt>
      <trkpt lat="43.65333" lon="2.76308">
        <ele>804</ele>
        <time>2013-08-13T10:46:30Z</time>
      </trkpt>
      <trkpt lat="43.65344" lon="2.76316">
        <ele>803</ele>
        <time>2013-08-13T10:46:31Z</time>
      </trkpt>
      <trkpt lat="43.65354" lon="2.76319">
        <ele>801</ele>
        <time>2013-08-13T10:46:32Z</time>
      </trkpt>
      <trkpt lat="43.65365" lon="2.76322">
        <ele>799</ele>
        <time>2013-08-13T10:46:33Z</time>
      </trkpt>
      <trkpt lat="43.65376" lon="2.76328">
        <ele>798</ele>
        <time>2013-08-13T10:46:34Z</time>
      </trkpt>
      <trkpt lat="43.65385" lon="2.76333">
        <ele>798</ele>
        <time>2013-08-13T10:46:35Z</time>
      </trkpt>
      <trkpt lat="43.65396" lon="2.76336">
        <ele>796</ele>
        <time>2013-08-13T10:46:36Z</time>
      </trkpt>
      <trkpt lat="43.65408" lon="2.7634">
        <ele>796</ele>
        <time>2013-08-13T10:46:37Z</time>
      </trkpt>
      <trkpt lat="43.65418" lon="2.76345">
        <ele>796</ele>
        <time>2013-08-13T10:46:38Z</time>
      </trkpt>
      <trkpt lat="43.65435" lon="2.76351">
        <ele>795</ele>
        <time>2013-08-13T10:46:40Z</time>
      </trkpt>
      <trkpt lat="43.65451" lon="2.76359">
        <ele>795</ele>
        <time>2013-08-13T10:46:42Z</time>
      </trkpt>
      <trkpt lat="43.65465" lon="2.76367">
        <ele>799</ele>
        <time>2013-08-13T10:46:44Z</time>
      </trkpt>
      <trkpt lat="43.65477" lon="2.76373">
        <ele>799</ele>
        <time>2013-08-13T10:46:46Z</time>
      </trkpt>
      <trkpt lat="43.65493" lon="2.76383">
        <ele>799</ele>
        <time>2013-08-13T10:46:48Z</time>
      </trkpt>
      <trkpt lat="43.65507" lon="2.76392">
        <ele>798</ele>
        <time>2013-08-13T10:46:50Z</time>
      </trkpt>
      <trkpt lat="43.65522" lon="2.76398">
        <ele>796</ele>
        <time>2013-08-13T10:46:52Z</time>
      </trkpt>
      <trkpt lat="43.65533" lon="2.76402">
        <ele>795</ele>
        <time>2013-08-13T10:46:54Z</time>
      </trkpt>
      <trkpt lat="43.65543" lon="2.76408">
        <ele>793</ele>
        <time>2013-08-13T10:46:56Z</time>
      </trkpt>
      <trkpt lat="43.65552" lon="2.76414">
        <ele>793</ele>
        <time>2013-08-13T10:46:58Z</time>
      </trkpt>
      <trkpt lat="43.65561" lon="2.7642">
        <ele>793</ele>
        <time>2013-08-13T10:47:00Z</time>
      </trkpt>
      <trkpt lat="43.65577" lon="2.76423">
        <ele>786</ele>
        <time>2013-08-13T10:47:02Z</time>
      </trkpt>
      <trkpt lat="43.65593" lon="2.76429">
        <ele>784</ele>
        <time>2013-08-13T10:47:04Z</time>
      </trkpt>
      <trkpt lat="43.65603" lon="2.76433">
        <ele>782</ele>
        <time>2013-08-13T10:47:06Z</time>
      </trkpt>
      <trkpt lat="43.65614" lon="2.7644">
        <ele>782</ele>
        <time>2013-08-13T10:47:08Z</time>
      </trkpt>
      <trkpt lat="43.65626" lon="2.76444">
        <ele>781</ele>
        <time>2013-08-13T10:47:10Z</time>
      </trkpt>
      <trkpt lat="43.65637" lon="2.76448">
        <ele>782</ele>
        <time>2013-08-13T10:47:12Z</time>
      </trkpt>
      <trkpt lat="43.65649" lon="2.76451">
        <ele>782</ele>
        <time>2013-08-13T10:47:14Z</time>
      </trkpt>
      <trkpt lat="43.65661" lon="2.76445">
        <ele>781</ele>
        <time>2013-08-13T10:47:16Z</time>
      </trkpt>
      <trkpt lat="43.65675" lon="2.76438">
        <ele>783</ele>
        <time>2013-08-13T10:47:19Z</time>
      </trkpt>
      <trkpt lat="43.65689" lon="2.76427">
        <ele>781</ele>
        <time>2013-08-13T10:47:21Z</time>
      </trkpt>
      <trkpt lat="43.65708" lon="2.76436">
        <ele>781</ele>
        <time>2013-08-13T10:47:24Z</time>
      </trkpt>
      <trkpt lat="43.65717" lon="2.7646">
        <ele>781</ele>
        <time>2013-08-13T10:47:26Z</time>
      </trkpt>
      <trkpt lat="43.65715" lon="2.76482">
        <ele>779</ele>
        <time>2013-08-13T10:47:28Z</time>
      </trkpt>
      <trkpt lat="43.65708" lon="2.76501">
        <ele>775</ele>
        <time>2013-08-13T10:47:30Z</time>
      </trkpt>
      <trkpt lat="43.65701" lon="2.76517">
        <ele>776</ele>
        <time>2013-08-13T10:47:32Z</time>
      </trkpt>
      <trkpt lat="43.65697" lon="2.7653">
        <ele>776</ele>
        <time>2013-08-13T10:47:34Z</time>
      </trkpt>
      <trkpt lat="43.65695" lon="2.76543">
        <ele>777</ele>
        <time>2013-08-13T10:47:36Z</time>
      </trkpt>
      <trkpt lat="43.65685" lon="2.76563">
        <ele>778</ele>
        <time>2013-08-13T10:47:38Z</time>
      </trkpt>
      <trkpt lat="43.65683" lon="2.76583">
        <ele>780</ele>
        <time>2013-08-13T10:47:40Z</time>
      </trkpt>
      <trkpt lat="43.6569" lon="2.76604">
        <ele>781</ele>
        <time>2013-08-13T10:47:42Z</time>
      </trkpt>
      <trkpt lat="43.65699" lon="2.76626">
        <ele>784</ele>
        <time>2013-08-13T10:47:44Z</time>
      </trkpt>
      <trkpt lat="43.65706" lon="2.76644">
        <ele>785</ele>
        <time>2013-08-13T10:47:46Z</time>
      </trkpt>
      <trkpt lat="43.65706" lon="2.76665">
        <ele>785</ele>
        <time>2013-08-13T10:47:48Z</time>
      </trkpt>
      <trkpt lat="43.65708" lon="2.76683">
        <ele>784</ele>
        <time>2013-08-13T10:47:50Z</time>
      </trkpt>
      <trkpt lat="43.65707" lon="2.76696">
        <ele>784</ele>
        <time>2013-08-13T10:47:51Z</time>
      </trkpt>
      <trkpt lat="43.65705" lon="2.76709">
        <ele>784</ele>
        <time>2013-08-13T10:47:52Z</time>
      </trkpt>
      <trkpt lat="43.65704" lon="2.7673">
        <ele>783</ele>
        <time>2013-08-13T10:47:54Z</time>
      </trkpt>
      <trkpt lat="43.65706" lon="2.76752">
        <ele>783</ele>
        <time>2013-08-13T10:47:56Z</time>
      </trkpt>
      <trkpt lat="43.65712" lon="2.76767">
        <ele>782</ele>
        <time>2013-08-13T10:47:58Z</time>
      </trkpt>
      <trkpt lat="43.65719" lon="2.76782">
        <ele>783</ele>
        <time>2013-08-13T10:48:00Z</time>
      </trkpt>
      <trkpt lat="43.65726" lon="2.76795">
        <ele>783</ele>
        <time>2013-08-13T10:48:02Z</time>
      </trkpt>
      <trkpt lat="43.65734" lon="2.76806">
        <ele>783</ele>
        <time>2013-08-13T10:48:04Z</time>
      </trkpt>
      <trkpt lat="43.65749" lon="2.76813">
        <ele>785</ele>
        <time>2013-08-13T10:48:06Z</time>
      </trkpt>
      <trkpt lat="43.65757" lon="2.76818">
        <ele>784</ele>
        <time>2013-08-13T10:48:07Z</time>
      </trkpt>
      <trkpt lat="43.65768" lon="2.76824">
        <ele>783</ele>
        <time>2013-08-13T10:48:08Z</time>
      </trkpt>
      <trkpt lat="43.65781" lon="2.76834">
        <ele>783</ele>
        <time>2013-08-13T10:48:10Z</time>
      </trkpt>
      <trkpt lat="43.65792" lon="2.76842">
        <ele>784</ele>
        <time>2013-08-13T10:48:12Z</time>
      </trkpt>
      <trkpt lat="43.65801" lon="2.7685">
        <ele>783</ele>
        <time>2013-08-13T10:48:14Z</time>
      </trkpt>
      <trkpt lat="43.65813" lon="2.76865">
        <ele>783</ele>
        <time>2013-08-13T10:48:16Z</time>
      </trkpt>
      <trkpt lat="43.65826" lon="2.76877">
        <ele>783</ele>
        <time>2013-08-13T10:48:18Z</time>
      </trkpt>
      <trkpt lat="43.65835" lon="2.76895">
        <ele>782</ele>
        <time>2013-08-13T10:48:20Z</time>
      </trkpt>
      <trkpt lat="43.65842" lon="2.76913">
        <ele>781</ele>
        <time>2013-08-13T10:48:22Z</time>
      </trkpt>
      <trkpt lat="43.65853" lon="2.76938">
        <ele>780</ele>
        <time>2013-08-13T10:48:24Z</time>
      </trkpt>
      <trkpt lat="43.65865" lon="2.76954">
        <ele>780</ele>
        <time>2013-08-13T10:48:26Z</time>
      </trkpt>
      <trkpt lat="43.65875" lon="2.76968">
        <ele>780</ele>
        <time>2013-08-13T10:48:28Z</time>
      </trkpt>
      <trkpt lat="43.65884" lon="2.7698">
        <ele>780</ele>
        <time>2013-08-13T10:48:30Z</time>
      </trkpt>
      <trkpt lat="43.65895" lon="2.76992">
        <ele>781</ele>
        <time>2013-08-13T10:48:32Z</time>
      </trkpt>
      <trkpt lat="43.65904" lon="2.77004">
        <ele>781</ele>
        <time>2013-08-13T10:48:34Z</time>
      </trkpt>
      <trkpt lat="43.65915" lon="2.77011">
        <ele>781</ele>
        <time>2013-08-13T10:48:36Z</time>
      </trkpt>
      <trkpt lat="43.65926" lon="2.77012">
        <ele>782</ele>
        <time>2013-08-13T10:48:38Z</time>
      </trkpt>
      <trkpt lat="43.65942" lon="2.77015">
        <ele>781</ele>
        <time>2013-08-13T10:48:40Z</time>
      </trkpt>
      <trkpt lat="43.65953" lon="2.77013">
        <ele>782</ele>
        <time>2013-08-13T10:48:42Z</time>
      </trkpt>
      <trkpt lat="43.65964" lon="2.77012">
        <ele>782</ele>
        <time>2013-08-13T10:48:44Z</time>
      </trkpt>
      <trkpt lat="43.65975" lon="2.77012">
        <ele>780</ele>
        <time>2013-08-13T10:48:46Z</time>
      </trkpt>
      <trkpt lat="43.65987" lon="2.77013">
        <ele>779</ele>
        <time>2013-08-13T10:48:48Z</time>
      </trkpt>
      <trkpt lat="43.65997" lon="2.77021">
        <ele>781</ele>
        <time>2013-08-13T10:48:50Z</time>
      </trkpt>
      <trkpt lat="43.66006" lon="2.77035">
        <ele>782</ele>
        <time>2013-08-13T10:48:52Z</time>
      </trkpt>
      <trkpt lat="43.66014" lon="2.77049">
        <ele>782</ele>
        <time>2013-08-13T10:48:54Z</time>
      </trkpt>
      <trkpt lat="43.66021" lon="2.77063">
        <ele>783</ele>
        <time>2013-08-13T10:48:56Z</time>
      </trkpt>
      <trkpt lat="43.66018" lon="2.77083">
        <ele>780</ele>
        <time>2013-08-13T10:48:59Z</time>
      </trkpt>
      <trkpt lat="43.66012" lon="2.77094">
        <ele>779</ele>
        <time>2013-08-13T10:49:02Z</time>
      </trkpt>
      <trkpt lat="43.66004" lon="2.77104">
        <ele>781</ele>
        <time>2013-08-13T10:49:05Z</time>
      </trkpt>
      <trkpt lat="43.6599" lon="2.77121">
        <ele>781</ele>
        <time>2013-08-13T10:49:08Z</time>
      </trkpt>
      <trkpt lat="43.65979" lon="2.77135">
        <ele>779</ele>
        <time>2013-08-13T10:49:10Z</time>
      </trkpt>
      <trkpt lat="43.65966" lon="2.77142">
        <ele>780</ele>
        <time>2013-08-13T10:49:13Z</time>
      </trkpt>
      <trkpt lat="43.65953" lon="2.77145">
        <ele>779</ele>
        <time>2013-08-13T10:49:15Z</time>
      </trkpt>
      <trkpt lat="43.65943" lon="2.77147">
        <ele>779</ele>
        <time>2013-08-13T10:49:16Z</time>
      </trkpt>
      <trkpt lat="43.65928" lon="2.77149">
        <ele>780</ele>
        <time>2013-08-13T10:49:18Z</time>
      </trkpt>
      <trkpt lat="43.65913" lon="2.77152">
        <ele>780</ele>
        <time>2013-08-13T10:49:20Z</time>
      </trkpt>
      <trkpt lat="43.65902" lon="2.7715">
        <ele>780</ele>
        <time>2013-08-13T10:49:22Z</time>
      </trkpt>
      <trkpt lat="43.65888" lon="2.77152">
        <ele>780</ele>
        <time>2013-08-13T10:49:24Z</time>
      </trkpt>
      <trkpt lat="43.65878" lon="2.77151">
        <ele>781</ele>
        <time>2013-08-13T10:49:26Z</time>
      </trkpt>
      <trkpt lat="43.65869" lon="2.77148">
        <ele>781</ele>
        <time>2013-08-13T10:49:28Z</time>
      </trkpt>
      <trkpt lat="43.65856" lon="2.77147">
        <ele>781</ele>
        <time>2013-08-13T10:49:30Z</time>
      </trkpt>
      <trkpt lat="43.65845" lon="2.77137">
        <ele>780</ele>
        <time>2013-08-13T10:49:32Z</time>
      </trkpt>
      <trkpt lat="43.65834" lon="2.77129">
        <ele>780</ele>
        <time>2013-08-13T10:49:34Z</time>
      </trkpt>
      <trkpt lat="43.65826" lon="2.77119">
        <ele>782</ele>
        <time>2013-08-13T10:49:36Z</time>
      </trkpt>
      <trkpt lat="43.65816" lon="2.77114">
        <ele>783</ele>
        <time>2013-08-13T10:49:40Z</time>
      </trkpt>
      <trkpt lat="43.65811" lon="2.77101">
        <ele>780</ele>
        <time>2013-08-13T10:49:44Z</time>
      </trkpt>
      <trkpt lat="43.65804" lon="2.77092">
        <ele>781</ele>
        <time>2013-08-13T10:49:47Z</time>
      </trkpt>
      <trkpt lat="43.65793" lon="2.77084">
        <ele>782</ele>
        <time>2013-08-13T10:49:51Z</time>
      </trkpt>
      <trkpt lat="43.65783" lon="2.77078">
        <ele>785</ele>
        <time>2013-08-13T10:49:54Z</time>
      </trkpt>
      <trkpt lat="43.65773" lon="2.77072">
        <ele>785</ele>
        <time>2013-08-13T10:49:57Z</time>
      </trkpt>
      <trkpt lat="43.65765" lon="2.77062">
        <ele>781</ele>
        <time>2013-08-13T10:50:00Z</time>
      </trkpt>
      <trkpt lat="43.65756" lon="2.77052">
        <ele>781</ele>
        <time>2013-08-13T10:50:03Z</time>
      </trkpt>
      <trkpt lat="43.65745" lon="2.77044">
        <ele>784</ele>
        <time>2013-08-13T10:50:06Z</time>
      </trkpt>
      <trkpt lat="43.65733" lon="2.77037">
        <ele>784</ele>
        <time>2013-08-13T10:50:09Z</time>
      </trkpt>
      <trkpt lat="43.65721" lon="2.77028">
        <ele>784</ele>
        <time>2013-08-13T10:50:12Z</time>
      </trkpt>
      <trkpt lat="43.6571" lon="2.7702">
        <ele>784</ele>
        <time>2013-08-13T10:50:15Z</time>
      </trkpt>
      <trkpt lat="43.65699" lon="2.77012">
        <ele>785</ele>
        <time>2013-08-13T10:50:18Z</time>
      </trkpt>
      <trkpt lat="43.65688" lon="2.77004">
        <ele>785</ele>
        <time>2013-08-13T10:50:21Z</time>
      </trkpt>
      <trkpt lat="43.65677" lon="2.76998">
        <ele>786</ele>
        <time>2013-08-13T10:50:24Z</time>
      </trkpt>
      <trkpt lat="43.65666" lon="2.76994">
        <ele>790</ele>
        <time>2013-08-13T10:50:27Z</time>
      </trkpt>
      <trkpt lat="43.65654" lon="2.76991">
        <ele>791</ele>
        <time>2013-08-13T10:50:30Z</time>
      </trkpt>
      <trkpt lat="43.65642" lon="2.76989">
        <ele>794</ele>
        <time>2013-08-13T10:50:33Z</time>
      </trkpt>
      <trkpt lat="43.65629" lon="2.76988">
        <ele>794</ele>
        <time>2013-08-13T10:50:36Z</time>
      </trkpt>
      <trkpt lat="43.6562" lon="2.76986">
        <ele>794</ele>
        <time>2013-08-13T10:50:38Z</time>
      </trkpt>
      <trkpt lat="43.6561" lon="2.76983">
        <ele>794</ele>
        <time>2013-08-13T10:50:40Z</time>
      </trkpt>
      <trkpt lat="43.656" lon="2.76982">
        <ele>797</ele>
        <time>2013-08-13T10:50:43Z</time>
      </trkpt>
      <trkpt lat="43.65587" lon="2.76978">
        <ele>796</ele>
        <time>2013-08-13T10:50:52Z</time>
      </trkpt>
      <trkpt lat="43.65577" lon="2.76977">
        <ele>799</ele>
        <time>2013-08-13T10:50:54Z</time>
      </trkpt>
      <trkpt lat="43.65565" lon="2.76972">
        <ele>800</ele>
        <time>2013-08-13T10:50:57Z</time>
      </trkpt>
      <trkpt lat="43.65552" lon="2.76968">
        <ele>799</ele>
        <time>2013-08-13T10:51:00Z</time>
      </trkpt>
      <trkpt lat="43.65539" lon="2.76963">
        <ele>799</ele>
        <time>2013-08-13T10:51:03Z</time>
      </trkpt>
      <trkpt lat="43.65526" lon="2.76957">
        <ele>800</ele>
        <time>2013-08-13T10:51:06Z</time>
      </trkpt>
      <trkpt lat="43.65515" lon="2.76953">
        <ele>800</ele>
        <time>2013-08-13T10:51:09Z</time>
      </trkpt>
      <trkpt lat="43.65506" lon="2.76948">
        <ele>801</ele>
        <time>2013-08-13T10:51:12Z</time>
      </trkpt>
      <trkpt lat="43.65497" lon="2.76941">
        <ele>802</ele>
        <time>2013-08-13T10:51:16Z</time>
      </trkpt>
      <trkpt lat="43.65504" lon="2.76932">
        <ele>801</ele>
        <time>2013-08-13T10:51:29Z</time>
      </trkpt>
      <trkpt lat="43.65496" lon="2.76919">
        <ele>795</ele>
        <time>2013-08-13T10:51:36Z</time>
      </trkpt>
      <trkpt lat="43.65482" lon="2.76912">
        <ele>795</ele>
        <time>2013-08-13T10:51:39Z</time>
      </trkpt>
      <trkpt lat="43.65471" lon="2.76906">
        <ele>800</ele>
        <time>2013-08-13T10:51:40Z</time>
      </trkpt>
      <trkpt lat="43.65458" lon="2.76897">
        <ele>802</ele>
        <time>2013-08-13T10:51:43Z</time>
      </trkpt>
      <trkpt lat="43.65448" lon="2.76888">
        <ele>800</ele>
        <time>2013-08-13T10:51:45Z</time>
      </trkpt>
      <trkpt lat="43.65434" lon="2.76879">
        <ele>800</ele>
        <time>2013-08-13T10:51:48Z</time>
      </trkpt>
      <trkpt lat="43.65429" lon="2.76868">
        <ele>804</ele>
        <time>2013-08-13T10:51:51Z</time>
      </trkpt>
      <trkpt lat="43.65419" lon="2.76861">
        <ele>799</ele>
        <time>2013-08-13T10:51:53Z</time>
      </trkpt>
      <trkpt lat="43.6541" lon="2.76853">
        <ele>803</ele>
        <time>2013-08-13T10:51:55Z</time>
      </trkpt>
      <trkpt lat="43.65401" lon="2.76847">
        <ele>802</ele>
        <time>2013-08-13T10:51:57Z</time>
      </trkpt>
      <trkpt lat="43.65391" lon="2.76841">
        <ele>799</ele>
        <time>2013-08-13T10:51:59Z</time>
      </trkpt>
      <trkpt lat="43.6538" lon="2.76836">
        <ele>799</ele>
        <time>2013-08-13T10:52:02Z</time>
      </trkpt>
      <trkpt lat="43.6537" lon="2.7683">
        <ele>800</ele>
        <time>2013-08-13T10:52:04Z</time>
      </trkpt>
      <trkpt lat="43.65356" lon="2.76819">
        <ele>799</ele>
        <time>2013-08-13T10:52:07Z</time>
      </trkpt>
      <trkpt lat="43.65344" lon="2.76815">
        <ele>799</ele>
        <time>2013-08-13T10:52:09Z</time>
      </trkpt>
      <trkpt lat="43.65334" lon="2.76801">
        <ele>796</ele>
        <time>2013-08-13T10:52:12Z</time>
      </trkpt>
      <trkpt lat="43.6532" lon="2.76794">
        <ele>795</ele>
        <time>2013-08-13T10:52:14Z</time>
      </trkpt>
      <trkpt lat="43.65306" lon="2.76787">
        <ele>794</ele>
        <time>2013-08-13T10:52:16Z</time>
      </trkpt>
      <trkpt lat="43.65297" lon="2.76782">
        <ele>793</ele>
        <time>2013-08-13T10:52:18Z</time>
      </trkpt>
      <trkpt lat="43.65288" lon="2.76774">
        <ele>794</ele>
        <time>2013-08-13T10:52:20Z</time>
      </trkpt>
      <trkpt lat="43.65277" lon="2.76771">
        <ele>794</ele>
        <time>2013-08-13T10:52:22Z</time>
      </trkpt>
      <trkpt lat="43.65268" lon="2.76762">
        <ele>794</ele>
        <time>2013-08-13T10:52:24Z</time>
      </trkpt>
      <trkpt lat="43.65258" lon="2.76754">
        <ele>794</ele>
        <time>2013-08-13T10:52:26Z</time>
      </trkpt>
      <trkpt lat="43.65246" lon="2.76746">
        <ele>798</ele>
        <time>2013-08-13T10:52:29Z</time>
      </trkpt>
      <trkpt lat="43.65235" lon="2.76737">
        <ele>798</ele>
        <time>2013-08-13T10:52:32Z</time>
      </trkpt>
      <trkpt lat="43.65232" lon="2.76724">
        <ele>792</ele>
        <time>2013-08-13T10:52:36Z</time>
      </trkpt>
      <trkpt lat="43.65223" lon="2.76712">
        <ele>791</ele>
        <time>2013-08-13T10:52:39Z</time>
      </trkpt>
      <trkpt lat="43.65215" lon="2.76704">
        <ele>790</ele>
        <time>2013-08-13T10:52:41Z</time>
      </trkpt>
      <trkpt lat="43.65208" lon="2.76696">
        <ele>790</ele>
        <time>2013-08-13T10:52:43Z</time>
      </trkpt>
      <trkpt lat="43.652" lon="2.76687">
        <ele>789</ele>
        <time>2013-08-13T10:52:45Z</time>
      </trkpt>
      <trkpt lat="43.65191" lon="2.76677">
        <ele>788</ele>
        <time>2013-08-13T10:52:47Z</time>
      </trkpt>
      <trkpt lat="43.65184" lon="2.76667">
        <ele>787</ele>
        <time>2013-08-13T10:52:49Z</time>
      </trkpt>
      <trkpt lat="43.65176" lon="2.76658">
        <ele>785</ele>
        <time>2013-08-13T10:52:51Z</time>
      </trkpt>
      <trkpt lat="43.65167" lon="2.76649">
        <ele>791</ele>
        <time>2013-08-13T10:52:54Z</time>
      </trkpt>
      <trkpt lat="43.65159" lon="2.76642">
        <ele>790</ele>
        <time>2013-08-13T10:52:57Z</time>
      </trkpt>
      <trkpt lat="43.65149" lon="2.76629">
        <ele>787</ele>
        <time>2013-08-13T10:53:00Z</time>
      </trkpt>
      <trkpt lat="43.65142" lon="2.76619">
        <ele>785</ele>
        <time>2013-08-13T10:53:02Z</time>
      </trkpt>
      <trkpt lat="43.65134" lon="2.7661">
        <ele>782</ele>
        <time>2013-08-13T10:53:04Z</time>
      </trkpt>
      <trkpt lat="43.65126" lon="2.76603">
        <ele>781</ele>
        <time>2013-08-13T10:53:06Z</time>
      </trkpt>
      <trkpt lat="43.65113" lon="2.76594">
        <ele>783</ele>
        <time>2013-08-13T10:53:09Z</time>
      </trkpt>
      <trkpt lat="43.65102" lon="2.76586">
        <ele>781</ele>
        <time>2013-08-13T10:53:12Z</time>
      </trkpt>
      <trkpt lat="43.65093" lon="2.76577">
        <ele>781</ele>
        <time>2013-08-13T10:53:15Z</time>
      </trkpt>
      <trkpt lat="43.65085" lon="2.76569">
        <ele>772</ele>
        <time>2013-08-13T10:53:19Z</time>
      </trkpt>
      <trkpt lat="43.65074" lon="2.76575">
        <ele>767</ele>
        <time>2013-08-13T10:53:30Z</time>
      </trkpt>
      <trkpt lat="43.65064" lon="2.76584">
        <ele>770</ele>
        <time>2013-08-13T10:53:34Z</time>
      </trkpt>
      <trkpt lat="43.65047" lon="2.76586">
        <ele>773</ele>
        <time>2013-08-13T10:53:38Z</time>
      </trkpt>
      <trkpt lat="43.65038" lon="2.76587">
        <ele>773</ele>
        <time>2013-08-13T10:53:40Z</time>
      </trkpt>
      <trkpt lat="43.65028" lon="2.76592">
        <ele>774</ele>
        <time>2013-08-13T10:53:42Z</time>
      </trkpt>
      <trkpt lat="43.65038" lon="2.766">
        <ele>776</ele>
        <time>2013-08-13T10:53:44Z</time>
      </trkpt>
      <trkpt lat="43.65034" lon="2.76614">
        <ele>770</ele>
        <time>2013-08-13T10:53:49Z</time>
      </trkpt>
      <trkpt lat="43.6503" lon="2.76628">
        <ele>773</ele>
        <time>2013-08-13T10:53:53Z</time>
      </trkpt>
      <trkpt lat="43.65025" lon="2.76642">
        <ele>774</ele>
        <time>2013-08-13T10:53:57Z</time>
      </trkpt>
      <trkpt lat="43.65017" lon="2.76654">
        <ele>775</ele>
        <time>2013-08-13T10:54:00Z</time>
      </trkpt>
      <trkpt lat="43.65011" lon="2.76666">
        <ele>776</ele>
        <time>2013-08-13T10:54:03Z</time>
      </trkpt>
      <trkpt lat="43.6501" lon="2.7668">
        <ele>777</ele>
        <time>2013-08-13T10:54:06Z</time>
      </trkpt>
      <trkpt lat="43.65009" lon="2.76695">
        <ele>776</ele>
        <time>2013-08-13T10:54:10Z</time>
      </trkpt>
      <trkpt lat="43.65002" lon="2.76707">
        <ele>782</ele>
        <time>2013-08-13T10:54:37Z</time>
      </trkpt>
      <trkpt lat="43.64996" lon="2.76717">
        <ele>782</ele>
        <time>2013-08-13T10:54:40Z</time>
      </trkpt>
      <trkpt lat="43.64988" lon="2.76728">
        <ele>782</ele>
        <time>2013-08-13T10:54:43Z</time>
      </trkpt>
      <trkpt lat="43.64979" lon="2.76743">
        <ele>780</ele>
        <time>2013-08-13T10:54:46Z</time>
      </trkpt>
      <trkpt lat="43.64973" lon="2.76756">
        <ele>779</ele>
        <time>2013-08-13T10:54:48Z</time>
      </trkpt>
      <trkpt lat="43.64968" lon="2.76769">
        <ele>779</ele>
        <time>2013-08-13T10:54:50Z</time>
      </trkpt>
      <trkpt lat="43.64964" lon="2.76782">
        <ele>777</ele>
        <time>2013-08-13T10:54:52Z</time>
      </trkpt>
      <trkpt lat="43.64958" lon="2.76798">
        <ele>777</ele>
        <time>2013-08-13T10:54:55Z</time>
      </trkpt>
      <trkpt lat="43.64957" lon="2.76812">
        <ele>779</ele>
        <time>2013-08-13T10:54:59Z</time>
      </trkpt>
      <trkpt lat="43.6496" lon="2.76826">
        <ele>783</ele>
        <time>2013-08-13T10:55:05Z</time>
      </trkpt>
      <trkpt lat="43.6496" lon="2.76839">
        <ele>783</ele>
        <time>2013-08-13T10:55:09Z</time>
      </trkpt>
      <trkpt lat="43.64954" lon="2.76855">
        <ele>782</ele>
        <time>2013-08-13T10:55:13Z</time>
      </trkpt>
      <trkpt lat="43.64949" lon="2.76873">
        <ele>780</ele>
        <time>2013-08-13T10:55:16Z</time>
      </trkpt>
      <trkpt lat="43.64944" lon="2.7689">
        <ele>781</ele>
        <time>2013-08-13T10:55:19Z</time>
      </trkpt>
      <trkpt lat="43.64941" lon="2.76906">
        <ele>783</ele>
        <time>2013-08-13T10:55:22Z</time>
      </trkpt>
      <trkpt lat="43.6494" lon="2.7692">
        <ele>783</ele>
        <time>2013-08-13T10:55:25Z</time>
      </trkpt>
      <trkpt lat="43.64938" lon="2.76933">
        <ele>785</ele>
        <time>2013-08-13T10:55:29Z</time>
      </trkpt>
      <trkpt lat="43.64939" lon="2.76947">
        <ele>787</ele>
        <time>2013-08-13T10:55:34Z</time>
      </trkpt>
      <trkpt lat="43.64943" lon="2.76964">
        <ele>788</ele>
        <time>2013-08-13T10:55:38Z</time>
      </trkpt>
      <trkpt lat="43.64951" lon="2.76975">
        <ele>785</ele>
        <time>2013-08-13T10:55:41Z</time>
      </trkpt>
      <trkpt lat="43.6496" lon="2.76984">
        <ele>785</ele>
        <time>2013-08-13T10:55:44Z</time>
      </trkpt>
      <trkpt lat="43.6497" lon="2.76993">
        <ele>790</ele>
        <time>2013-08-13T10:55:47Z</time>
      </trkpt>
      <trkpt lat="43.64979" lon="2.77009">
        <ele>791</ele>
        <time>2013-08-13T10:55:50Z</time>
      </trkpt>
      <trkpt lat="43.64988" lon="2.77018">
        <ele>789</ele>
        <time>2013-08-13T10:55:54Z</time>
      </trkpt>
      <trkpt lat="43.64996" lon="2.77036">
        <ele>787</ele>
        <time>2013-08-13T10:55:58Z</time>
      </trkpt>
      <trkpt lat="43.65002" lon="2.77052">
        <ele>784</ele>
        <time>2013-08-13T10:56:01Z</time>
      </trkpt>
      <trkpt lat="43.65005" lon="2.77071">
        <ele>780</ele>
        <time>2013-08-13T10:56:04Z</time>
      </trkpt>
      <trkpt lat="43.65002" lon="2.77087">
        <ele>778</ele>
        <time>2013-08-13T10:56:07Z</time>
      </trkpt>
      <trkpt lat="43.64988" lon="2.77099">
        <ele>777</ele>
        <time>2013-08-13T10:56:08Z</time>
      </trkpt>
      <trkpt lat="43.64981" lon="2.77109">
        <ele>778</ele>
        <time>2013-08-13T10:56:10Z</time>
      </trkpt>
      <trkpt lat="43.64969" lon="2.77119">
        <ele>779</ele>
        <time>2013-08-13T10:56:13Z</time>
      </trkpt>
      <trkpt lat="43.64956" lon="2.77124">
        <ele>772</ele>
        <time>2013-08-13T10:56:17Z</time>
      </trkpt>
      <trkpt lat="43.64947" lon="2.77136">
        <ele>771</ele>
        <time>2013-08-13T10:56:19Z</time>
      </trkpt>
      <trkpt lat="43.64939" lon="2.77145">
        <ele>773</ele>
        <time>2013-08-13T10:56:21Z</time>
      </trkpt>
      <trkpt lat="43.64931" lon="2.77158">
        <ele>772</ele>
        <time>2013-08-13T10:56:23Z</time>
      </trkpt>
      <trkpt lat="43.64924" lon="2.77168">
        <ele>772</ele>
        <time>2013-08-13T10:56:25Z</time>
      </trkpt>
      <trkpt lat="43.64911" lon="2.77174">
        <ele>772</ele>
        <time>2013-08-13T10:56:27Z</time>
      </trkpt>
      <trkpt lat="43.64904" lon="2.77182">
        <ele>773</ele>
        <time>2013-08-13T10:56:29Z</time>
      </trkpt>
      <trkpt lat="43.64896" lon="2.77192">
        <ele>773</ele>
        <time>2013-08-13T10:56:32Z</time>
      </trkpt>
      <trkpt lat="43.64887" lon="2.77206">
        <ele>776</ele>
        <time>2013-08-13T10:56:35Z</time>
      </trkpt>
      <trkpt lat="43.64888" lon="2.77223">
        <ele>779</ele>
        <time>2013-08-13T10:56:38Z</time>
      </trkpt>
      <trkpt lat="43.64882" lon="2.7724">
        <ele>778</ele>
        <time>2013-08-13T10:56:41Z</time>
      </trkpt>
      <trkpt lat="43.64877" lon="2.77257">
        <ele>778</ele>
        <time>2013-08-13T10:56:44Z</time>
      </trkpt>
      <trkpt lat="43.64872" lon="2.77273">
        <ele>778</ele>
        <time>2013-08-13T10:56:47Z</time>
      </trkpt>
      <trkpt lat="43.64869" lon="2.77293">
        <ele>780</ele>
        <time>2013-08-13T10:56:50Z</time>
      </trkpt>
      <trkpt lat="43.64863" lon="2.77311">
        <ele>779</ele>
        <time>2013-08-13T10:56:53Z</time>
      </trkpt>
      <trkpt lat="43.64866" lon="2.77331">
        <ele>778</ele>
        <time>2013-08-13T10:56:56Z</time>
      </trkpt>
      <trkpt lat="43.64865" lon="2.77345">
        <ele>776</ele>
        <time>2013-08-13T10:56:59Z</time>
      </trkpt>
      <trkpt lat="43.64864" lon="2.77358">
        <ele>774</ele>
        <time>2013-08-13T10:57:02Z</time>
      </trkpt>
      <trkpt lat="43.64867" lon="2.77372">
        <ele>775</ele>
        <time>2013-08-13T10:57:04Z</time>
      </trkpt>
      <trkpt lat="43.64875" lon="2.77389">
        <ele>772</ele>
        <time>2013-08-13T10:57:07Z</time>
      </trkpt>
      <trkpt lat="43.6488" lon="2.77404">
        <ele>774</ele>
        <time>2013-08-13T10:57:10Z</time>
      </trkpt>
      <trkpt lat="43.64884" lon="2.77419">
        <ele>774</ele>
        <time>2013-08-13T10:57:13Z</time>
      </trkpt>
      <trkpt lat="43.64887" lon="2.77424">
        <ele>777</ele>
        <time>2013-08-13T10:58:00Z</time>
      </trkpt>
      <trkpt lat="43.64886" lon="2.77423">
        <ele>778</ele>
        <time>2013-08-13T10:58:17Z</time>
      </trkpt>
      <trkpt lat="43.64887" lon="2.77423">
        <ele>778</ele>
        <time>2013-08-13T10:58:17Z</time>
      </trkpt>
      <trkpt lat="43.64891" lon="2.77435">
        <ele>776</ele>
        <time>2013-08-13T10:58:31Z</time>
      </trkpt>
      <trkpt lat="43.6489" lon="2.77461">
        <ele>774</ele>
        <time>2013-08-13T10:58:34Z</time>
      </trkpt>
      <trkpt lat="43.64886" lon="2.7748">
        <ele>769</ele>
        <time>2013-08-13T10:58:36Z</time>
      </trkpt>
      <trkpt lat="43.64884" lon="2.77495">
        <ele>769</ele>
        <time>2013-08-13T10:58:38Z</time>
      </trkpt>
      <trkpt lat="43.6488" lon="2.7751">
        <ele>770</ele>
        <time>2013-08-13T10:58:40Z</time>
      </trkpt>
      <trkpt lat="43.64878" lon="2.77525">
        <ele>770</ele>
        <time>2013-08-13T10:58:42Z</time>
      </trkpt>
      <trkpt lat="43.64874" lon="2.77541">
        <ele>769</ele>
        <time>2013-08-13T10:58:44Z</time>
      </trkpt>
      <trkpt lat="43.64879" lon="2.77557">
        <ele>770</ele>
        <time>2013-08-13T10:58:46Z</time>
      </trkpt>
      <trkpt lat="43.64879" lon="2.77571">
        <ele>769</ele>
        <time>2013-08-13T10:58:48Z</time>
      </trkpt>
      <trkpt lat="43.64882" lon="2.77585">
        <ele>770</ele>
        <time>2013-08-13T10:58:50Z</time>
      </trkpt>
      <trkpt lat="43.64885" lon="2.77599">
        <ele>771</ele>
        <time>2013-08-13T10:58:52Z</time>
      </trkpt>
      <trkpt lat="43.64888" lon="2.77613">
        <ele>772</ele>
        <time>2013-08-13T10:58:55Z</time>
      </trkpt>
      <trkpt lat="43.64876" lon="2.77628">
        <ele>770</ele>
        <time>2013-08-13T10:58:59Z</time>
      </trkpt>
      <trkpt lat="43.64869" lon="2.77636">
        <ele>772</ele>
        <time>2013-08-13T10:59:02Z</time>
      </trkpt>
      <trkpt lat="43.64859" lon="2.77636">
        <ele>771</ele>
        <time>2013-08-13T10:59:04Z</time>
      </trkpt>
      <trkpt lat="43.64844" lon="2.77623">
        <ele>772</ele>
        <time>2013-08-13T10:59:06Z</time>
      </trkpt>
      <trkpt lat="43.64835" lon="2.77615">
        <ele>773</ele>
        <time>2013-08-13T10:59:08Z</time>
      </trkpt>
      <trkpt lat="43.64826" lon="2.77608">
        <ele>772</ele>
        <time>2013-08-13T10:59:10Z</time>
      </trkpt>
      <trkpt lat="43.64813" lon="2.77604">
        <ele>774</ele>
        <time>2013-08-13T10:59:13Z</time>
      </trkpt>
      <trkpt lat="43.64803" lon="2.77602">
        <ele>776</ele>
        <time>2013-08-13T10:59:15Z</time>
      </trkpt>
      <trkpt lat="43.64792" lon="2.77601">
        <ele>779</ele>
        <time>2013-08-13T10:59:17Z</time>
      </trkpt>
      <trkpt lat="43.64778" lon="2.77598">
        <ele>785</ele>
        <time>2013-08-13T10:59:24Z</time>
      </trkpt>
      <trkpt lat="43.64769" lon="2.77601">
        <ele>783</ele>
        <time>2013-08-13T10:59:29Z</time>
      </trkpt>
      <trkpt lat="43.64761" lon="2.77608">
        <ele>780</ele>
        <time>2013-08-13T10:59:38Z</time>
      </trkpt>
      <trkpt lat="43.64749" lon="2.77612">
        <ele>781</ele>
        <time>2013-08-13T10:59:43Z</time>
      </trkpt>
      <trkpt lat="43.64742" lon="2.77621">
        <ele>783</ele>
        <time>2013-08-13T10:59:46Z</time>
      </trkpt>
      <trkpt lat="43.64735" lon="2.77635">
        <ele>783</ele>
        <time>2013-08-13T10:59:49Z</time>
      </trkpt>
      <trkpt lat="43.6473" lon="2.77651">
        <ele>782</ele>
        <time>2013-08-13T10:59:52Z</time>
      </trkpt>
      <trkpt lat="43.64726" lon="2.77665">
        <ele>780</ele>
        <time>2013-08-13T10:59:55Z</time>
      </trkpt>
      <trkpt lat="43.64721" lon="2.77676">
        <ele>778</ele>
        <time>2013-08-13T10:59:58Z</time>
      </trkpt>
      <trkpt lat="43.64723" lon="2.7769">
        <ele>780</ele>
        <time>2013-08-13T11:00:03Z</time>
      </trkpt>
      <trkpt lat="43.64725" lon="2.77703">
        <ele>784</ele>
        <time>2013-08-13T11:00:23Z</time>
      </trkpt>
      <trkpt lat="43.64734" lon="2.77699">
        <ele>789</ele>
        <time>2013-08-13T11:00:55Z</time>
      </trkpt>
      <trkpt lat="43.64742" lon="2.7769">
        <ele>786</ele>
        <time>2013-08-13T11:00:59Z</time>
      </trkpt>
      <trkpt lat="43.64751" lon="2.77683">
        <ele>786</ele>
        <time>2013-08-13T11:01:03Z</time>
      </trkpt>
      <trkpt lat="43.64762" lon="2.77679">
        <ele>791</ele>
        <time>2013-08-13T11:01:06Z</time>
      </trkpt>
      <trkpt lat="43.64771" lon="2.77679">
        <ele>795</ele>
        <time>2013-08-13T11:01:10Z</time>
      </trkpt>
      <trkpt lat="43.64781" lon="2.77682">
        <ele>795</ele>
        <time>2013-08-13T11:01:15Z</time>
      </trkpt>
      <trkpt lat="43.6479" lon="2.77692">
        <ele>795</ele>
        <time>2013-08-13T11:01:21Z</time>
      </trkpt>
      <trkpt lat="43.64791" lon="2.77705">
        <ele>794</ele>
        <time>2013-08-13T11:01:24Z</time>
      </trkpt>
      <trkpt lat="43.64791" lon="2.77718">
        <ele>794</ele>
        <time>2013-08-13T11:01:28Z</time>
      </trkpt>
      <trkpt lat="43.64792" lon="2.77732">
        <ele>795</ele>
        <time>2013-08-13T11:01:33Z</time>
      </trkpt>
      <trkpt lat="43.64797" lon="2.77744">
        <ele>797</ele>
        <time>2013-08-13T11:01:58Z</time>
      </trkpt>
    </trkseg>
  </trk>
</gpx>